<?xml version="1.0" encoding="UTF-8" standalone="no" ?>
<gpx xmlns="http://www.topografix.com/GPX/1/1" xmlns:xsi="http://www.w3.org/2001/XMLSchema-instance" xsi:schemaLocation="http://www.topografix.com/GPX/1/1 http://www.topografix.com/GPX/1/1/gpx.xsd" version="1.1" creator="VisuGPX - https://www.visugpx.com">
  <metadata>
    <name>Rando Wingen s/Moder </name>
    <desc><![CDATA[Rando Wingen s/Moder organisée par le Club Vosgien
]]></desc>
  </metadata>
  <trk>
    <name><![CDATA[ADi2011/05/22_09:53]]></name>
    <trkseg>
      <trkpt lat="48.91611" lon="7.36738">
        <ele>228.2</ele>
        <time>2011-05-22T07:53:06Z</time>
      </trkpt>
      <trkpt lat="48.91631" lon="7.36768">
        <ele>227.7</ele>
        <time>2011-05-22T07:53:16Z</time>
      </trkpt>
      <trkpt lat="48.91656" lon="7.36792">
        <ele>227</ele>
        <time>2011-05-22T07:53:24Z</time>
      </trkpt>
      <trkpt lat="48.91681" lon="7.36815">
        <ele>225.8</ele>
        <time>2011-05-22T07:53:35Z</time>
      </trkpt>
      <trkpt lat="48.91707" lon="7.36834">
        <ele>225</ele>
        <time>2011-05-22T07:53:47Z</time>
      </trkpt>
      <trkpt lat="48.91722" lon="7.36872">
        <ele>224.2</ele>
        <time>2011-05-22T07:53:55Z</time>
      </trkpt>
      <trkpt lat="48.91737" lon="7.36913">
        <ele>223.7</ele>
        <time>2011-05-22T07:54:03Z</time>
      </trkpt>
      <trkpt lat="48.91744" lon="7.36958">
        <ele>223.4</ele>
        <time>2011-05-22T07:54:11Z</time>
      </trkpt>
      <trkpt lat="48.91745" lon="7.37004">
        <ele>222.8</ele>
        <time>2011-05-22T07:54:19Z</time>
      </trkpt>
      <trkpt lat="48.91746" lon="7.37047">
        <ele>221.3</ele>
        <time>2011-05-22T07:54:26Z</time>
      </trkpt>
      <trkpt lat="48.91742" lon="7.37087">
        <ele>219.9</ele>
        <time>2011-05-22T07:54:36Z</time>
      </trkpt>
      <trkpt lat="48.91715" lon="7.37077">
        <ele>220.2</ele>
        <time>2011-05-22T07:54:43Z</time>
      </trkpt>
      <trkpt lat="48.91691" lon="7.37103">
        <ele>219.4</ele>
        <time>2011-05-22T07:54:50Z</time>
      </trkpt>
      <trkpt lat="48.91682" lon="7.37145">
        <ele>218.1</ele>
        <time>2011-05-22T07:54:56Z</time>
      </trkpt>
      <trkpt lat="48.91681" lon="7.37186">
        <ele>217.5</ele>
        <time>2011-05-22T07:55:01Z</time>
      </trkpt>
      <trkpt lat="48.91676" lon="7.37227">
        <ele>217.9</ele>
        <time>2011-05-22T07:55:06Z</time>
      </trkpt>
      <trkpt lat="48.91665" lon="7.37271">
        <ele>218.5</ele>
        <time>2011-05-22T07:55:12Z</time>
      </trkpt>
      <trkpt lat="48.91646" lon="7.37302">
        <ele>219</ele>
        <time>2011-05-22T07:55:19Z</time>
      </trkpt>
      <trkpt lat="48.91618" lon="7.37304">
        <ele>218.7</ele>
        <time>2011-05-22T07:55:29Z</time>
      </trkpt>
      <trkpt lat="48.91599" lon="7.37335">
        <ele>219.3</ele>
        <time>2011-05-22T07:55:44Z</time>
      </trkpt>
      <trkpt lat="48.91586" lon="7.37372">
        <ele>221.3</ele>
        <time>2011-05-22T07:55:59Z</time>
      </trkpt>
      <trkpt lat="48.91573" lon="7.37411">
        <ele>224.7</ele>
        <time>2011-05-22T07:56:13Z</time>
      </trkpt>
      <trkpt lat="48.91563" lon="7.37453">
        <ele>227.7</ele>
        <time>2011-05-22T07:56:26Z</time>
      </trkpt>
      <trkpt lat="48.9155" lon="7.37489">
        <ele>230.1</ele>
        <time>2011-05-22T07:56:39Z</time>
      </trkpt>
      <trkpt lat="48.91526" lon="7.37466">
        <ele>230.8</ele>
        <time>2011-05-22T07:56:52Z</time>
      </trkpt>
      <trkpt lat="48.91511" lon="7.3743">
        <ele>231.2</ele>
        <time>2011-05-22T07:57:25Z</time>
      </trkpt>
      <trkpt lat="48.91496" lon="7.37392">
        <ele>231.6</ele>
        <time>2011-05-22T07:57:37Z</time>
      </trkpt>
      <trkpt lat="48.91478" lon="7.37359">
        <ele>233.2</ele>
        <time>2011-05-22T07:57:49Z</time>
      </trkpt>
      <trkpt lat="48.91459" lon="7.37329">
        <ele>235.3</ele>
        <time>2011-05-22T07:58:10Z</time>
      </trkpt>
      <trkpt lat="48.91438" lon="7.37358">
        <ele>239.1</ele>
        <time>2011-05-22T07:58:37Z</time>
      </trkpt>
      <trkpt lat="48.91414" lon="7.37379">
        <ele>242.8</ele>
        <time>2011-05-22T07:58:52Z</time>
      </trkpt>
      <trkpt lat="48.9139" lon="7.37402">
        <ele>245.2</ele>
        <time>2011-05-22T07:59:08Z</time>
      </trkpt>
      <trkpt lat="48.91362" lon="7.37398">
        <ele>247.7</ele>
        <time>2011-05-22T07:59:23Z</time>
      </trkpt>
      <trkpt lat="48.91336" lon="7.374">
        <ele>250</ele>
        <time>2011-05-22T07:59:34Z</time>
      </trkpt>
      <trkpt lat="48.91307" lon="7.37396">
        <ele>254.1</ele>
        <time>2011-05-22T07:59:48Z</time>
      </trkpt>
      <trkpt lat="48.9128" lon="7.37407">
        <ele>256.9</ele>
        <time>2011-05-22T08:00:02Z</time>
      </trkpt>
      <trkpt lat="48.91259" lon="7.37433">
        <ele>257.5</ele>
        <time>2011-05-22T08:00:16Z</time>
      </trkpt>
      <trkpt lat="48.91272" lon="7.37471">
        <ele>253.3</ele>
        <time>2011-05-22T08:00:27Z</time>
      </trkpt>
      <trkpt lat="48.91284" lon="7.37508">
        <ele>250.7</ele>
        <time>2011-05-22T08:00:37Z</time>
      </trkpt>
      <trkpt lat="48.91297" lon="7.37543">
        <ele>250.2</ele>
        <time>2011-05-22T08:00:46Z</time>
      </trkpt>
      <trkpt lat="48.91318" lon="7.37573">
        <ele>248.1</ele>
        <time>2011-05-22T08:00:57Z</time>
      </trkpt>
      <trkpt lat="48.91326" lon="7.37612">
        <ele>247.5</ele>
        <time>2011-05-22T08:01:08Z</time>
      </trkpt>
      <trkpt lat="48.91336" lon="7.3765">
        <ele>246.5</ele>
        <time>2011-05-22T08:01:19Z</time>
      </trkpt>
      <trkpt lat="48.91336" lon="7.37693">
        <ele>246.7</ele>
        <time>2011-05-22T08:01:29Z</time>
      </trkpt>
      <trkpt lat="48.91343" lon="7.37734">
        <ele>245.7</ele>
        <time>2011-05-22T08:01:38Z</time>
      </trkpt>
      <trkpt lat="48.91349" lon="7.37777">
        <ele>246</ele>
        <time>2011-05-22T08:01:46Z</time>
      </trkpt>
      <trkpt lat="48.91357" lon="7.37817">
        <ele>246.4</ele>
        <time>2011-05-22T08:01:54Z</time>
      </trkpt>
      <trkpt lat="48.91366" lon="7.37857">
        <ele>246.3</ele>
        <time>2011-05-22T08:02:02Z</time>
      </trkpt>
      <trkpt lat="48.91373" lon="7.37902">
        <ele>246.3</ele>
        <time>2011-05-22T08:02:10Z</time>
      </trkpt>
      <trkpt lat="48.91369" lon="7.37943">
        <ele>248.6</ele>
        <time>2011-05-22T08:02:16Z</time>
      </trkpt>
      <trkpt lat="48.91374" lon="7.37983">
        <ele>249.4</ele>
        <time>2011-05-22T08:02:24Z</time>
      </trkpt>
      <trkpt lat="48.91379" lon="7.38028">
        <ele>249.9</ele>
        <time>2011-05-22T08:02:34Z</time>
      </trkpt>
      <trkpt lat="48.91369" lon="7.38077">
        <ele>252.3</ele>
        <time>2011-05-22T08:02:42Z</time>
      </trkpt>
      <trkpt lat="48.91364" lon="7.38119">
        <ele>253.8</ele>
        <time>2011-05-22T08:02:49Z</time>
      </trkpt>
      <trkpt lat="48.9136" lon="7.38162">
        <ele>255.5</ele>
        <time>2011-05-22T08:02:56Z</time>
      </trkpt>
      <trkpt lat="48.91357" lon="7.38206">
        <ele>257.9</ele>
        <time>2011-05-22T08:03:03Z</time>
      </trkpt>
      <trkpt lat="48.91357" lon="7.38252">
        <ele>260.1</ele>
        <time>2011-05-22T08:03:10Z</time>
      </trkpt>
      <trkpt lat="48.91365" lon="7.38292">
        <ele>261</ele>
        <time>2011-05-22T08:03:17Z</time>
      </trkpt>
      <trkpt lat="48.91374" lon="7.38333">
        <ele>260.7</ele>
        <time>2011-05-22T08:03:25Z</time>
      </trkpt>
      <trkpt lat="48.91386" lon="7.38372">
        <ele>259.8</ele>
        <time>2011-05-22T08:03:33Z</time>
      </trkpt>
      <trkpt lat="48.91395" lon="7.38413">
        <ele>260.1</ele>
        <time>2011-05-22T08:03:42Z</time>
      </trkpt>
      <trkpt lat="48.91402" lon="7.38457">
        <ele>259.7</ele>
        <time>2011-05-22T08:03:51Z</time>
      </trkpt>
      <trkpt lat="48.91403" lon="7.38504">
        <ele>261.6</ele>
        <time>2011-05-22T08:03:59Z</time>
      </trkpt>
      <trkpt lat="48.91411" lon="7.38544">
        <ele>259.4</ele>
        <time>2011-05-22T08:04:07Z</time>
      </trkpt>
      <trkpt lat="48.91418" lon="7.38589">
        <ele>258</ele>
        <time>2011-05-22T08:04:16Z</time>
      </trkpt>
      <trkpt lat="48.91424" lon="7.38634">
        <ele>258.4</ele>
        <time>2011-05-22T08:04:24Z</time>
      </trkpt>
      <trkpt lat="48.91439" lon="7.38669">
        <ele>255.3</ele>
        <time>2011-05-22T08:04:31Z</time>
      </trkpt>
      <trkpt lat="48.91454" lon="7.38704">
        <ele>253</ele>
        <time>2011-05-22T08:04:38Z</time>
      </trkpt>
      <trkpt lat="48.91465" lon="7.38743">
        <ele>252.2</ele>
        <time>2011-05-22T08:04:45Z</time>
      </trkpt>
      <trkpt lat="48.91481" lon="7.38778">
        <ele>249</ele>
        <time>2011-05-22T08:04:51Z</time>
      </trkpt>
      <trkpt lat="48.91499" lon="7.38816">
        <ele>245</ele>
        <time>2011-05-22T08:04:56Z</time>
      </trkpt>
      <trkpt lat="48.91513" lon="7.38854">
        <ele>242</ele>
        <time>2011-05-22T08:05:00Z</time>
      </trkpt>
      <trkpt lat="48.91524" lon="7.38898">
        <ele>238.9</ele>
        <time>2011-05-22T08:05:04Z</time>
      </trkpt>
      <trkpt lat="48.91536" lon="7.38944">
        <ele>236.5</ele>
        <time>2011-05-22T08:05:08Z</time>
      </trkpt>
      <trkpt lat="48.9154" lon="7.38992">
        <ele>236.9</ele>
        <time>2011-05-22T08:05:12Z</time>
      </trkpt>
      <trkpt lat="48.91553" lon="7.39035">
        <ele>231.7</ele>
        <time>2011-05-22T08:05:17Z</time>
      </trkpt>
      <trkpt lat="48.91554" lon="7.39081">
        <ele>232.2</ele>
        <time>2011-05-22T08:05:23Z</time>
      </trkpt>
      <trkpt lat="48.91554" lon="7.39123">
        <ele>231.2</ele>
        <time>2011-05-22T08:05:33Z</time>
      </trkpt>
      <trkpt lat="48.91551" lon="7.39168">
        <ele>231.9</ele>
        <time>2011-05-22T08:05:45Z</time>
      </trkpt>
      <trkpt lat="48.9154" lon="7.39208">
        <ele>236.8</ele>
        <time>2011-05-22T08:05:52Z</time>
      </trkpt>
      <trkpt lat="48.91531" lon="7.39249">
        <ele>241</ele>
        <time>2011-05-22T08:06:02Z</time>
      </trkpt>
      <trkpt lat="48.91525" lon="7.39292">
        <ele>244</ele>
        <time>2011-05-22T08:06:13Z</time>
      </trkpt>
      <trkpt lat="48.91514" lon="7.39331">
        <ele>248.7</ele>
        <time>2011-05-22T08:06:27Z</time>
      </trkpt>
      <trkpt lat="48.91507" lon="7.39371">
        <ele>250.1</ele>
        <time>2011-05-22T08:06:40Z</time>
      </trkpt>
      <trkpt lat="48.91501" lon="7.39411">
        <ele>251.1</ele>
        <time>2011-05-22T08:06:54Z</time>
      </trkpt>
      <trkpt lat="48.91493" lon="7.39451">
        <ele>252.3</ele>
        <time>2011-05-22T08:07:10Z</time>
      </trkpt>
      <trkpt lat="48.91492" lon="7.39494">
        <ele>250.5</ele>
        <time>2011-05-22T08:07:25Z</time>
      </trkpt>
      <trkpt lat="48.9147" lon="7.3952">
        <ele>256.4</ele>
        <time>2011-05-22T08:07:38Z</time>
      </trkpt>
      <trkpt lat="48.91449" lon="7.39544">
        <ele>260.4</ele>
        <time>2011-05-22T08:07:50Z</time>
      </trkpt>
      <trkpt lat="48.91435" lon="7.39582">
        <ele>258.6</ele>
        <time>2011-05-22T08:08:01Z</time>
      </trkpt>
      <trkpt lat="48.91415" lon="7.39614">
        <ele>260.3</ele>
        <time>2011-05-22T08:08:11Z</time>
      </trkpt>
      <trkpt lat="48.91401" lon="7.3965">
        <ele>258.4</ele>
        <time>2011-05-22T08:08:23Z</time>
      </trkpt>
      <trkpt lat="48.9138" lon="7.39678">
        <ele>257.8</ele>
        <time>2011-05-22T08:08:44Z</time>
      </trkpt>
      <trkpt lat="48.91353" lon="7.39683">
        <ele>259.8</ele>
        <time>2011-05-22T08:09:05Z</time>
      </trkpt>
      <trkpt lat="48.91325" lon="7.39688">
        <ele>259.9</ele>
        <time>2011-05-22T08:09:43Z</time>
      </trkpt>
      <trkpt lat="48.91299" lon="7.39677">
        <ele>257.3</ele>
        <time>2011-05-22T08:09:58Z</time>
      </trkpt>
      <trkpt lat="48.91272" lon="7.39655">
        <ele>255.9</ele>
        <time>2011-05-22T08:10:07Z</time>
      </trkpt>
      <trkpt lat="48.91246" lon="7.3963">
        <ele>255.2</ele>
        <time>2011-05-22T08:10:16Z</time>
      </trkpt>
      <trkpt lat="48.91222" lon="7.39608">
        <ele>253.3</ele>
        <time>2011-05-22T08:10:25Z</time>
      </trkpt>
      <trkpt lat="48.91201" lon="7.39576">
        <ele>252.4</ele>
        <time>2011-05-22T08:10:34Z</time>
      </trkpt>
      <trkpt lat="48.91184" lon="7.39538">
        <ele>252.6</ele>
        <time>2011-05-22T08:10:42Z</time>
      </trkpt>
      <trkpt lat="48.91167" lon="7.39503">
        <ele>252.9</ele>
        <time>2011-05-22T08:10:49Z</time>
      </trkpt>
      <trkpt lat="48.91156" lon="7.39466">
        <ele>256</ele>
        <time>2011-05-22T08:10:56Z</time>
      </trkpt>
      <trkpt lat="48.91142" lon="7.39429">
        <ele>257.7</ele>
        <time>2011-05-22T08:11:03Z</time>
      </trkpt>
      <trkpt lat="48.91126" lon="7.3939">
        <ele>257.7</ele>
        <time>2011-05-22T08:11:11Z</time>
      </trkpt>
      <trkpt lat="48.91109" lon="7.39354">
        <ele>256.8</ele>
        <time>2011-05-22T08:11:19Z</time>
      </trkpt>
      <trkpt lat="48.91092" lon="7.39316">
        <ele>255.5</ele>
        <time>2011-05-22T08:11:27Z</time>
      </trkpt>
      <trkpt lat="48.91078" lon="7.3928">
        <ele>254.2</ele>
        <time>2011-05-22T08:11:36Z</time>
      </trkpt>
      <trkpt lat="48.91064" lon="7.39245">
        <ele>253.7</ele>
        <time>2011-05-22T08:11:49Z</time>
      </trkpt>
      <trkpt lat="48.91048" lon="7.39212">
        <ele>251.8</ele>
        <time>2011-05-22T08:15:59Z</time>
      </trkpt>
      <trkpt lat="48.91036" lon="7.39174">
        <ele>250.6</ele>
        <time>2011-05-22T08:16:07Z</time>
      </trkpt>
      <trkpt lat="48.91024" lon="7.39135">
        <ele>249.3</ele>
        <time>2011-05-22T08:16:17Z</time>
      </trkpt>
      <trkpt lat="48.91013" lon="7.39097">
        <ele>247.9</ele>
        <time>2011-05-22T08:16:28Z</time>
      </trkpt>
      <trkpt lat="48.91" lon="7.39058">
        <ele>246.6</ele>
        <time>2011-05-22T08:16:40Z</time>
      </trkpt>
      <trkpt lat="48.9099" lon="7.39018">
        <ele>248.1</ele>
        <time>2011-05-22T08:16:50Z</time>
      </trkpt>
      <trkpt lat="48.90983" lon="7.38978">
        <ele>249.4</ele>
        <time>2011-05-22T08:17:00Z</time>
      </trkpt>
      <trkpt lat="48.90974" lon="7.38937">
        <ele>249.9</ele>
        <time>2011-05-22T08:17:10Z</time>
      </trkpt>
      <trkpt lat="48.90965" lon="7.38899">
        <ele>251</ele>
        <time>2011-05-22T08:17:19Z</time>
      </trkpt>
      <trkpt lat="48.90955" lon="7.38856">
        <ele>253.5</ele>
        <time>2011-05-22T08:17:27Z</time>
      </trkpt>
      <trkpt lat="48.90942" lon="7.38816">
        <ele>254.9</ele>
        <time>2011-05-22T08:17:35Z</time>
      </trkpt>
      <trkpt lat="48.9093" lon="7.38775">
        <ele>255.3</ele>
        <time>2011-05-22T08:17:44Z</time>
      </trkpt>
      <trkpt lat="48.90919" lon="7.38735">
        <ele>255</ele>
        <time>2011-05-22T08:17:53Z</time>
      </trkpt>
      <trkpt lat="48.90905" lon="7.38699">
        <ele>253.3</ele>
        <time>2011-05-22T08:18:02Z</time>
      </trkpt>
      <trkpt lat="48.90891" lon="7.3866">
        <ele>250.6</ele>
        <time>2011-05-22T08:18:12Z</time>
      </trkpt>
      <trkpt lat="48.90881" lon="7.3862">
        <ele>248.7</ele>
        <time>2011-05-22T08:18:21Z</time>
      </trkpt>
      <trkpt lat="48.90876" lon="7.38578">
        <ele>248</ele>
        <time>2011-05-22T08:18:30Z</time>
      </trkpt>
      <trkpt lat="48.90871" lon="7.38533">
        <ele>248.5</ele>
        <time>2011-05-22T08:18:39Z</time>
      </trkpt>
      <trkpt lat="48.9087" lon="7.38488">
        <ele>249.8</ele>
        <time>2011-05-22T08:18:49Z</time>
      </trkpt>
      <trkpt lat="48.90867" lon="7.38446">
        <ele>249</ele>
        <time>2011-05-22T08:18:58Z</time>
      </trkpt>
      <trkpt lat="48.90862" lon="7.38406">
        <ele>248</ele>
        <time>2011-05-22T08:19:05Z</time>
      </trkpt>
      <trkpt lat="48.90847" lon="7.38366">
        <ele>245.8</ele>
        <time>2011-05-22T08:19:13Z</time>
      </trkpt>
      <trkpt lat="48.9082" lon="7.3837">
        <ele>241.4</ele>
        <time>2011-05-22T08:19:26Z</time>
      </trkpt>
      <trkpt lat="48.90807" lon="7.38409">
        <ele>238.5</ele>
        <time>2011-05-22T08:19:33Z</time>
      </trkpt>
      <trkpt lat="48.90795" lon="7.38449">
        <ele>236.5</ele>
        <time>2011-05-22T08:19:39Z</time>
      </trkpt>
      <trkpt lat="48.90782" lon="7.38486">
        <ele>234.6</ele>
        <time>2011-05-22T08:19:45Z</time>
      </trkpt>
      <trkpt lat="48.90765" lon="7.3852">
        <ele>231.7</ele>
        <time>2011-05-22T08:19:52Z</time>
      </trkpt>
      <trkpt lat="48.90743" lon="7.38547">
        <ele>228.6</ele>
        <time>2011-05-22T08:19:59Z</time>
      </trkpt>
      <trkpt lat="48.90716" lon="7.38568">
        <ele>227.2</ele>
        <time>2011-05-22T08:20:06Z</time>
      </trkpt>
      <trkpt lat="48.9069" lon="7.38579">
        <ele>226.4</ele>
        <time>2011-05-22T08:20:13Z</time>
      </trkpt>
      <trkpt lat="48.90662" lon="7.38596">
        <ele>225.4</ele>
        <time>2011-05-22T08:20:22Z</time>
      </trkpt>
      <trkpt lat="48.90636" lon="7.38614">
        <ele>223.9</ele>
        <time>2011-05-22T08:20:29Z</time>
      </trkpt>
      <trkpt lat="48.90609" lon="7.38639">
        <ele>223.1</ele>
        <time>2011-05-22T08:20:36Z</time>
      </trkpt>
      <trkpt lat="48.90588" lon="7.38674">
        <ele>223.3</ele>
        <time>2011-05-22T08:20:42Z</time>
      </trkpt>
      <trkpt lat="48.90567" lon="7.38706">
        <ele>225.6</ele>
        <time>2011-05-22T08:20:50Z</time>
      </trkpt>
      <trkpt lat="48.90542" lon="7.38725">
        <ele>227</ele>
        <time>2011-05-22T08:20:58Z</time>
      </trkpt>
      <trkpt lat="48.90514" lon="7.38742">
        <ele>227.8</ele>
        <time>2011-05-22T08:21:06Z</time>
      </trkpt>
      <trkpt lat="48.9049" lon="7.38761">
        <ele>228</ele>
        <time>2011-05-22T08:21:13Z</time>
      </trkpt>
      <trkpt lat="48.9047" lon="7.38792">
        <ele>228.5</ele>
        <time>2011-05-22T08:21:21Z</time>
      </trkpt>
      <trkpt lat="48.90458" lon="7.38831">
        <ele>230</ele>
        <time>2011-05-22T08:21:28Z</time>
      </trkpt>
      <trkpt lat="48.90443" lon="7.38869">
        <ele>231</ele>
        <time>2011-05-22T08:21:35Z</time>
      </trkpt>
      <trkpt lat="48.90428" lon="7.38906">
        <ele>232.2</ele>
        <time>2011-05-22T08:21:42Z</time>
      </trkpt>
      <trkpt lat="48.90414" lon="7.38941">
        <ele>231.6</ele>
        <time>2011-05-22T08:21:50Z</time>
      </trkpt>
      <trkpt lat="48.90398" lon="7.38978">
        <ele>230.5</ele>
        <time>2011-05-22T08:22:03Z</time>
      </trkpt>
      <trkpt lat="48.90379" lon="7.39009">
        <ele>231</ele>
        <time>2011-05-22T08:22:13Z</time>
      </trkpt>
      <trkpt lat="48.90359" lon="7.39036">
        <ele>232</ele>
        <time>2011-05-22T08:22:23Z</time>
      </trkpt>
      <trkpt lat="48.90339" lon="7.39065">
        <ele>233</ele>
        <time>2011-05-22T08:22:32Z</time>
      </trkpt>
      <trkpt lat="48.90321" lon="7.39097">
        <ele>234.4</ele>
        <time>2011-05-22T08:22:45Z</time>
      </trkpt>
      <trkpt lat="48.90299" lon="7.39129">
        <ele>237</ele>
        <time>2011-05-22T08:23:04Z</time>
      </trkpt>
      <trkpt lat="48.90281" lon="7.3916">
        <ele>239.3</ele>
        <time>2011-05-22T08:23:17Z</time>
      </trkpt>
      <trkpt lat="48.90264" lon="7.39193">
        <ele>242.1</ele>
        <time>2011-05-22T08:23:32Z</time>
      </trkpt>
      <trkpt lat="48.90245" lon="7.39221">
        <ele>244.9</ele>
        <time>2011-05-22T08:23:58Z</time>
      </trkpt>
      <trkpt lat="48.90219" lon="7.39229">
        <ele>246.8</ele>
        <time>2011-05-22T08:24:15Z</time>
      </trkpt>
      <trkpt lat="48.90191" lon="7.39233">
        <ele>248.7</ele>
        <time>2011-05-22T08:24:32Z</time>
      </trkpt>
      <trkpt lat="48.90169" lon="7.39257">
        <ele>252.8</ele>
        <time>2011-05-22T08:24:52Z</time>
      </trkpt>
      <trkpt lat="48.90142" lon="7.3926">
        <ele>254.2</ele>
        <time>2011-05-22T08:25:08Z</time>
      </trkpt>
      <trkpt lat="48.90115" lon="7.39249">
        <ele>253.8</ele>
        <time>2011-05-22T08:25:25Z</time>
      </trkpt>
      <trkpt lat="48.90088" lon="7.39258">
        <ele>255.8</ele>
        <time>2011-05-22T08:25:42Z</time>
      </trkpt>
      <trkpt lat="48.90062" lon="7.39273">
        <ele>258.7</ele>
        <time>2011-05-22T08:25:59Z</time>
      </trkpt>
      <trkpt lat="48.90049" lon="7.3931">
        <ele>263.1</ele>
        <time>2011-05-22T08:26:15Z</time>
      </trkpt>
      <trkpt lat="48.90043" lon="7.39352">
        <ele>267.7</ele>
        <time>2011-05-22T08:26:32Z</time>
      </trkpt>
      <trkpt lat="48.90035" lon="7.39392">
        <ele>272.8</ele>
        <time>2011-05-22T08:26:48Z</time>
      </trkpt>
      <trkpt lat="48.90013" lon="7.39419">
        <ele>276.8</ele>
        <time>2011-05-22T08:27:05Z</time>
      </trkpt>
      <trkpt lat="48.89987" lon="7.39406">
        <ele>277.4</ele>
        <time>2011-05-22T08:27:20Z</time>
      </trkpt>
      <trkpt lat="48.8996" lon="7.39397">
        <ele>279.8</ele>
        <time>2011-05-22T08:27:36Z</time>
      </trkpt>
      <trkpt lat="48.89932" lon="7.39396">
        <ele>283.5</ele>
        <time>2011-05-22T08:27:52Z</time>
      </trkpt>
      <trkpt lat="48.8991" lon="7.39374">
        <ele>282.8</ele>
        <time>2011-05-22T08:28:07Z</time>
      </trkpt>
      <trkpt lat="48.89886" lon="7.39352">
        <ele>282.7</ele>
        <time>2011-05-22T08:28:23Z</time>
      </trkpt>
      <trkpt lat="48.89862" lon="7.39328">
        <ele>282.9</ele>
        <time>2011-05-22T08:34:58Z</time>
      </trkpt>
      <trkpt lat="48.89838" lon="7.39305">
        <ele>283.9</ele>
        <time>2011-05-22T08:35:13Z</time>
      </trkpt>
      <trkpt lat="48.89818" lon="7.39278">
        <ele>283.4</ele>
        <time>2011-05-22T08:35:27Z</time>
      </trkpt>
      <trkpt lat="48.89801" lon="7.39245">
        <ele>283.7</ele>
        <time>2011-05-22T08:35:41Z</time>
      </trkpt>
      <trkpt lat="48.89776" lon="7.39225">
        <ele>288.7</ele>
        <time>2011-05-22T08:35:55Z</time>
      </trkpt>
      <trkpt lat="48.8975" lon="7.39232">
        <ele>292.9</ele>
        <time>2011-05-22T08:36:11Z</time>
      </trkpt>
      <trkpt lat="48.89725" lon="7.39216">
        <ele>294.4</ele>
        <time>2011-05-22T08:37:09Z</time>
      </trkpt>
      <trkpt lat="48.89705" lon="7.39243">
        <ele>293.9</ele>
        <time>2011-05-22T08:37:32Z</time>
      </trkpt>
      <trkpt lat="48.89693" lon="7.39284">
        <ele>293.4</ele>
        <time>2011-05-22T08:37:42Z</time>
      </trkpt>
      <trkpt lat="48.89679" lon="7.39324">
        <ele>292.4</ele>
        <time>2011-05-22T08:37:52Z</time>
      </trkpt>
      <trkpt lat="48.8967" lon="7.39374">
        <ele>291.2</ele>
        <time>2011-05-22T08:38:00Z</time>
      </trkpt>
      <trkpt lat="48.89661" lon="7.39414">
        <ele>290.1</ele>
        <time>2011-05-22T08:38:05Z</time>
      </trkpt>
      <trkpt lat="48.89666" lon="7.39457">
        <ele>290.5</ele>
        <time>2011-05-22T08:38:10Z</time>
      </trkpt>
      <trkpt lat="48.89669" lon="7.39502">
        <ele>291.4</ele>
        <time>2011-05-22T08:38:16Z</time>
      </trkpt>
      <trkpt lat="48.89679" lon="7.39545">
        <ele>293.3</ele>
        <time>2011-05-22T08:38:24Z</time>
      </trkpt>
      <trkpt lat="48.89685" lon="7.3959">
        <ele>294.7</ele>
        <time>2011-05-22T08:38:31Z</time>
      </trkpt>
      <trkpt lat="48.8969" lon="7.39631">
        <ele>296</ele>
        <time>2011-05-22T08:38:38Z</time>
      </trkpt>
      <trkpt lat="48.89709" lon="7.3967">
        <ele>296.4</ele>
        <time>2011-05-22T08:38:46Z</time>
      </trkpt>
      <trkpt lat="48.89718" lon="7.39712">
        <ele>294.9</ele>
        <time>2011-05-22T08:38:55Z</time>
      </trkpt>
      <trkpt lat="48.89709" lon="7.39752">
        <ele>294.4</ele>
        <time>2011-05-22T08:39:04Z</time>
      </trkpt>
      <trkpt lat="48.89682" lon="7.39778">
        <ele>295.1</ele>
        <time>2011-05-22T08:39:13Z</time>
      </trkpt>
      <trkpt lat="48.89655" lon="7.39791">
        <ele>295.3</ele>
        <time>2011-05-22T08:39:20Z</time>
      </trkpt>
      <trkpt lat="48.89627" lon="7.39799">
        <ele>295.3</ele>
        <time>2011-05-22T08:39:27Z</time>
      </trkpt>
      <trkpt lat="48.89599" lon="7.39812">
        <ele>295.3</ele>
        <time>2011-05-22T08:39:34Z</time>
      </trkpt>
      <trkpt lat="48.89575" lon="7.39835">
        <ele>295.3</ele>
        <time>2011-05-22T08:39:42Z</time>
      </trkpt>
      <trkpt lat="48.89554" lon="7.39862">
        <ele>296.6</ele>
        <time>2011-05-22T08:39:50Z</time>
      </trkpt>
      <trkpt lat="48.89529" lon="7.39883">
        <ele>297.8</ele>
        <time>2011-05-22T08:39:58Z</time>
      </trkpt>
      <trkpt lat="48.89503" lon="7.39905">
        <ele>298.8</ele>
        <time>2011-05-22T08:40:06Z</time>
      </trkpt>
      <trkpt lat="48.89479" lon="7.39924">
        <ele>299.6</ele>
        <time>2011-05-22T08:40:13Z</time>
      </trkpt>
      <trkpt lat="48.89459" lon="7.39954">
        <ele>301.3</ele>
        <time>2011-05-22T08:40:21Z</time>
      </trkpt>
      <trkpt lat="48.89434" lon="7.39971">
        <ele>302.8</ele>
        <time>2011-05-22T08:40:27Z</time>
      </trkpt>
      <trkpt lat="48.89415" lon="7.40001">
        <ele>305.2</ele>
        <time>2011-05-22T08:40:33Z</time>
      </trkpt>
      <trkpt lat="48.89386" lon="7.40016">
        <ele>308.4</ele>
        <time>2011-05-22T08:40:42Z</time>
      </trkpt>
      <trkpt lat="48.89357" lon="7.40021">
        <ele>310.9</ele>
        <time>2011-05-22T08:40:51Z</time>
      </trkpt>
      <trkpt lat="48.8933" lon="7.40029">
        <ele>313.5</ele>
        <time>2011-05-22T08:41:00Z</time>
      </trkpt>
      <trkpt lat="48.89304" lon="7.40043">
        <ele>315.3</ele>
        <time>2011-05-22T08:43:17Z</time>
      </trkpt>
      <trkpt lat="48.89275" lon="7.40048">
        <ele>316.2</ele>
        <time>2011-05-22T08:43:27Z</time>
      </trkpt>
      <trkpt lat="48.89248" lon="7.4006">
        <ele>317.7</ele>
        <time>2011-05-22T08:43:38Z</time>
      </trkpt>
      <trkpt lat="48.89222" lon="7.40081">
        <ele>318.2</ele>
        <time>2011-05-22T08:43:48Z</time>
      </trkpt>
      <trkpt lat="48.89197" lon="7.40099">
        <ele>318.5</ele>
        <time>2011-05-22T08:43:58Z</time>
      </trkpt>
      <trkpt lat="48.89176" lon="7.40133">
        <ele>320.4</ele>
        <time>2011-05-22T08:44:07Z</time>
      </trkpt>
      <trkpt lat="48.89162" lon="7.40172">
        <ele>322.8</ele>
        <time>2011-05-22T08:44:14Z</time>
      </trkpt>
      <trkpt lat="48.89146" lon="7.40209">
        <ele>323.9</ele>
        <time>2011-05-22T08:44:22Z</time>
      </trkpt>
      <trkpt lat="48.89132" lon="7.40247">
        <ele>325.4</ele>
        <time>2011-05-22T08:44:30Z</time>
      </trkpt>
      <trkpt lat="48.89122" lon="7.40287">
        <ele>324.9</ele>
        <time>2011-05-22T08:44:36Z</time>
      </trkpt>
      <trkpt lat="48.89119" lon="7.40328">
        <ele>325</ele>
        <time>2011-05-22T08:44:43Z</time>
      </trkpt>
      <trkpt lat="48.89111" lon="7.40371">
        <ele>324.3</ele>
        <time>2011-05-22T08:44:50Z</time>
      </trkpt>
      <trkpt lat="48.89093" lon="7.40409">
        <ele>323.4</ele>
        <time>2011-05-22T08:44:56Z</time>
      </trkpt>
      <trkpt lat="48.89069" lon="7.4043">
        <ele>323.4</ele>
        <time>2011-05-22T08:45:02Z</time>
      </trkpt>
      <trkpt lat="48.89044" lon="7.40449">
        <ele>324.1</ele>
        <time>2011-05-22T08:45:09Z</time>
      </trkpt>
      <trkpt lat="48.89014" lon="7.40457">
        <ele>325.9</ele>
        <time>2011-05-22T08:45:17Z</time>
      </trkpt>
      <trkpt lat="48.88986" lon="7.40461">
        <ele>326.6</ele>
        <time>2011-05-22T08:45:23Z</time>
      </trkpt>
      <trkpt lat="48.88956" lon="7.4047">
        <ele>325.8</ele>
        <time>2011-05-22T08:45:30Z</time>
      </trkpt>
      <trkpt lat="48.88928" lon="7.40479">
        <ele>325.4</ele>
        <time>2011-05-22T08:45:36Z</time>
      </trkpt>
      <trkpt lat="48.88902" lon="7.40504">
        <ele>322.9</ele>
        <time>2011-05-22T08:45:43Z</time>
      </trkpt>
      <trkpt lat="48.88896" lon="7.40546">
        <ele>319.6</ele>
        <time>2011-05-22T08:45:49Z</time>
      </trkpt>
      <trkpt lat="48.88882" lon="7.40581">
        <ele>316.6</ele>
        <time>2011-05-22T08:45:56Z</time>
      </trkpt>
      <trkpt lat="48.88854" lon="7.40558">
        <ele>315.2</ele>
        <time>2011-05-22T08:46:02Z</time>
      </trkpt>
      <trkpt lat="48.88825" lon="7.40568">
        <ele>311.9</ele>
        <time>2011-05-22T08:46:08Z</time>
      </trkpt>
      <trkpt lat="48.88806" lon="7.40604">
        <ele>309.5</ele>
        <time>2011-05-22T08:46:13Z</time>
      </trkpt>
      <trkpt lat="48.88788" lon="7.40638">
        <ele>307.7</ele>
        <time>2011-05-22T08:46:18Z</time>
      </trkpt>
      <trkpt lat="48.88764" lon="7.40662">
        <ele>305.4</ele>
        <time>2011-05-22T08:46:24Z</time>
      </trkpt>
      <trkpt lat="48.88736" lon="7.4068">
        <ele>303.9</ele>
        <time>2011-05-22T08:46:29Z</time>
      </trkpt>
      <trkpt lat="48.88708" lon="7.40698">
        <ele>302.5</ele>
        <time>2011-05-22T08:46:33Z</time>
      </trkpt>
      <trkpt lat="48.88673" lon="7.40707">
        <ele>299.6</ele>
        <time>2011-05-22T08:46:37Z</time>
      </trkpt>
      <trkpt lat="48.88648" lon="7.40719">
        <ele>296</ele>
        <time>2011-05-22T08:46:40Z</time>
      </trkpt>
      <trkpt lat="48.88622" lon="7.40738">
        <ele>291.9</ele>
        <time>2011-05-22T08:46:45Z</time>
      </trkpt>
      <trkpt lat="48.88605" lon="7.40775">
        <ele>291.4</ele>
        <time>2011-05-22T08:46:51Z</time>
      </trkpt>
      <trkpt lat="48.88582" lon="7.40816">
        <ele>291.2</ele>
        <time>2011-05-22T08:46:55Z</time>
      </trkpt>
      <trkpt lat="48.88561" lon="7.40844">
        <ele>293.6</ele>
        <time>2011-05-22T08:46:58Z</time>
      </trkpt>
      <trkpt lat="48.88533" lon="7.40854">
        <ele>293.9</ele>
        <time>2011-05-22T08:47:02Z</time>
      </trkpt>
      <trkpt lat="48.88503" lon="7.40841">
        <ele>288.9</ele>
        <time>2011-05-22T08:47:07Z</time>
      </trkpt>
      <trkpt lat="48.88476" lon="7.40827">
        <ele>285.6</ele>
        <time>2011-05-22T08:47:11Z</time>
      </trkpt>
      <trkpt lat="48.88449" lon="7.40811">
        <ele>281.9</ele>
        <time>2011-05-22T08:47:15Z</time>
      </trkpt>
      <trkpt lat="48.8842" lon="7.40804">
        <ele>280.3</ele>
        <time>2011-05-22T08:47:19Z</time>
      </trkpt>
      <trkpt lat="48.88393" lon="7.40812">
        <ele>277.3</ele>
        <time>2011-05-22T08:47:23Z</time>
      </trkpt>
      <trkpt lat="48.88364" lon="7.40838">
        <ele>275.7</ele>
        <time>2011-05-22T08:47:28Z</time>
      </trkpt>
      <trkpt lat="48.88339" lon="7.40864">
        <ele>273.7</ele>
        <time>2011-05-22T08:47:32Z</time>
      </trkpt>
      <trkpt lat="48.88318" lon="7.40904">
        <ele>274.7</ele>
        <time>2011-05-22T08:47:36Z</time>
      </trkpt>
      <trkpt lat="48.88303" lon="7.40947">
        <ele>274</ele>
        <time>2011-05-22T08:47:40Z</time>
      </trkpt>
      <trkpt lat="48.88291" lon="7.40988">
        <ele>272.8</ele>
        <time>2011-05-22T08:47:44Z</time>
      </trkpt>
      <trkpt lat="48.88281" lon="7.41029">
        <ele>272.9</ele>
        <time>2011-05-22T08:47:49Z</time>
      </trkpt>
      <trkpt lat="48.88277" lon="7.4107">
        <ele>275.3</ele>
        <time>2011-05-22T08:47:55Z</time>
      </trkpt>
      <trkpt lat="48.88276" lon="7.41111">
        <ele>276.7</ele>
        <time>2011-05-22T08:48:01Z</time>
      </trkpt>
      <trkpt lat="48.88273" lon="7.41152">
        <ele>277</ele>
        <time>2011-05-22T08:48:07Z</time>
      </trkpt>
      <trkpt lat="48.88272" lon="7.41198">
        <ele>275.7</ele>
        <time>2011-05-22T08:48:13Z</time>
      </trkpt>
      <trkpt lat="48.88267" lon="7.4124">
        <ele>273.2</ele>
        <time>2011-05-22T08:48:18Z</time>
      </trkpt>
      <trkpt lat="48.88253" lon="7.41284">
        <ele>269.6</ele>
        <time>2011-05-22T08:48:24Z</time>
      </trkpt>
      <trkpt lat="48.88244" lon="7.4133">
        <ele>266.7</ele>
        <time>2011-05-22T08:48:30Z</time>
      </trkpt>
      <trkpt lat="48.88244" lon="7.41379">
        <ele>265</ele>
        <time>2011-05-22T08:48:36Z</time>
      </trkpt>
      <trkpt lat="48.88247" lon="7.41425">
        <ele>264.3</ele>
        <time>2011-05-22T08:48:41Z</time>
      </trkpt>
      <trkpt lat="48.88258" lon="7.41463">
        <ele>265.5</ele>
        <time>2011-05-22T08:48:46Z</time>
      </trkpt>
      <trkpt lat="48.88266" lon="7.41504">
        <ele>265.5</ele>
        <time>2011-05-22T08:48:51Z</time>
      </trkpt>
      <trkpt lat="48.88239" lon="7.41518">
        <ele>262.1</ele>
        <time>2011-05-22T08:48:58Z</time>
      </trkpt>
      <trkpt lat="48.88222" lon="7.41483">
        <ele>259.1</ele>
        <time>2011-05-22T08:49:03Z</time>
      </trkpt>
      <trkpt lat="48.88203" lon="7.41445">
        <ele>255.7</ele>
        <time>2011-05-22T08:49:08Z</time>
      </trkpt>
      <trkpt lat="48.88193" lon="7.41407">
        <ele>254.1</ele>
        <time>2011-05-22T08:49:11Z</time>
      </trkpt>
      <trkpt lat="48.88182" lon="7.41366">
        <ele>252.2</ele>
        <time>2011-05-22T08:49:14Z</time>
      </trkpt>
      <trkpt lat="48.88168" lon="7.4132">
        <ele>249.5</ele>
        <time>2011-05-22T08:49:18Z</time>
      </trkpt>
      <trkpt lat="48.8816" lon="7.41279">
        <ele>248.1</ele>
        <time>2011-05-22T08:49:21Z</time>
      </trkpt>
      <trkpt lat="48.88151" lon="7.41231">
        <ele>247</ele>
        <time>2011-05-22T08:49:25Z</time>
      </trkpt>
      <trkpt lat="48.8814" lon="7.41191">
        <ele>245.8</ele>
        <time>2011-05-22T08:49:29Z</time>
      </trkpt>
      <trkpt lat="48.88132" lon="7.41149">
        <ele>245</ele>
        <time>2011-05-22T08:49:33Z</time>
      </trkpt>
      <trkpt lat="48.8812" lon="7.41104">
        <ele>243.4</ele>
        <time>2011-05-22T08:49:37Z</time>
      </trkpt>
      <trkpt lat="48.88099" lon="7.41068">
        <ele>239</ele>
        <time>2011-05-22T08:49:42Z</time>
      </trkpt>
      <trkpt lat="48.88069" lon="7.41046">
        <ele>235</ele>
        <time>2011-05-22T08:49:48Z</time>
      </trkpt>
      <trkpt lat="48.88041" lon="7.41058">
        <ele>231.7</ele>
        <time>2011-05-22T08:49:54Z</time>
      </trkpt>
      <trkpt lat="48.8801" lon="7.41056">
        <ele>228.6</ele>
        <time>2011-05-22T08:50:01Z</time>
      </trkpt>
      <trkpt lat="48.87986" lon="7.41035">
        <ele>228.2</ele>
        <time>2011-05-22T08:50:06Z</time>
      </trkpt>
      <trkpt lat="48.87965" lon="7.41007">
        <ele>228.6</ele>
        <time>2011-05-22T08:50:11Z</time>
      </trkpt>
      <trkpt lat="48.87944" lon="7.40973">
        <ele>226.3</ele>
        <time>2011-05-22T08:50:16Z</time>
      </trkpt>
      <trkpt lat="48.87914" lon="7.40957">
        <ele>222.7</ele>
        <time>2011-05-22T08:50:21Z</time>
      </trkpt>
      <trkpt lat="48.87891" lon="7.40938">
        <ele>219.5</ele>
        <time>2011-05-22T08:50:26Z</time>
      </trkpt>
      <trkpt lat="48.87871" lon="7.40906">
        <ele>216.6</ele>
        <time>2011-05-22T08:50:31Z</time>
      </trkpt>
      <trkpt lat="48.87845" lon="7.40904">
        <ele>214.9</ele>
        <time>2011-05-22T08:50:40Z</time>
      </trkpt>
      <trkpt lat="48.87837" lon="7.40951">
        <ele>216</ele>
        <time>2011-05-22T08:50:45Z</time>
      </trkpt>
      <trkpt lat="48.87831" lon="7.40994">
        <ele>217.4</ele>
        <time>2011-05-22T08:50:49Z</time>
      </trkpt>
      <trkpt lat="48.87822" lon="7.41032">
        <ele>216.4</ele>
        <time>2011-05-22T08:50:53Z</time>
      </trkpt>
      <trkpt lat="48.87817" lon="7.41081">
        <ele>215.6</ele>
        <time>2011-05-22T08:50:57Z</time>
      </trkpt>
      <trkpt lat="48.8782" lon="7.41124">
        <ele>214</ele>
        <time>2011-05-22T08:51:00Z</time>
      </trkpt>
      <trkpt lat="48.87827" lon="7.41169">
        <ele>211.9</ele>
        <time>2011-05-22T08:51:03Z</time>
      </trkpt>
      <trkpt lat="48.8784" lon="7.41208">
        <ele>209.6</ele>
        <time>2011-05-22T08:51:06Z</time>
      </trkpt>
      <trkpt lat="48.87856" lon="7.41242">
        <ele>208.5</ele>
        <time>2011-05-22T08:51:11Z</time>
      </trkpt>
      <trkpt lat="48.87824" lon="7.41233">
        <ele>207.7</ele>
        <time>2011-05-22T08:51:20Z</time>
      </trkpt>
      <trkpt lat="48.87796" lon="7.4124">
        <ele>209.1</ele>
        <time>2011-05-22T08:51:25Z</time>
      </trkpt>
      <trkpt lat="48.87766" lon="7.41239">
        <ele>211</ele>
        <time>2011-05-22T08:51:31Z</time>
      </trkpt>
      <trkpt lat="48.87745" lon="7.41211">
        <ele>212.5</ele>
        <time>2011-05-22T08:51:37Z</time>
      </trkpt>
      <trkpt lat="48.87721" lon="7.41186">
        <ele>214.9</ele>
        <time>2011-05-22T08:51:46Z</time>
      </trkpt>
      <trkpt lat="48.87712" lon="7.41143">
        <ele>215.8</ele>
        <time>2011-05-22T08:51:56Z</time>
      </trkpt>
      <trkpt lat="48.87703" lon="7.41103">
        <ele>216.5</ele>
        <time>2011-05-22T08:52:03Z</time>
      </trkpt>
      <trkpt lat="48.87692" lon="7.4106">
        <ele>216.5</ele>
        <time>2011-05-22T08:52:10Z</time>
      </trkpt>
      <trkpt lat="48.87684" lon="7.41018">
        <ele>215.3</ele>
        <time>2011-05-22T08:52:16Z</time>
      </trkpt>
      <trkpt lat="48.87673" lon="7.40975">
        <ele>214.3</ele>
        <time>2011-05-22T08:52:21Z</time>
      </trkpt>
      <trkpt lat="48.87653" lon="7.4094">
        <ele>215.5</ele>
        <time>2011-05-22T08:52:26Z</time>
      </trkpt>
      <trkpt lat="48.87628" lon="7.40917">
        <ele>219.9</ele>
        <time>2011-05-22T08:52:31Z</time>
      </trkpt>
      <trkpt lat="48.87604" lon="7.40898">
        <ele>224.4</ele>
        <time>2011-05-22T08:52:37Z</time>
      </trkpt>
      <trkpt lat="48.87579" lon="7.40879">
        <ele>228.5</ele>
        <time>2011-05-22T08:52:47Z</time>
      </trkpt>
      <trkpt lat="48.87555" lon="7.40861">
        <ele>230.9</ele>
        <time>2011-05-22T08:52:59Z</time>
      </trkpt>
      <trkpt lat="48.8753" lon="7.4084">
        <ele>234</ele>
        <time>2011-05-22T08:53:12Z</time>
      </trkpt>
      <trkpt lat="48.87504" lon="7.40822">
        <ele>237.2</ele>
        <time>2011-05-22T08:53:28Z</time>
      </trkpt>
      <trkpt lat="48.8748" lon="7.40803">
        <ele>240.1</ele>
        <time>2011-05-22T08:53:43Z</time>
      </trkpt>
      <trkpt lat="48.87455" lon="7.40783">
        <ele>243.3</ele>
        <time>2011-05-22T08:53:57Z</time>
      </trkpt>
      <trkpt lat="48.87432" lon="7.40759">
        <ele>246.6</ele>
        <time>2011-05-22T08:54:12Z</time>
      </trkpt>
      <trkpt lat="48.87407" lon="7.40738">
        <ele>250.4</ele>
        <time>2011-05-22T08:54:28Z</time>
      </trkpt>
      <trkpt lat="48.87384" lon="7.40715">
        <ele>253.3</ele>
        <time>2011-05-22T08:54:44Z</time>
      </trkpt>
      <trkpt lat="48.87363" lon="7.40689">
        <ele>255.5</ele>
        <time>2011-05-22T08:54:59Z</time>
      </trkpt>
      <trkpt lat="48.87336" lon="7.40685">
        <ele>257.8</ele>
        <time>2011-05-22T08:55:12Z</time>
      </trkpt>
      <trkpt lat="48.8731" lon="7.40681">
        <ele>258.8</ele>
        <time>2011-05-22T08:55:25Z</time>
      </trkpt>
      <trkpt lat="48.8729" lon="7.40654">
        <ele>259.3</ele>
        <time>2011-05-22T08:55:36Z</time>
      </trkpt>
      <trkpt lat="48.87277" lon="7.40616">
        <ele>258.8</ele>
        <time>2011-05-22T08:55:45Z</time>
      </trkpt>
      <trkpt lat="48.87264" lon="7.40572">
        <ele>258.5</ele>
        <time>2011-05-22T08:55:54Z</time>
      </trkpt>
      <trkpt lat="48.87249" lon="7.40531">
        <ele>259.1</ele>
        <time>2011-05-22T08:56:01Z</time>
      </trkpt>
      <trkpt lat="48.87234" lon="7.40492">
        <ele>260.2</ele>
        <time>2011-05-22T08:56:08Z</time>
      </trkpt>
      <trkpt lat="48.87217" lon="7.4046">
        <ele>260.8</ele>
        <time>2011-05-22T08:56:15Z</time>
      </trkpt>
      <trkpt lat="48.87188" lon="7.40449">
        <ele>262.2</ele>
        <time>2011-05-22T08:56:22Z</time>
      </trkpt>
      <trkpt lat="48.87159" lon="7.4044">
        <ele>264.4</ele>
        <time>2011-05-22T08:56:29Z</time>
      </trkpt>
      <trkpt lat="48.8713" lon="7.40429">
        <ele>268.6</ele>
        <time>2011-05-22T08:56:35Z</time>
      </trkpt>
      <trkpt lat="48.87107" lon="7.40409">
        <ele>272.1</ele>
        <time>2011-05-22T08:56:42Z</time>
      </trkpt>
      <trkpt lat="48.87102" lon="7.40361">
        <ele>272.8</ele>
        <time>2011-05-22T08:56:49Z</time>
      </trkpt>
      <trkpt lat="48.87102" lon="7.40315">
        <ele>272.3</ele>
        <time>2011-05-22T08:56:55Z</time>
      </trkpt>
      <trkpt lat="48.87101" lon="7.40269">
        <ele>270.7</ele>
        <time>2011-05-22T08:57:01Z</time>
      </trkpt>
      <trkpt lat="48.87098" lon="7.40225">
        <ele>269.2</ele>
        <time>2011-05-22T08:57:08Z</time>
      </trkpt>
      <trkpt lat="48.87086" lon="7.40185">
        <ele>270</ele>
        <time>2011-05-22T08:57:15Z</time>
      </trkpt>
      <trkpt lat="48.87072" lon="7.40152">
        <ele>271.7</ele>
        <time>2011-05-22T08:57:23Z</time>
      </trkpt>
      <trkpt lat="48.87056" lon="7.40116">
        <ele>273.9</ele>
        <time>2011-05-22T08:57:34Z</time>
      </trkpt>
      <trkpt lat="48.8704" lon="7.40078">
        <ele>276.1</ele>
        <time>2011-05-22T08:57:45Z</time>
      </trkpt>
      <trkpt lat="48.87022" lon="7.40042">
        <ele>277.4</ele>
        <time>2011-05-22T08:57:55Z</time>
      </trkpt>
      <trkpt lat="48.87006" lon="7.40003">
        <ele>277.2</ele>
        <time>2011-05-22T08:58:05Z</time>
      </trkpt>
      <trkpt lat="48.86992" lon="7.39965">
        <ele>277.4</ele>
        <time>2011-05-22T08:58:15Z</time>
      </trkpt>
      <trkpt lat="48.86977" lon="7.39926">
        <ele>278.8</ele>
        <time>2011-05-22T08:58:24Z</time>
      </trkpt>
      <trkpt lat="48.86965" lon="7.39889">
        <ele>279.6</ele>
        <time>2011-05-22T08:58:31Z</time>
      </trkpt>
      <trkpt lat="48.86952" lon="7.39851">
        <ele>280.8</ele>
        <time>2011-05-22T08:58:38Z</time>
      </trkpt>
      <trkpt lat="48.86937" lon="7.39813">
        <ele>282.7</ele>
        <time>2011-05-22T08:58:45Z</time>
      </trkpt>
      <trkpt lat="48.86923" lon="7.39773">
        <ele>284.5</ele>
        <time>2011-05-22T08:58:52Z</time>
      </trkpt>
      <trkpt lat="48.86909" lon="7.39735">
        <ele>285.7</ele>
        <time>2011-05-22T08:59:00Z</time>
      </trkpt>
      <trkpt lat="48.86893" lon="7.39694">
        <ele>286.2</ele>
        <time>2011-05-22T08:59:08Z</time>
      </trkpt>
      <trkpt lat="48.86878" lon="7.3966">
        <ele>286.4</ele>
        <time>2011-05-22T08:59:15Z</time>
      </trkpt>
      <trkpt lat="48.86861" lon="7.39627">
        <ele>286.1</ele>
        <time>2011-05-22T08:59:22Z</time>
      </trkpt>
      <trkpt lat="48.86845" lon="7.39589">
        <ele>284.8</ele>
        <time>2011-05-22T08:59:29Z</time>
      </trkpt>
      <trkpt lat="48.86826" lon="7.39558">
        <ele>284.1</ele>
        <time>2011-05-22T08:59:35Z</time>
      </trkpt>
      <trkpt lat="48.8681" lon="7.39521">
        <ele>282.1</ele>
        <time>2011-05-22T08:59:41Z</time>
      </trkpt>
      <trkpt lat="48.86795" lon="7.39483">
        <ele>279.7</ele>
        <time>2011-05-22T08:59:48Z</time>
      </trkpt>
      <trkpt lat="48.86777" lon="7.39451">
        <ele>278.1</ele>
        <time>2011-05-22T08:59:54Z</time>
      </trkpt>
      <trkpt lat="48.86756" lon="7.39419">
        <ele>276.6</ele>
        <time>2011-05-22T08:59:59Z</time>
      </trkpt>
      <trkpt lat="48.86729" lon="7.39397">
        <ele>277.4</ele>
        <time>2011-05-22T09:00:05Z</time>
      </trkpt>
      <trkpt lat="48.867" lon="7.39381">
        <ele>279.6</ele>
        <time>2011-05-22T09:00:11Z</time>
      </trkpt>
      <trkpt lat="48.86675" lon="7.39363">
        <ele>281.2</ele>
        <time>2011-05-22T09:00:17Z</time>
      </trkpt>
      <trkpt lat="48.86651" lon="7.39342">
        <ele>282.2</ele>
        <time>2011-05-22T09:00:24Z</time>
      </trkpt>
      <trkpt lat="48.86628" lon="7.39318">
        <ele>282.5</ele>
        <time>2011-05-22T09:00:33Z</time>
      </trkpt>
      <trkpt lat="48.86603" lon="7.39296">
        <ele>284.2</ele>
        <time>2011-05-22T09:00:44Z</time>
      </trkpt>
      <trkpt lat="48.86579" lon="7.39276">
        <ele>286.5</ele>
        <time>2011-05-22T09:00:53Z</time>
      </trkpt>
      <trkpt lat="48.86556" lon="7.39254">
        <ele>286.6</ele>
        <time>2011-05-22T09:01:04Z</time>
      </trkpt>
      <trkpt lat="48.8653" lon="7.3923">
        <ele>286.3</ele>
        <time>2011-05-22T09:01:15Z</time>
      </trkpt>
      <trkpt lat="48.86505" lon="7.39214">
        <ele>287.1</ele>
        <time>2011-05-22T09:01:24Z</time>
      </trkpt>
      <trkpt lat="48.86478" lon="7.392">
        <ele>287.4</ele>
        <time>2011-05-22T09:01:33Z</time>
      </trkpt>
      <trkpt lat="48.86452" lon="7.39182">
        <ele>287.9</ele>
        <time>2011-05-22T09:01:42Z</time>
      </trkpt>
      <trkpt lat="48.86442" lon="7.39142">
        <ele>286.5</ele>
        <time>2011-05-22T09:01:52Z</time>
      </trkpt>
      <trkpt lat="48.86434" lon="7.39099">
        <ele>285</ele>
        <time>2011-05-22T09:02:00Z</time>
      </trkpt>
      <trkpt lat="48.86426" lon="7.39058">
        <ele>285.1</ele>
        <time>2011-05-22T09:02:07Z</time>
      </trkpt>
      <trkpt lat="48.86441" lon="7.39017">
        <ele>284</ele>
        <time>2011-05-22T09:02:35Z</time>
      </trkpt>
      <trkpt lat="48.86467" lon="7.38992">
        <ele>282.5</ele>
        <time>2011-05-22T09:02:42Z</time>
      </trkpt>
      <trkpt lat="48.86488" lon="7.38964">
        <ele>282</ele>
        <time>2011-05-22T09:02:48Z</time>
      </trkpt>
      <trkpt lat="48.86517" lon="7.38944">
        <ele>280</ele>
        <time>2011-05-22T09:02:53Z</time>
      </trkpt>
      <trkpt lat="48.86546" lon="7.38947">
        <ele>276.4</ele>
        <time>2011-05-22T09:03:02Z</time>
      </trkpt>
      <trkpt lat="48.86575" lon="7.38956">
        <ele>271.8</ele>
        <time>2011-05-22T09:03:07Z</time>
      </trkpt>
      <trkpt lat="48.86608" lon="7.38963">
        <ele>267.8</ele>
        <time>2011-05-22T09:03:12Z</time>
      </trkpt>
      <trkpt lat="48.86636" lon="7.38975">
        <ele>264.4</ele>
        <time>2011-05-22T09:03:16Z</time>
      </trkpt>
      <trkpt lat="48.8667" lon="7.38974">
        <ele>261.4</ele>
        <time>2011-05-22T09:03:21Z</time>
      </trkpt>
      <trkpt lat="48.867" lon="7.38964">
        <ele>258.7</ele>
        <time>2011-05-22T09:03:25Z</time>
      </trkpt>
      <trkpt lat="48.8673" lon="7.38949">
        <ele>256.9</ele>
        <time>2011-05-22T09:03:30Z</time>
      </trkpt>
      <trkpt lat="48.86757" lon="7.38924">
        <ele>257.8</ele>
        <time>2011-05-22T09:03:35Z</time>
      </trkpt>
      <trkpt lat="48.86772" lon="7.38885">
        <ele>257.6</ele>
        <time>2011-05-22T09:03:40Z</time>
      </trkpt>
      <trkpt lat="48.86785" lon="7.38847">
        <ele>256.5</ele>
        <time>2011-05-22T09:03:44Z</time>
      </trkpt>
      <trkpt lat="48.86793" lon="7.38801">
        <ele>256.3</ele>
        <time>2011-05-22T09:03:49Z</time>
      </trkpt>
      <trkpt lat="48.86799" lon="7.38755">
        <ele>256.3</ele>
        <time>2011-05-22T09:03:53Z</time>
      </trkpt>
      <trkpt lat="48.86803" lon="7.38711">
        <ele>255</ele>
        <time>2011-05-22T09:03:57Z</time>
      </trkpt>
      <trkpt lat="48.86818" lon="7.3867">
        <ele>251.7</ele>
        <time>2011-05-22T09:04:01Z</time>
      </trkpt>
      <trkpt lat="48.86829" lon="7.38632">
        <ele>247.2</ele>
        <time>2011-05-22T09:04:05Z</time>
      </trkpt>
      <trkpt lat="48.86834" lon="7.38592">
        <ele>243.5</ele>
        <time>2011-05-22T09:04:09Z</time>
      </trkpt>
      <trkpt lat="48.8684" lon="7.38551">
        <ele>238.8</ele>
        <time>2011-05-22T09:04:15Z</time>
      </trkpt>
      <trkpt lat="48.8685" lon="7.38506">
        <ele>233.1</ele>
        <time>2011-05-22T09:04:21Z</time>
      </trkpt>
      <trkpt lat="48.86853" lon="7.38464">
        <ele>229.1</ele>
        <time>2011-05-22T09:04:26Z</time>
      </trkpt>
      <trkpt lat="48.86855" lon="7.38423">
        <ele>225.7</ele>
        <time>2011-05-22T09:04:31Z</time>
      </trkpt>
      <trkpt lat="48.86862" lon="7.38378">
        <ele>224.4</ele>
        <time>2011-05-22T09:04:37Z</time>
      </trkpt>
      <trkpt lat="48.86877" lon="7.38342">
        <ele>224.1</ele>
        <time>2011-05-22T09:04:46Z</time>
      </trkpt>
      <trkpt lat="48.86887" lon="7.38302">
        <ele>224.2</ele>
        <time>2011-05-22T09:04:51Z</time>
      </trkpt>
      <trkpt lat="48.86905" lon="7.3827">
        <ele>224.6</ele>
        <time>2011-05-22T09:04:57Z</time>
      </trkpt>
      <trkpt lat="48.86933" lon="7.38291">
        <ele>225.5</ele>
        <time>2011-05-22T09:05:05Z</time>
      </trkpt>
      <trkpt lat="48.86949" lon="7.38328">
        <ele>225.5</ele>
        <time>2011-05-22T09:05:10Z</time>
      </trkpt>
      <trkpt lat="48.86968" lon="7.38362">
        <ele>224.5</ele>
        <time>2011-05-22T09:05:15Z</time>
      </trkpt>
      <trkpt lat="48.86988" lon="7.38391">
        <ele>223.3</ele>
        <time>2011-05-22T09:05:20Z</time>
      </trkpt>
      <trkpt lat="48.87007" lon="7.38422">
        <ele>222.3</ele>
        <time>2011-05-22T09:05:26Z</time>
      </trkpt>
      <trkpt lat="48.8704" lon="7.38427">
        <ele>224.5</ele>
        <time>2011-05-22T09:05:34Z</time>
      </trkpt>
      <trkpt lat="48.87063" lon="7.38405">
        <ele>227</ele>
        <time>2011-05-22T09:05:41Z</time>
      </trkpt>
      <trkpt lat="48.8709" lon="7.3839">
        <ele>229</ele>
        <time>2011-05-22T09:05:49Z</time>
      </trkpt>
      <trkpt lat="48.87118" lon="7.3838">
        <ele>229.6</ele>
        <time>2011-05-22T09:05:58Z</time>
      </trkpt>
      <trkpt lat="48.87146" lon="7.38368">
        <ele>230.1</ele>
        <time>2011-05-22T09:06:05Z</time>
      </trkpt>
      <trkpt lat="48.87166" lon="7.3834">
        <ele>230.8</ele>
        <time>2011-05-22T09:06:10Z</time>
      </trkpt>
      <trkpt lat="48.87175" lon="7.38294">
        <ele>229.7</ele>
        <time>2011-05-22T09:06:16Z</time>
      </trkpt>
      <trkpt lat="48.87178" lon="7.38246">
        <ele>228.5</ele>
        <time>2011-05-22T09:06:22Z</time>
      </trkpt>
      <trkpt lat="48.87179" lon="7.38199">
        <ele>226.2</ele>
        <time>2011-05-22T09:08:37Z</time>
      </trkpt>
      <trkpt lat="48.8718" lon="7.38154">
        <ele>224.5</ele>
        <time>2011-05-22T09:08:41Z</time>
      </trkpt>
      <trkpt lat="48.8718" lon="7.38105">
        <ele>224.7</ele>
        <time>2011-05-22T09:08:45Z</time>
      </trkpt>
      <trkpt lat="48.87182" lon="7.38058">
        <ele>224.8</ele>
        <time>2011-05-22T09:08:49Z</time>
      </trkpt>
      <trkpt lat="48.87199" lon="7.38026">
        <ele>224.4</ele>
        <time>2011-05-22T09:09:13Z</time>
      </trkpt>
      <trkpt lat="48.87224" lon="7.38003">
        <ele>223.3</ele>
        <time>2011-05-22T09:09:20Z</time>
      </trkpt>
      <trkpt lat="48.87201" lon="7.38027">
        <ele>224.3</ele>
        <time>2011-05-22T09:09:37Z</time>
      </trkpt>
      <trkpt lat="48.8719" lon="7.38076">
        <ele>224.5</ele>
        <time>2011-05-22T09:09:42Z</time>
      </trkpt>
      <trkpt lat="48.8719" lon="7.38124">
        <ele>224.3</ele>
        <time>2011-05-22T09:09:47Z</time>
      </trkpt>
      <trkpt lat="48.87185" lon="7.38168">
        <ele>224.4</ele>
        <time>2011-05-22T09:09:52Z</time>
      </trkpt>
      <trkpt lat="48.87186" lon="7.38209">
        <ele>226.5</ele>
        <time>2011-05-22T09:09:57Z</time>
      </trkpt>
      <trkpt lat="48.8719" lon="7.38162">
        <ele>224.2</ele>
        <time>2011-05-22T09:11:00Z</time>
      </trkpt>
      <trkpt lat="48.87191" lon="7.38119">
        <ele>224.3</ele>
        <time>2011-05-22T09:11:04Z</time>
      </trkpt>
      <trkpt lat="48.87191" lon="7.38078">
        <ele>224.5</ele>
        <time>2011-05-22T09:11:08Z</time>
      </trkpt>
      <trkpt lat="48.872" lon="7.38039">
        <ele>224.3</ele>
        <time>2011-05-22T09:11:13Z</time>
      </trkpt>
      <trkpt lat="48.87223" lon="7.38015">
        <ele>223.4</ele>
        <time>2011-05-22T09:11:18Z</time>
      </trkpt>
      <trkpt lat="48.87251" lon="7.37993">
        <ele>222.1</ele>
        <time>2011-05-22T09:11:24Z</time>
      </trkpt>
      <trkpt lat="48.87281" lon="7.37996">
        <ele>223.5</ele>
        <time>2011-05-22T09:11:31Z</time>
      </trkpt>
      <trkpt lat="48.87307" lon="7.3801">
        <ele>224.7</ele>
        <time>2011-05-22T09:11:38Z</time>
      </trkpt>
      <trkpt lat="48.87331" lon="7.38028">
        <ele>225.6</ele>
        <time>2011-05-22T09:11:44Z</time>
      </trkpt>
      <trkpt lat="48.87353" lon="7.38055">
        <ele>226.3</ele>
        <time>2011-05-22T09:11:51Z</time>
      </trkpt>
      <trkpt lat="48.87375" lon="7.38081">
        <ele>227</ele>
        <time>2011-05-22T09:11:59Z</time>
      </trkpt>
      <trkpt lat="48.87398" lon="7.38107">
        <ele>227.9</ele>
        <time>2011-05-22T09:12:08Z</time>
      </trkpt>
      <trkpt lat="48.87413" lon="7.38143">
        <ele>228.2</ele>
        <time>2011-05-22T09:12:15Z</time>
      </trkpt>
      <trkpt lat="48.87424" lon="7.38184">
        <ele>229.1</ele>
        <time>2011-05-22T09:12:23Z</time>
      </trkpt>
      <trkpt lat="48.87434" lon="7.38224">
        <ele>230.6</ele>
        <time>2011-05-22T09:12:31Z</time>
      </trkpt>
      <trkpt lat="48.87447" lon="7.38262">
        <ele>231.6</ele>
        <time>2011-05-22T09:12:39Z</time>
      </trkpt>
      <trkpt lat="48.87457" lon="7.383">
        <ele>232.3</ele>
        <time>2011-05-22T09:12:47Z</time>
      </trkpt>
      <trkpt lat="48.87469" lon="7.38338">
        <ele>232.5</ele>
        <time>2011-05-22T09:12:55Z</time>
      </trkpt>
      <trkpt lat="48.8748" lon="7.38377">
        <ele>233.9</ele>
        <time>2011-05-22T09:13:03Z</time>
      </trkpt>
      <trkpt lat="48.87495" lon="7.38417">
        <ele>235.9</ele>
        <time>2011-05-22T09:13:12Z</time>
      </trkpt>
      <trkpt lat="48.87503" lon="7.38459">
        <ele>237.3</ele>
        <time>2011-05-22T09:13:19Z</time>
      </trkpt>
      <trkpt lat="48.87508" lon="7.38506">
        <ele>238.8</ele>
        <time>2011-05-22T09:13:26Z</time>
      </trkpt>
      <trkpt lat="48.8751" lon="7.38549">
        <ele>240.1</ele>
        <time>2011-05-22T09:13:32Z</time>
      </trkpt>
      <trkpt lat="48.87518" lon="7.38595">
        <ele>240.8</ele>
        <time>2011-05-22T09:13:39Z</time>
      </trkpt>
      <trkpt lat="48.87525" lon="7.38636">
        <ele>239.9</ele>
        <time>2011-05-22T09:13:45Z</time>
      </trkpt>
      <trkpt lat="48.87534" lon="7.38677">
        <ele>239.1</ele>
        <time>2011-05-22T09:13:51Z</time>
      </trkpt>
      <trkpt lat="48.87542" lon="7.38723">
        <ele>238.2</ele>
        <time>2011-05-22T09:13:57Z</time>
      </trkpt>
      <trkpt lat="48.87551" lon="7.38767">
        <ele>237.7</ele>
        <time>2011-05-22T09:14:02Z</time>
      </trkpt>
      <trkpt lat="48.87558" lon="7.38811">
        <ele>237.5</ele>
        <time>2011-05-22T09:14:07Z</time>
      </trkpt>
      <trkpt lat="48.87567" lon="7.38849">
        <ele>236.8</ele>
        <time>2011-05-22T09:14:12Z</time>
      </trkpt>
      <trkpt lat="48.87582" lon="7.3889">
        <ele>235.7</ele>
        <time>2011-05-22T09:14:17Z</time>
      </trkpt>
      <trkpt lat="48.876" lon="7.38928">
        <ele>237.2</ele>
        <time>2011-05-22T09:14:22Z</time>
      </trkpt>
      <trkpt lat="48.87616" lon="7.3897">
        <ele>238</ele>
        <time>2011-05-22T09:14:27Z</time>
      </trkpt>
      <trkpt lat="48.87628" lon="7.39016">
        <ele>238.4</ele>
        <time>2011-05-22T09:14:32Z</time>
      </trkpt>
      <trkpt lat="48.87638" lon="7.39063">
        <ele>239.4</ele>
        <time>2011-05-22T09:14:37Z</time>
      </trkpt>
      <trkpt lat="48.87644" lon="7.39104">
        <ele>239.3</ele>
        <time>2011-05-22T09:14:41Z</time>
      </trkpt>
      <trkpt lat="48.87649" lon="7.39145">
        <ele>238.8</ele>
        <time>2011-05-22T09:14:45Z</time>
      </trkpt>
      <trkpt lat="48.87667" lon="7.39188">
        <ele>237.8</ele>
        <time>2011-05-22T09:14:50Z</time>
      </trkpt>
      <trkpt lat="48.87677" lon="7.39227">
        <ele>236.8</ele>
        <time>2011-05-22T09:14:54Z</time>
      </trkpt>
      <trkpt lat="48.87683" lon="7.39267">
        <ele>235.4</ele>
        <time>2011-05-22T09:14:58Z</time>
      </trkpt>
      <trkpt lat="48.87685" lon="7.39316">
        <ele>233.5</ele>
        <time>2011-05-22T09:15:03Z</time>
      </trkpt>
      <trkpt lat="48.87692" lon="7.3936">
        <ele>232.2</ele>
        <time>2011-05-22T09:15:08Z</time>
      </trkpt>
      <trkpt lat="48.87703" lon="7.39398">
        <ele>231.4</ele>
        <time>2011-05-22T09:15:13Z</time>
      </trkpt>
      <trkpt lat="48.87733" lon="7.39409">
        <ele>233.7</ele>
        <time>2011-05-22T09:15:19Z</time>
      </trkpt>
      <trkpt lat="48.87761" lon="7.39397">
        <ele>235.4</ele>
        <time>2011-05-22T09:15:27Z</time>
      </trkpt>
      <trkpt lat="48.87788" lon="7.39376">
        <ele>236</ele>
        <time>2011-05-22T09:15:32Z</time>
      </trkpt>
      <trkpt lat="48.87812" lon="7.39352">
        <ele>238.2</ele>
        <time>2011-05-22T09:15:37Z</time>
      </trkpt>
      <trkpt lat="48.87825" lon="7.39312">
        <ele>243.2</ele>
        <time>2011-05-22T09:15:45Z</time>
      </trkpt>
      <trkpt lat="48.87852" lon="7.39338">
        <ele>238.6</ele>
        <time>2011-05-22T09:15:56Z</time>
      </trkpt>
      <trkpt lat="48.87868" lon="7.39376">
        <ele>231.8</ele>
        <time>2011-05-22T09:16:01Z</time>
      </trkpt>
      <trkpt lat="48.87897" lon="7.3938">
        <ele>228.6</ele>
        <time>2011-05-22T09:16:07Z</time>
      </trkpt>
      <trkpt lat="48.87911" lon="7.39343">
        <ele>232.3</ele>
        <time>2011-05-22T09:16:12Z</time>
      </trkpt>
      <trkpt lat="48.87924" lon="7.39301">
        <ele>236</ele>
        <time>2011-05-22T09:16:17Z</time>
      </trkpt>
      <trkpt lat="48.87937" lon="7.39264">
        <ele>238.6</ele>
        <time>2011-05-22T09:16:22Z</time>
      </trkpt>
      <trkpt lat="48.87951" lon="7.39226">
        <ele>239.3</ele>
        <time>2011-05-22T09:16:27Z</time>
      </trkpt>
      <trkpt lat="48.87964" lon="7.39183">
        <ele>239.9</ele>
        <time>2011-05-22T09:16:33Z</time>
      </trkpt>
      <trkpt lat="48.87972" lon="7.39145">
        <ele>240.5</ele>
        <time>2011-05-22T09:16:38Z</time>
      </trkpt>
      <trkpt lat="48.87984" lon="7.39099">
        <ele>241.1</ele>
        <time>2011-05-22T09:16:45Z</time>
      </trkpt>
      <trkpt lat="48.87996" lon="7.39055">
        <ele>241.2</ele>
        <time>2011-05-22T09:16:50Z</time>
      </trkpt>
      <trkpt lat="48.88001" lon="7.39012">
        <ele>241.6</ele>
        <time>2011-05-22T09:16:55Z</time>
      </trkpt>
      <trkpt lat="48.88004" lon="7.38971">
        <ele>241.9</ele>
        <time>2011-05-22T09:17:00Z</time>
      </trkpt>
      <trkpt lat="48.88007" lon="7.38927">
        <ele>242.3</ele>
        <time>2011-05-22T09:17:05Z</time>
      </trkpt>
      <trkpt lat="48.88005" lon="7.38877">
        <ele>242</ele>
        <time>2011-05-22T09:17:10Z</time>
      </trkpt>
      <trkpt lat="48.88003" lon="7.3883">
        <ele>241.4</ele>
        <time>2011-05-22T09:17:15Z</time>
      </trkpt>
      <trkpt lat="48.87997" lon="7.38789">
        <ele>239.7</ele>
        <time>2011-05-22T09:17:20Z</time>
      </trkpt>
      <trkpt lat="48.87986" lon="7.38749">
        <ele>239.4</ele>
        <time>2011-05-22T09:17:26Z</time>
      </trkpt>
      <trkpt lat="48.87975" lon="7.38708">
        <ele>240.2</ele>
        <time>2011-05-22T09:17:33Z</time>
      </trkpt>
      <trkpt lat="48.87965" lon="7.3867">
        <ele>241.2</ele>
        <time>2011-05-22T09:17:40Z</time>
      </trkpt>
      <trkpt lat="48.87957" lon="7.38625">
        <ele>242.1</ele>
        <time>2011-05-22T09:17:48Z</time>
      </trkpt>
      <trkpt lat="48.87951" lon="7.38585">
        <ele>242.5</ele>
        <time>2011-05-22T09:17:56Z</time>
      </trkpt>
      <trkpt lat="48.87945" lon="7.38543">
        <ele>244.3</ele>
        <time>2011-05-22T09:18:06Z</time>
      </trkpt>
      <trkpt lat="48.87937" lon="7.38498">
        <ele>245.9</ele>
        <time>2011-05-22T09:18:14Z</time>
      </trkpt>
      <trkpt lat="48.87933" lon="7.38451">
        <ele>247.3</ele>
        <time>2011-05-22T09:18:21Z</time>
      </trkpt>
      <trkpt lat="48.87926" lon="7.38407">
        <ele>249</ele>
        <time>2011-05-22T09:18:27Z</time>
      </trkpt>
      <trkpt lat="48.87917" lon="7.38362">
        <ele>248.9</ele>
        <time>2011-05-22T09:18:33Z</time>
      </trkpt>
      <trkpt lat="48.87913" lon="7.38317">
        <ele>247.8</ele>
        <time>2011-05-22T09:18:39Z</time>
      </trkpt>
      <trkpt lat="48.87908" lon="7.38276">
        <ele>246.5</ele>
        <time>2011-05-22T09:18:44Z</time>
      </trkpt>
      <trkpt lat="48.87902" lon="7.38232">
        <ele>244.6</ele>
        <time>2011-05-22T09:18:49Z</time>
      </trkpt>
      <trkpt lat="48.87895" lon="7.38191">
        <ele>242.3</ele>
        <time>2011-05-22T09:18:54Z</time>
      </trkpt>
      <trkpt lat="48.87889" lon="7.38148">
        <ele>240</ele>
        <time>2011-05-22T09:18:59Z</time>
      </trkpt>
      <trkpt lat="48.87883" lon="7.38102">
        <ele>238.1</ele>
        <time>2011-05-22T09:19:04Z</time>
      </trkpt>
      <trkpt lat="48.87873" lon="7.38065">
        <ele>237.4</ele>
        <time>2011-05-22T09:19:08Z</time>
      </trkpt>
      <trkpt lat="48.87858" lon="7.38028">
        <ele>237.2</ele>
        <time>2011-05-22T09:19:13Z</time>
      </trkpt>
      <trkpt lat="48.87839" lon="7.37994">
        <ele>237.3</ele>
        <time>2011-05-22T09:19:19Z</time>
      </trkpt>
      <trkpt lat="48.87819" lon="7.37963">
        <ele>238.3</ele>
        <time>2011-05-22T09:19:26Z</time>
      </trkpt>
      <trkpt lat="48.87799" lon="7.37933">
        <ele>239.8</ele>
        <time>2011-05-22T09:19:34Z</time>
      </trkpt>
      <trkpt lat="48.8778" lon="7.379">
        <ele>240.8</ele>
        <time>2011-05-22T09:19:41Z</time>
      </trkpt>
      <trkpt lat="48.87763" lon="7.37863">
        <ele>241.2</ele>
        <time>2011-05-22T09:19:49Z</time>
      </trkpt>
      <trkpt lat="48.87747" lon="7.37826">
        <ele>241.3</ele>
        <time>2011-05-22T09:19:57Z</time>
      </trkpt>
      <trkpt lat="48.87733" lon="7.37787">
        <ele>242.7</ele>
        <time>2011-05-22T09:20:06Z</time>
      </trkpt>
      <trkpt lat="48.87717" lon="7.37748">
        <ele>244.3</ele>
        <time>2011-05-22T09:20:15Z</time>
      </trkpt>
      <trkpt lat="48.87709" lon="7.37706">
        <ele>245.4</ele>
        <time>2011-05-22T09:20:23Z</time>
      </trkpt>
      <trkpt lat="48.87717" lon="7.37662">
        <ele>245.2</ele>
        <time>2011-05-22T09:20:31Z</time>
      </trkpt>
      <trkpt lat="48.87745" lon="7.37646">
        <ele>244.8</ele>
        <time>2011-05-22T09:20:38Z</time>
      </trkpt>
      <trkpt lat="48.87774" lon="7.37634">
        <ele>246.5</ele>
        <time>2011-05-22T09:20:45Z</time>
      </trkpt>
      <trkpt lat="48.87778" lon="7.37591">
        <ele>249.5</ele>
        <time>2011-05-22T09:20:54Z</time>
      </trkpt>
      <trkpt lat="48.87805" lon="7.37583">
        <ele>253</ele>
        <time>2011-05-22T09:21:06Z</time>
      </trkpt>
      <trkpt lat="48.87834" lon="7.37598">
        <ele>254.3</ele>
        <time>2011-05-22T09:21:14Z</time>
      </trkpt>
      <trkpt lat="48.8786" lon="7.37619">
        <ele>255.3</ele>
        <time>2011-05-22T09:21:21Z</time>
      </trkpt>
      <trkpt lat="48.87883" lon="7.37642">
        <ele>255.5</ele>
        <time>2011-05-22T09:21:27Z</time>
      </trkpt>
      <trkpt lat="48.87907" lon="7.37666">
        <ele>255.8</ele>
        <time>2011-05-22T09:21:34Z</time>
      </trkpt>
      <trkpt lat="48.87934" lon="7.37688">
        <ele>256.4</ele>
        <time>2011-05-22T09:21:40Z</time>
      </trkpt>
      <trkpt lat="48.8796" lon="7.37707">
        <ele>257.6</ele>
        <time>2011-05-22T09:21:46Z</time>
      </trkpt>
      <trkpt lat="48.87989" lon="7.37721">
        <ele>259.7</ele>
        <time>2011-05-22T09:21:52Z</time>
      </trkpt>
      <trkpt lat="48.88015" lon="7.37741">
        <ele>259.8</ele>
        <time>2011-05-22T09:21:59Z</time>
      </trkpt>
      <trkpt lat="48.88044" lon="7.37746">
        <ele>263</ele>
        <time>2011-05-22T09:28:23Z</time>
      </trkpt>
      <trkpt lat="48.8807" lon="7.37763">
        <ele>264.8</ele>
        <time>2011-05-22T09:28:30Z</time>
      </trkpt>
      <trkpt lat="48.88099" lon="7.37767">
        <ele>266.9</ele>
        <time>2011-05-22T09:28:36Z</time>
      </trkpt>
      <trkpt lat="48.88129" lon="7.37755">
        <ele>268.7</ele>
        <time>2011-05-22T09:28:42Z</time>
      </trkpt>
      <trkpt lat="48.88155" lon="7.37727">
        <ele>271.8</ele>
        <time>2011-05-22T09:28:47Z</time>
      </trkpt>
      <trkpt lat="48.88172" lon="7.37696">
        <ele>273.8</ele>
        <time>2011-05-22T09:28:51Z</time>
      </trkpt>
      <trkpt lat="48.88188" lon="7.37654">
        <ele>273.7</ele>
        <time>2011-05-22T09:28:56Z</time>
      </trkpt>
      <trkpt lat="48.88207" lon="7.37617">
        <ele>271.7</ele>
        <time>2011-05-22T09:29:01Z</time>
      </trkpt>
      <trkpt lat="48.88226" lon="7.37578">
        <ele>269.7</ele>
        <time>2011-05-22T09:29:06Z</time>
      </trkpt>
      <trkpt lat="48.88236" lon="7.37536">
        <ele>267.3</ele>
        <time>2011-05-22T09:29:11Z</time>
      </trkpt>
      <trkpt lat="48.88239" lon="7.37493">
        <ele>266.2</ele>
        <time>2011-05-22T09:29:16Z</time>
      </trkpt>
      <trkpt lat="48.88243" lon="7.37449">
        <ele>265.8</ele>
        <time>2011-05-22T09:29:21Z</time>
      </trkpt>
      <trkpt lat="48.88244" lon="7.37403">
        <ele>265.7</ele>
        <time>2011-05-22T09:29:26Z</time>
      </trkpt>
      <trkpt lat="48.88254" lon="7.37361">
        <ele>263.5</ele>
        <time>2011-05-22T09:29:31Z</time>
      </trkpt>
      <trkpt lat="48.88275" lon="7.37328">
        <ele>262.7</ele>
        <time>2011-05-22T09:29:36Z</time>
      </trkpt>
      <trkpt lat="48.88299" lon="7.373">
        <ele>262.9</ele>
        <time>2011-05-22T09:29:42Z</time>
      </trkpt>
      <trkpt lat="48.88326" lon="7.37277">
        <ele>263.3</ele>
        <time>2011-05-22T09:29:48Z</time>
      </trkpt>
      <trkpt lat="48.88352" lon="7.37256">
        <ele>263.6</ele>
        <time>2011-05-22T09:29:54Z</time>
      </trkpt>
      <trkpt lat="48.8838" lon="7.3724">
        <ele>263.2</ele>
        <time>2011-05-22T09:30:02Z</time>
      </trkpt>
      <trkpt lat="48.88409" lon="7.37235">
        <ele>262.7</ele>
        <time>2011-05-22T09:30:11Z</time>
      </trkpt>
      <trkpt lat="48.88436" lon="7.37236">
        <ele>260.8</ele>
        <time>2011-05-22T09:30:23Z</time>
      </trkpt>
      <trkpt lat="48.88461" lon="7.37221">
        <ele>258.6</ele>
        <time>2011-05-22T09:30:33Z</time>
      </trkpt>
      <trkpt lat="48.88487" lon="7.37198">
        <ele>257.3</ele>
        <time>2011-05-22T09:30:41Z</time>
      </trkpt>
      <trkpt lat="48.88509" lon="7.37171">
        <ele>257.2</ele>
        <time>2011-05-22T09:30:47Z</time>
      </trkpt>
      <trkpt lat="48.88524" lon="7.37127">
        <ele>258.3</ele>
        <time>2011-05-22T09:30:52Z</time>
      </trkpt>
      <trkpt lat="48.88539" lon="7.37082">
        <ele>259.2</ele>
        <time>2011-05-22T09:30:57Z</time>
      </trkpt>
      <trkpt lat="48.88557" lon="7.37048">
        <ele>259</ele>
        <time>2011-05-22T09:31:02Z</time>
      </trkpt>
      <trkpt lat="48.88573" lon="7.37007">
        <ele>259.4</ele>
        <time>2011-05-22T09:31:08Z</time>
      </trkpt>
      <trkpt lat="48.88587" lon="7.36969">
        <ele>261.1</ele>
        <time>2011-05-22T09:31:14Z</time>
      </trkpt>
      <trkpt lat="48.88609" lon="7.36936">
        <ele>264.1</ele>
        <time>2011-05-22T09:31:20Z</time>
      </trkpt>
      <trkpt lat="48.88631" lon="7.36903">
        <ele>266.2</ele>
        <time>2011-05-22T09:31:26Z</time>
      </trkpt>
      <trkpt lat="48.88654" lon="7.36871">
        <ele>268.2</ele>
        <time>2011-05-22T09:31:33Z</time>
      </trkpt>
      <trkpt lat="48.88678" lon="7.3684">
        <ele>270.7</ele>
        <time>2011-05-22T09:31:40Z</time>
      </trkpt>
      <trkpt lat="48.88699" lon="7.36813">
        <ele>273.5</ele>
        <time>2011-05-22T09:31:48Z</time>
      </trkpt>
      <trkpt lat="48.88722" lon="7.36784">
        <ele>276.2</ele>
        <time>2011-05-22T09:31:57Z</time>
      </trkpt>
      <trkpt lat="48.88739" lon="7.36751">
        <ele>278.3</ele>
        <time>2011-05-22T09:32:06Z</time>
      </trkpt>
      <trkpt lat="48.88746" lon="7.36709">
        <ele>280.8</ele>
        <time>2011-05-22T09:32:17Z</time>
      </trkpt>
      <trkpt lat="48.88744" lon="7.36668">
        <ele>282.8</ele>
        <time>2011-05-22T09:32:31Z</time>
      </trkpt>
      <trkpt lat="48.88738" lon="7.36627">
        <ele>286.6</ele>
        <time>2011-05-22T09:32:44Z</time>
      </trkpt>
      <trkpt lat="48.88722" lon="7.36592">
        <ele>289.8</ele>
        <time>2011-05-22T09:33:00Z</time>
      </trkpt>
      <trkpt lat="48.88694" lon="7.3659">
        <ele>289.6</ele>
        <time>2011-05-22T09:33:12Z</time>
      </trkpt>
      <trkpt lat="48.88666" lon="7.3659">
        <ele>289.3</ele>
        <time>2011-05-22T09:33:20Z</time>
      </trkpt>
      <trkpt lat="48.88638" lon="7.36584">
        <ele>289.2</ele>
        <time>2011-05-22T09:33:28Z</time>
      </trkpt>
      <trkpt lat="48.8861" lon="7.36573">
        <ele>290</ele>
        <time>2011-05-22T09:33:36Z</time>
      </trkpt>
      <trkpt lat="48.88583" lon="7.36554">
        <ele>291.2</ele>
        <time>2011-05-22T09:33:46Z</time>
      </trkpt>
      <trkpt lat="48.8856" lon="7.36525">
        <ele>292.8</ele>
        <time>2011-05-22T09:33:56Z</time>
      </trkpt>
      <trkpt lat="48.88544" lon="7.3649">
        <ele>294.8</ele>
        <time>2011-05-22T09:34:05Z</time>
      </trkpt>
      <trkpt lat="48.88529" lon="7.36454">
        <ele>296.2</ele>
        <time>2011-05-22T09:34:14Z</time>
      </trkpt>
      <trkpt lat="48.88517" lon="7.36413">
        <ele>298</ele>
        <time>2011-05-22T09:34:22Z</time>
      </trkpt>
      <trkpt lat="48.88508" lon="7.36372">
        <ele>297.5</ele>
        <time>2011-05-22T09:34:29Z</time>
      </trkpt>
      <trkpt lat="48.88512" lon="7.36328">
        <ele>297.6</ele>
        <time>2011-05-22T09:34:36Z</time>
      </trkpt>
      <trkpt lat="48.88528" lon="7.36296">
        <ele>298.3</ele>
        <time>2011-05-22T09:34:43Z</time>
      </trkpt>
      <trkpt lat="48.88548" lon="7.36264">
        <ele>299</ele>
        <time>2011-05-22T09:34:50Z</time>
      </trkpt>
      <trkpt lat="48.88567" lon="7.36233">
        <ele>299.1</ele>
        <time>2011-05-22T09:34:58Z</time>
      </trkpt>
      <trkpt lat="48.88591" lon="7.36211">
        <ele>300.2</ele>
        <time>2011-05-22T09:35:09Z</time>
      </trkpt>
      <trkpt lat="48.88615" lon="7.36186">
        <ele>302.3</ele>
        <time>2011-05-22T09:35:19Z</time>
      </trkpt>
      <trkpt lat="48.88635" lon="7.36152">
        <ele>303.3</ele>
        <time>2011-05-22T09:35:28Z</time>
      </trkpt>
      <trkpt lat="48.88645" lon="7.36111">
        <ele>303.3</ele>
        <time>2011-05-22T09:35:38Z</time>
      </trkpt>
      <trkpt lat="48.88668" lon="7.36086">
        <ele>305.1</ele>
        <time>2011-05-22T09:35:47Z</time>
      </trkpt>
      <trkpt lat="48.88693" lon="7.36066">
        <ele>306.9</ele>
        <time>2011-05-22T09:35:56Z</time>
      </trkpt>
      <trkpt lat="48.88717" lon="7.36041">
        <ele>309.2</ele>
        <time>2011-05-22T09:36:03Z</time>
      </trkpt>
      <trkpt lat="48.88732" lon="7.36004">
        <ele>311.9</ele>
        <time>2011-05-22T09:36:11Z</time>
      </trkpt>
      <trkpt lat="48.88737" lon="7.3596">
        <ele>315.1</ele>
        <time>2011-05-22T09:36:18Z</time>
      </trkpt>
      <trkpt lat="48.88731" lon="7.35916">
        <ele>318.2</ele>
        <time>2011-05-22T09:36:25Z</time>
      </trkpt>
      <trkpt lat="48.88756" lon="7.35901">
        <ele>320.3</ele>
        <time>2011-05-22T09:36:31Z</time>
      </trkpt>
      <trkpt lat="48.88782" lon="7.35913">
        <ele>315.6</ele>
        <time>2011-05-22T09:36:37Z</time>
      </trkpt>
      <trkpt lat="48.8881" lon="7.35891">
        <ele>315.8</ele>
        <time>2011-05-22T09:36:43Z</time>
      </trkpt>
      <trkpt lat="48.88833" lon="7.35862">
        <ele>316.6</ele>
        <time>2011-05-22T09:36:49Z</time>
      </trkpt>
      <trkpt lat="48.88849" lon="7.35822">
        <ele>316.4</ele>
        <time>2011-05-22T09:36:56Z</time>
      </trkpt>
      <trkpt lat="48.88843" lon="7.3578">
        <ele>318.8</ele>
        <time>2011-05-22T09:37:02Z</time>
      </trkpt>
      <trkpt lat="48.88834" lon="7.3574">
        <ele>321.2</ele>
        <time>2011-05-22T09:37:10Z</time>
      </trkpt>
      <trkpt lat="48.88821" lon="7.35701">
        <ele>323.6</ele>
        <time>2011-05-22T09:37:19Z</time>
      </trkpt>
      <trkpt lat="48.88808" lon="7.3566">
        <ele>326.8</ele>
        <time>2011-05-22T09:37:28Z</time>
      </trkpt>
      <trkpt lat="48.88794" lon="7.35622">
        <ele>330.2</ele>
        <time>2011-05-22T09:37:37Z</time>
      </trkpt>
      <trkpt lat="48.88786" lon="7.35581">
        <ele>331.5</ele>
        <time>2011-05-22T09:37:46Z</time>
      </trkpt>
      <trkpt lat="48.88773" lon="7.35539">
        <ele>332.3</ele>
        <time>2011-05-22T09:37:54Z</time>
      </trkpt>
      <trkpt lat="48.88762" lon="7.35501">
        <ele>331.9</ele>
        <time>2011-05-22T09:38:00Z</time>
      </trkpt>
      <trkpt lat="48.88755" lon="7.35458">
        <ele>328.2</ele>
        <time>2011-05-22T09:38:07Z</time>
      </trkpt>
      <trkpt lat="48.88751" lon="7.35416">
        <ele>323</ele>
        <time>2011-05-22T09:38:14Z</time>
      </trkpt>
      <trkpt lat="48.88751" lon="7.35373">
        <ele>322</ele>
        <time>2011-05-22T09:38:21Z</time>
      </trkpt>
      <trkpt lat="48.88758" lon="7.35328">
        <ele>322.2</ele>
        <time>2011-05-22T09:38:29Z</time>
      </trkpt>
      <trkpt lat="48.88743" lon="7.35292">
        <ele>323.1</ele>
        <time>2011-05-22T09:38:38Z</time>
      </trkpt>
      <trkpt lat="48.88724" lon="7.35262">
        <ele>325</ele>
        <time>2011-05-22T09:38:44Z</time>
      </trkpt>
      <trkpt lat="48.887" lon="7.35229">
        <ele>324.6</ele>
        <time>2011-05-22T09:38:49Z</time>
      </trkpt>
      <trkpt lat="48.8868" lon="7.352">
        <ele>321.9</ele>
        <time>2011-05-22T09:38:53Z</time>
      </trkpt>
      <trkpt lat="48.88653" lon="7.35179">
        <ele>318.7</ele>
        <time>2011-05-22T09:38:58Z</time>
      </trkpt>
      <trkpt lat="48.88622" lon="7.35164">
        <ele>316.5</ele>
        <time>2011-05-22T09:39:03Z</time>
      </trkpt>
      <trkpt lat="48.88592" lon="7.35163">
        <ele>316.3</ele>
        <time>2011-05-22T09:39:08Z</time>
      </trkpt>
      <trkpt lat="48.88564" lon="7.35152">
        <ele>314.1</ele>
        <time>2011-05-22T09:39:12Z</time>
      </trkpt>
      <trkpt lat="48.88535" lon="7.35142">
        <ele>311.7</ele>
        <time>2011-05-22T09:39:16Z</time>
      </trkpt>
      <trkpt lat="48.88559" lon="7.35122">
        <ele>307.5</ele>
        <time>2011-05-22T09:39:34Z</time>
      </trkpt>
      <trkpt lat="48.88586" lon="7.35105">
        <ele>304.6</ele>
        <time>2011-05-22T09:39:40Z</time>
      </trkpt>
      <trkpt lat="48.88611" lon="7.35091">
        <ele>303.7</ele>
        <time>2011-05-22T09:39:44Z</time>
      </trkpt>
      <trkpt lat="48.88633" lon="7.35065">
        <ele>304.3</ele>
        <time>2011-05-22T09:39:48Z</time>
      </trkpt>
      <trkpt lat="48.88643" lon="7.35027">
        <ele>306.3</ele>
        <time>2011-05-22T09:39:53Z</time>
      </trkpt>
      <trkpt lat="48.88615" lon="7.35008">
        <ele>301</ele>
        <time>2011-05-22T09:40:01Z</time>
      </trkpt>
      <trkpt lat="48.88587" lon="7.34982">
        <ele>295.6</ele>
        <time>2011-05-22T09:40:08Z</time>
      </trkpt>
      <trkpt lat="48.88563" lon="7.34958">
        <ele>293</ele>
        <time>2011-05-22T09:40:13Z</time>
      </trkpt>
      <trkpt lat="48.88541" lon="7.34925">
        <ele>290.6</ele>
        <time>2011-05-22T09:40:18Z</time>
      </trkpt>
      <trkpt lat="48.88521" lon="7.34893">
        <ele>287.8</ele>
        <time>2011-05-22T09:40:23Z</time>
      </trkpt>
      <trkpt lat="48.88509" lon="7.34855">
        <ele>285.8</ele>
        <time>2011-05-22T09:40:28Z</time>
      </trkpt>
      <trkpt lat="48.88498" lon="7.34817">
        <ele>283.4</ele>
        <time>2011-05-22T09:40:33Z</time>
      </trkpt>
      <trkpt lat="48.88485" lon="7.3478">
        <ele>281.3</ele>
        <time>2011-05-22T09:40:38Z</time>
      </trkpt>
      <trkpt lat="48.88472" lon="7.3474">
        <ele>278.9</ele>
        <time>2011-05-22T09:40:43Z</time>
      </trkpt>
      <trkpt lat="48.88467" lon="7.34694">
        <ele>276.6</ele>
        <time>2011-05-22T09:40:48Z</time>
      </trkpt>
      <trkpt lat="48.88475" lon="7.34655">
        <ele>275.9</ele>
        <time>2011-05-22T09:40:53Z</time>
      </trkpt>
      <trkpt lat="48.88495" lon="7.34623">
        <ele>276.5</ele>
        <time>2011-05-22T09:40:58Z</time>
      </trkpt>
      <trkpt lat="48.88512" lon="7.34589">
        <ele>277.3</ele>
        <time>2011-05-22T09:41:03Z</time>
      </trkpt>
      <trkpt lat="48.88531" lon="7.34554">
        <ele>280.5</ele>
        <time>2011-05-22T09:41:08Z</time>
      </trkpt>
      <trkpt lat="48.88545" lon="7.34511">
        <ele>283.9</ele>
        <time>2011-05-22T09:41:13Z</time>
      </trkpt>
      <trkpt lat="48.88525" lon="7.34478">
        <ele>280.7</ele>
        <time>2011-05-22T09:41:19Z</time>
      </trkpt>
      <trkpt lat="48.88507" lon="7.34439">
        <ele>278</ele>
        <time>2011-05-22T09:41:25Z</time>
      </trkpt>
      <trkpt lat="48.885" lon="7.34397">
        <ele>277.8</ele>
        <time>2011-05-22T09:41:31Z</time>
      </trkpt>
      <trkpt lat="48.88494" lon="7.3435">
        <ele>278.5</ele>
        <time>2011-05-22T09:41:38Z</time>
      </trkpt>
      <trkpt lat="48.88489" lon="7.34305">
        <ele>277.8</ele>
        <time>2011-05-22T09:41:44Z</time>
      </trkpt>
      <trkpt lat="48.88487" lon="7.34262">
        <ele>276.9</ele>
        <time>2011-05-22T09:41:50Z</time>
      </trkpt>
      <trkpt lat="48.8849" lon="7.3422">
        <ele>276.5</ele>
        <time>2011-05-22T09:41:56Z</time>
      </trkpt>
      <trkpt lat="48.88495" lon="7.34178">
        <ele>276.4</ele>
        <time>2011-05-22T09:42:02Z</time>
      </trkpt>
      <trkpt lat="48.88502" lon="7.34139">
        <ele>277.3</ele>
        <time>2011-05-22T09:42:08Z</time>
      </trkpt>
      <trkpt lat="48.88509" lon="7.34097">
        <ele>278.7</ele>
        <time>2011-05-22T09:42:15Z</time>
      </trkpt>
      <trkpt lat="48.88517" lon="7.34053">
        <ele>282.4</ele>
        <time>2011-05-22T09:42:22Z</time>
      </trkpt>
      <trkpt lat="48.88522" lon="7.3401">
        <ele>286.1</ele>
        <time>2011-05-22T09:42:29Z</time>
      </trkpt>
      <trkpt lat="48.88528" lon="7.3397">
        <ele>289.1</ele>
        <time>2011-05-22T09:42:37Z</time>
      </trkpt>
      <trkpt lat="48.88534" lon="7.33929">
        <ele>291.8</ele>
        <time>2011-05-22T09:42:46Z</time>
      </trkpt>
      <trkpt lat="48.88534" lon="7.33883">
        <ele>294.4</ele>
        <time>2011-05-22T09:42:55Z</time>
      </trkpt>
      <trkpt lat="48.88535" lon="7.33838">
        <ele>297.1</ele>
        <time>2011-05-22T09:43:03Z</time>
      </trkpt>
      <trkpt lat="48.88534" lon="7.33791">
        <ele>297.7</ele>
        <time>2011-05-22T09:43:10Z</time>
      </trkpt>
      <trkpt lat="48.88535" lon="7.33749">
        <ele>298.3</ele>
        <time>2011-05-22T09:43:16Z</time>
      </trkpt>
      <trkpt lat="48.88531" lon="7.33706">
        <ele>298.9</ele>
        <time>2011-05-22T09:43:21Z</time>
      </trkpt>
      <trkpt lat="48.88523" lon="7.33666">
        <ele>298.2</ele>
        <time>2011-05-22T09:43:26Z</time>
      </trkpt>
      <trkpt lat="48.88519" lon="7.33621">
        <ele>296.6</ele>
        <time>2011-05-22T09:43:31Z</time>
      </trkpt>
      <trkpt lat="48.88507" lon="7.33583">
        <ele>292.9</ele>
        <time>2011-05-22T09:43:35Z</time>
      </trkpt>
      <trkpt lat="48.8849" lon="7.33542">
        <ele>292.2</ele>
        <time>2011-05-22T09:43:39Z</time>
      </trkpt>
      <trkpt lat="48.88463" lon="7.33526">
        <ele>292</ele>
        <time>2011-05-22T09:43:43Z</time>
      </trkpt>
      <trkpt lat="48.88446" lon="7.33564">
        <ele>289.9</ele>
        <time>2011-05-22T09:43:50Z</time>
      </trkpt>
      <trkpt lat="48.88445" lon="7.3361">
        <ele>289.3</ele>
        <time>2011-05-22T09:43:57Z</time>
      </trkpt>
      <trkpt lat="48.88444" lon="7.33658">
        <ele>289.6</ele>
        <time>2011-05-22T09:44:03Z</time>
      </trkpt>
      <trkpt lat="48.88434" lon="7.33704">
        <ele>287.6</ele>
        <time>2011-05-22T09:44:10Z</time>
      </trkpt>
      <trkpt lat="48.88432" lon="7.33746">
        <ele>285.6</ele>
        <time>2011-05-22T09:44:16Z</time>
      </trkpt>
      <trkpt lat="48.88427" lon="7.33788">
        <ele>282.2</ele>
        <time>2011-05-22T09:44:20Z</time>
      </trkpt>
      <trkpt lat="48.88419" lon="7.33837">
        <ele>277.3</ele>
        <time>2011-05-22T09:44:24Z</time>
      </trkpt>
      <trkpt lat="48.88407" lon="7.33883">
        <ele>275.4</ele>
        <time>2011-05-22T09:44:27Z</time>
      </trkpt>
      <trkpt lat="48.88407" lon="7.33933">
        <ele>273.7</ele>
        <time>2011-05-22T09:44:31Z</time>
      </trkpt>
      <trkpt lat="48.88406" lon="7.33977">
        <ele>272.4</ele>
        <time>2011-05-22T09:44:35Z</time>
      </trkpt>
      <trkpt lat="48.88406" lon="7.34027">
        <ele>269.5</ele>
        <time>2011-05-22T09:44:40Z</time>
      </trkpt>
      <trkpt lat="48.88412" lon="7.34067">
        <ele>265.9</ele>
        <time>2011-05-22T09:44:44Z</time>
      </trkpt>
      <trkpt lat="48.88417" lon="7.34109">
        <ele>264.1</ele>
        <time>2011-05-22T09:44:51Z</time>
      </trkpt>
      <trkpt lat="48.88417" lon="7.3415">
        <ele>264.1</ele>
        <time>2011-05-22T09:45:00Z</time>
      </trkpt>
      <trkpt lat="48.88396" lon="7.3419">
        <ele>265.4</ele>
        <time>2011-05-22T09:45:07Z</time>
      </trkpt>
      <trkpt lat="48.88378" lon="7.34223">
        <ele>266</ele>
        <time>2011-05-22T09:45:14Z</time>
      </trkpt>
      <trkpt lat="48.88391" lon="7.34272">
        <ele>265.1</ele>
        <time>2011-05-22T09:45:20Z</time>
      </trkpt>
      <trkpt lat="48.88394" lon="7.34323">
        <ele>265.4</ele>
        <time>2011-05-22T09:45:25Z</time>
      </trkpt>
      <trkpt lat="48.88389" lon="7.34368">
        <ele>265.8</ele>
        <time>2011-05-22T09:45:30Z</time>
      </trkpt>
      <trkpt lat="48.88387" lon="7.34411">
        <ele>266.2</ele>
        <time>2011-05-22T09:45:36Z</time>
      </trkpt>
      <trkpt lat="48.88383" lon="7.34457">
        <ele>266</ele>
        <time>2011-05-22T09:45:43Z</time>
      </trkpt>
      <trkpt lat="48.88372" lon="7.34499">
        <ele>265.4</ele>
        <time>2011-05-22T09:45:48Z</time>
      </trkpt>
      <trkpt lat="48.88351" lon="7.34534">
        <ele>264.5</ele>
        <time>2011-05-22T09:45:51Z</time>
      </trkpt>
      <trkpt lat="48.8833" lon="7.34564">
        <ele>263.4</ele>
        <time>2011-05-22T09:45:56Z</time>
      </trkpt>
      <trkpt lat="48.88304" lon="7.34584">
        <ele>264.1</ele>
        <time>2011-05-22T09:45:59Z</time>
      </trkpt>
      <trkpt lat="48.88276" lon="7.34603">
        <ele>265.6</ele>
        <time>2011-05-22T09:46:02Z</time>
      </trkpt>
      <trkpt lat="48.88247" lon="7.34623">
        <ele>265.8</ele>
        <time>2011-05-22T09:46:06Z</time>
      </trkpt>
      <trkpt lat="48.88219" lon="7.34647">
        <ele>266.7</ele>
        <time>2011-05-22T09:46:10Z</time>
      </trkpt>
      <trkpt lat="48.88195" lon="7.34673">
        <ele>266.2</ele>
        <time>2011-05-22T09:46:15Z</time>
      </trkpt>
      <trkpt lat="48.88177" lon="7.34703">
        <ele>265.2</ele>
        <time>2011-05-22T09:46:23Z</time>
      </trkpt>
      <trkpt lat="48.88147" lon="7.34722">
        <ele>263.5</ele>
        <time>2011-05-22T09:46:27Z</time>
      </trkpt>
      <trkpt lat="48.88115" lon="7.34745">
        <ele>261.1</ele>
        <time>2011-05-22T09:46:33Z</time>
      </trkpt>
      <trkpt lat="48.88091" lon="7.34777">
        <ele>258.8</ele>
        <time>2011-05-22T09:46:37Z</time>
      </trkpt>
      <trkpt lat="48.8807" lon="7.34807">
        <ele>257.1</ele>
        <time>2011-05-22T09:46:42Z</time>
      </trkpt>
      <trkpt lat="48.88044" lon="7.34835">
        <ele>256.9</ele>
        <time>2011-05-22T09:46:46Z</time>
      </trkpt>
      <trkpt lat="48.8802" lon="7.34866">
        <ele>257.2</ele>
        <time>2011-05-22T09:46:52Z</time>
      </trkpt>
      <trkpt lat="48.87993" lon="7.34892">
        <ele>255.1</ele>
        <time>2011-05-22T09:46:55Z</time>
      </trkpt>
      <trkpt lat="48.87962" lon="7.34923">
        <ele>254.4</ele>
        <time>2011-05-22T09:46:59Z</time>
      </trkpt>
      <trkpt lat="48.87936" lon="7.34935">
        <ele>254.3</ele>
        <time>2011-05-22T09:47:03Z</time>
      </trkpt>
      <trkpt lat="48.87906" lon="7.34956">
        <ele>252.5</ele>
        <time>2011-05-22T09:47:06Z</time>
      </trkpt>
      <trkpt lat="48.87878" lon="7.34943">
        <ele>254.5</ele>
        <time>2011-05-22T09:47:11Z</time>
      </trkpt>
      <trkpt lat="48.87851" lon="7.34932">
        <ele>256.1</ele>
        <time>2011-05-22T09:47:16Z</time>
      </trkpt>
      <trkpt lat="48.87824" lon="7.34929">
        <ele>256.1</ele>
        <time>2011-05-22T09:47:21Z</time>
      </trkpt>
      <trkpt lat="48.87793" lon="7.34926">
        <ele>254.4</ele>
        <time>2011-05-22T09:47:27Z</time>
      </trkpt>
      <trkpt lat="48.87763" lon="7.34933">
        <ele>252</ele>
        <time>2011-05-22T09:47:33Z</time>
      </trkpt>
      <trkpt lat="48.8774" lon="7.34911">
        <ele>252</ele>
        <time>2011-05-22T09:47:45Z</time>
      </trkpt>
      <trkpt lat="48.87746" lon="7.34869">
        <ele>253.7</ele>
        <time>2011-05-22T09:47:56Z</time>
      </trkpt>
      <trkpt lat="48.87753" lon="7.34825">
        <ele>255.6</ele>
        <time>2011-05-22T09:48:07Z</time>
      </trkpt>
      <trkpt lat="48.87741" lon="7.34785">
        <ele>257.2</ele>
        <time>2011-05-22T09:48:23Z</time>
      </trkpt>
      <trkpt lat="48.87733" lon="7.34746">
        <ele>258.7</ele>
        <time>2011-05-22T09:48:34Z</time>
      </trkpt>
      <trkpt lat="48.87733" lon="7.34701">
        <ele>260.3</ele>
        <time>2011-05-22T09:48:46Z</time>
      </trkpt>
      <trkpt lat="48.87733" lon="7.3466">
        <ele>261.8</ele>
        <time>2011-05-22T09:48:57Z</time>
      </trkpt>
      <trkpt lat="48.8773" lon="7.34618">
        <ele>263</ele>
        <time>2011-05-22T09:49:07Z</time>
      </trkpt>
      <trkpt lat="48.87727" lon="7.34573">
        <ele>264.5</ele>
        <time>2011-05-22T09:49:16Z</time>
      </trkpt>
      <trkpt lat="48.87724" lon="7.3453">
        <ele>266.8</ele>
        <time>2011-05-22T09:49:24Z</time>
      </trkpt>
      <trkpt lat="48.8772" lon="7.34484">
        <ele>268.9</ele>
        <time>2011-05-22T09:49:32Z</time>
      </trkpt>
      <trkpt lat="48.87717" lon="7.34442">
        <ele>270.6</ele>
        <time>2011-05-22T09:49:39Z</time>
      </trkpt>
      <trkpt lat="48.87715" lon="7.34398">
        <ele>271.2</ele>
        <time>2011-05-22T09:49:46Z</time>
      </trkpt>
      <trkpt lat="48.87713" lon="7.34352">
        <ele>270</ele>
        <time>2011-05-22T09:49:53Z</time>
      </trkpt>
      <trkpt lat="48.87711" lon="7.34308">
        <ele>269.8</ele>
        <time>2011-05-22T09:50:00Z</time>
      </trkpt>
      <trkpt lat="48.8771" lon="7.34266">
        <ele>270.5</ele>
        <time>2011-05-22T09:50:07Z</time>
      </trkpt>
      <trkpt lat="48.87709" lon="7.34224">
        <ele>270.5</ele>
        <time>2011-05-22T09:50:15Z</time>
      </trkpt>
      <trkpt lat="48.87705" lon="7.34184">
        <ele>269.8</ele>
        <time>2011-05-22T09:50:22Z</time>
      </trkpt>
      <trkpt lat="48.87702" lon="7.34141">
        <ele>269</ele>
        <time>2011-05-22T09:50:30Z</time>
      </trkpt>
      <trkpt lat="48.877" lon="7.34099">
        <ele>268.2</ele>
        <time>2011-05-22T09:50:38Z</time>
      </trkpt>
      <trkpt lat="48.877" lon="7.34055">
        <ele>268.5</ele>
        <time>2011-05-22T09:50:45Z</time>
      </trkpt>
      <trkpt lat="48.877" lon="7.34013">
        <ele>269.3</ele>
        <time>2011-05-22T09:50:52Z</time>
      </trkpt>
      <trkpt lat="48.87694" lon="7.3397">
        <ele>270.6</ele>
        <time>2011-05-22T09:50:59Z</time>
      </trkpt>
      <trkpt lat="48.87687" lon="7.33928">
        <ele>271.9</ele>
        <time>2011-05-22T09:51:06Z</time>
      </trkpt>
      <trkpt lat="48.87679" lon="7.33885">
        <ele>272.8</ele>
        <time>2011-05-22T09:51:13Z</time>
      </trkpt>
      <trkpt lat="48.87666" lon="7.33848">
        <ele>272</ele>
        <time>2011-05-22T09:51:19Z</time>
      </trkpt>
      <trkpt lat="48.87656" lon="7.33809">
        <ele>273</ele>
        <time>2011-05-22T09:51:25Z</time>
      </trkpt>
      <trkpt lat="48.87648" lon="7.33767">
        <ele>273.9</ele>
        <time>2011-05-22T09:51:32Z</time>
      </trkpt>
      <trkpt lat="48.87648" lon="7.33723">
        <ele>275.7</ele>
        <time>2011-05-22T09:51:39Z</time>
      </trkpt>
      <trkpt lat="48.87645" lon="7.33682">
        <ele>276.8</ele>
        <time>2011-05-22T09:51:45Z</time>
      </trkpt>
      <trkpt lat="48.87643" lon="7.33633">
        <ele>275.5</ele>
        <time>2011-05-22T09:51:52Z</time>
      </trkpt>
      <trkpt lat="48.87648" lon="7.33589">
        <ele>274.5</ele>
        <time>2011-05-22T09:51:58Z</time>
      </trkpt>
      <trkpt lat="48.87656" lon="7.33543">
        <ele>275.2</ele>
        <time>2011-05-22T09:52:05Z</time>
      </trkpt>
      <trkpt lat="48.8766" lon="7.33498">
        <ele>274.8</ele>
        <time>2011-05-22T09:52:11Z</time>
      </trkpt>
      <trkpt lat="48.87667" lon="7.33458">
        <ele>274</ele>
        <time>2011-05-22T09:52:16Z</time>
      </trkpt>
      <trkpt lat="48.87679" lon="7.33419">
        <ele>273</ele>
        <time>2011-05-22T09:52:21Z</time>
      </trkpt>
      <trkpt lat="48.87706" lon="7.33398">
        <ele>274.4</ele>
        <time>2011-05-22T09:52:26Z</time>
      </trkpt>
      <trkpt lat="48.87736" lon="7.3338">
        <ele>276.1</ele>
        <time>2011-05-22T09:52:33Z</time>
      </trkpt>
      <trkpt lat="48.87763" lon="7.33369">
        <ele>279.1</ele>
        <time>2011-05-22T09:52:43Z</time>
      </trkpt>
      <trkpt lat="48.87756" lon="7.33328">
        <ele>277.3</ele>
        <time>2011-05-22T09:52:58Z</time>
      </trkpt>
      <trkpt lat="48.87745" lon="7.33289">
        <ele>275.8</ele>
        <time>2011-05-22T09:53:13Z</time>
      </trkpt>
      <trkpt lat="48.8774" lon="7.33248">
        <ele>275.8</ele>
        <time>2011-05-22T09:53:22Z</time>
      </trkpt>
      <trkpt lat="48.87735" lon="7.33205">
        <ele>277.2</ele>
        <time>2011-05-22T09:53:29Z</time>
      </trkpt>
      <trkpt lat="48.87734" lon="7.33159">
        <ele>279</ele>
        <time>2011-05-22T09:53:36Z</time>
      </trkpt>
      <trkpt lat="48.87742" lon="7.33114">
        <ele>280.9</ele>
        <time>2011-05-22T09:53:42Z</time>
      </trkpt>
      <trkpt lat="48.87751" lon="7.33075">
        <ele>281.5</ele>
        <time>2011-05-22T09:53:49Z</time>
      </trkpt>
      <trkpt lat="48.87759" lon="7.33035">
        <ele>285.6</ele>
        <time>2011-05-22T09:54:01Z</time>
      </trkpt>
      <trkpt lat="48.87769" lon="7.32997">
        <ele>290.1</ele>
        <time>2011-05-22T09:54:15Z</time>
      </trkpt>
      <trkpt lat="48.87778" lon="7.32956">
        <ele>294.7</ele>
        <time>2011-05-22T09:54:29Z</time>
      </trkpt>
      <trkpt lat="48.87786" lon="7.32917">
        <ele>298.2</ele>
        <time>2011-05-22T09:54:43Z</time>
      </trkpt>
      <trkpt lat="48.87793" lon="7.32876">
        <ele>302.8</ele>
        <time>2011-05-22T09:54:59Z</time>
      </trkpt>
      <trkpt lat="48.87791" lon="7.32835">
        <ele>305.8</ele>
        <time>2011-05-22T09:55:14Z</time>
      </trkpt>
      <trkpt lat="48.87791" lon="7.32792">
        <ele>308.9</ele>
        <time>2011-05-22T09:55:28Z</time>
      </trkpt>
      <trkpt lat="48.87793" lon="7.3275">
        <ele>312.3</ele>
        <time>2011-05-22T09:55:41Z</time>
      </trkpt>
      <trkpt lat="48.87787" lon="7.32711">
        <ele>314.8</ele>
        <time>2011-05-22T09:55:56Z</time>
      </trkpt>
      <trkpt lat="48.87778" lon="7.32671">
        <ele>316.4</ele>
        <time>2011-05-22T09:56:11Z</time>
      </trkpt>
      <trkpt lat="48.87767" lon="7.32632">
        <ele>319.4</ele>
        <time>2011-05-22T09:56:26Z</time>
      </trkpt>
      <trkpt lat="48.87753" lon="7.32597">
        <ele>320.6</ele>
        <time>2011-05-22T09:56:41Z</time>
      </trkpt>
      <trkpt lat="48.87732" lon="7.32569">
        <ele>327.3</ele>
        <time>2011-05-22T09:56:55Z</time>
      </trkpt>
      <trkpt lat="48.87705" lon="7.32557">
        <ele>331.1</ele>
        <time>2011-05-22T09:57:09Z</time>
      </trkpt>
      <trkpt lat="48.87681" lon="7.32575">
        <ele>330.2</ele>
        <time>2011-05-22T09:57:19Z</time>
      </trkpt>
      <trkpt lat="48.87685" lon="7.3262">
        <ele>329.9</ele>
        <time>2011-05-22T09:57:30Z</time>
      </trkpt>
      <trkpt lat="48.87694" lon="7.32665">
        <ele>327.9</ele>
        <time>2011-05-22T09:57:39Z</time>
      </trkpt>
      <trkpt lat="48.877" lon="7.32707">
        <ele>326.2</ele>
        <time>2011-05-22T09:57:47Z</time>
      </trkpt>
      <trkpt lat="48.87708" lon="7.32755">
        <ele>322.7</ele>
        <time>2011-05-22T09:57:56Z</time>
      </trkpt>
      <trkpt lat="48.87705" lon="7.32798">
        <ele>320.1</ele>
        <time>2011-05-22T09:58:03Z</time>
      </trkpt>
      <trkpt lat="48.87688" lon="7.32837">
        <ele>322.5</ele>
        <time>2011-05-22T09:58:13Z</time>
      </trkpt>
      <trkpt lat="48.87667" lon="7.32868">
        <ele>326.7</ele>
        <time>2011-05-22T09:58:21Z</time>
      </trkpt>
      <trkpt lat="48.87647" lon="7.329">
        <ele>326.7</ele>
        <time>2011-05-22T09:58:28Z</time>
      </trkpt>
      <trkpt lat="48.8763" lon="7.32936">
        <ele>323.5</ele>
        <time>2011-05-22T09:58:35Z</time>
      </trkpt>
      <trkpt lat="48.87621" lon="7.32976">
        <ele>316.7</ele>
        <time>2011-05-22T09:58:40Z</time>
      </trkpt>
      <trkpt lat="48.87606" lon="7.33012">
        <ele>311.6</ele>
        <time>2011-05-22T09:58:48Z</time>
      </trkpt>
      <trkpt lat="48.87581" lon="7.33">
        <ele>316.6</ele>
        <time>2011-05-22T09:58:55Z</time>
      </trkpt>
      <trkpt lat="48.87554" lon="7.32989">
        <ele>325.4</ele>
        <time>2011-05-22T09:59:04Z</time>
      </trkpt>
      <trkpt lat="48.87527" lon="7.32995">
        <ele>330.5</ele>
        <time>2011-05-22T09:59:14Z</time>
      </trkpt>
      <trkpt lat="48.87509" lon="7.33026">
        <ele>329.2</ele>
        <time>2011-05-22T09:59:22Z</time>
      </trkpt>
      <trkpt lat="48.87518" lon="7.32985">
        <ele>334.8</ele>
        <time>2011-05-22T09:59:47Z</time>
      </trkpt>
      <trkpt lat="48.87541" lon="7.32962">
        <ele>334.1</ele>
        <time>2011-05-22T10:00:00Z</time>
      </trkpt>
      <trkpt lat="48.8757" lon="7.32962">
        <ele>327.7</ele>
        <time>2011-05-22T10:00:13Z</time>
      </trkpt>
      <trkpt lat="48.87594" lon="7.32941">
        <ele>328</ele>
        <time>2011-05-22T10:06:12Z</time>
      </trkpt>
      <trkpt lat="48.87608" lon="7.32905">
        <ele>332.7</ele>
        <time>2011-05-22T10:06:28Z</time>
      </trkpt>
      <trkpt lat="48.87626" lon="7.32872">
        <ele>334.6</ele>
        <time>2011-05-22T10:06:49Z</time>
      </trkpt>
      <trkpt lat="48.87641" lon="7.32839">
        <ele>336.1</ele>
        <time>2011-05-22T10:07:07Z</time>
      </trkpt>
      <trkpt lat="48.87658" lon="7.32804">
        <ele>336.6</ele>
        <time>2011-05-22T10:07:25Z</time>
      </trkpt>
      <trkpt lat="48.87661" lon="7.3276">
        <ele>341.1</ele>
        <time>2011-05-22T10:07:42Z</time>
      </trkpt>
      <trkpt lat="48.87651" lon="7.3272">
        <ele>343.5</ele>
        <time>2011-05-22T10:07:55Z</time>
      </trkpt>
      <trkpt lat="48.87643" lon="7.3268">
        <ele>344.8</ele>
        <time>2011-05-22T10:08:11Z</time>
      </trkpt>
      <trkpt lat="48.87632" lon="7.32642">
        <ele>346.3</ele>
        <time>2011-05-22T10:08:26Z</time>
      </trkpt>
      <trkpt lat="48.87623" lon="7.32603">
        <ele>346.9</ele>
        <time>2011-05-22T10:08:41Z</time>
      </trkpt>
      <trkpt lat="48.87616" lon="7.32562">
        <ele>347.8</ele>
        <time>2011-05-22T10:08:55Z</time>
      </trkpt>
      <trkpt lat="48.87611" lon="7.3252">
        <ele>348.9</ele>
        <time>2011-05-22T10:09:12Z</time>
      </trkpt>
      <trkpt lat="48.87613" lon="7.32477">
        <ele>350.2</ele>
        <time>2011-05-22T10:09:27Z</time>
      </trkpt>
      <trkpt lat="48.87618" lon="7.32437">
        <ele>352.6</ele>
        <time>2011-05-22T10:09:42Z</time>
      </trkpt>
      <trkpt lat="48.87634" lon="7.32402">
        <ele>353.2</ele>
        <time>2011-05-22T10:10:00Z</time>
      </trkpt>
      <trkpt lat="48.87653" lon="7.32374">
        <ele>353.3</ele>
        <time>2011-05-22T10:10:16Z</time>
      </trkpt>
      <trkpt lat="48.87674" lon="7.32348">
        <ele>355.3</ele>
        <time>2011-05-22T10:10:40Z</time>
      </trkpt>
      <trkpt lat="48.87701" lon="7.32357">
        <ele>357</ele>
        <time>2011-05-22T10:10:56Z</time>
      </trkpt>
      <trkpt lat="48.87717" lon="7.32394">
        <ele>356.2</ele>
        <time>2011-05-22T10:11:15Z</time>
      </trkpt>
      <trkpt lat="48.87737" lon="7.32421">
        <ele>356.6</ele>
        <time>2011-05-22T10:11:29Z</time>
      </trkpt>
      <trkpt lat="48.87762" lon="7.32442">
        <ele>356.4</ele>
        <time>2011-05-22T10:11:36Z</time>
      </trkpt>
      <trkpt lat="48.87786" lon="7.32462">
        <ele>357.1</ele>
        <time>2011-05-22T10:11:50Z</time>
      </trkpt>
      <trkpt lat="48.87808" lon="7.32488">
        <ele>358.1</ele>
        <time>2011-05-22T10:12:01Z</time>
      </trkpt>
      <trkpt lat="48.87842" lon="7.32505">
        <ele>361.9</ele>
        <time>2011-05-22T10:12:07Z</time>
      </trkpt>
      <trkpt lat="48.87869" lon="7.32513">
        <ele>363.1</ele>
        <time>2011-05-22T10:12:09Z</time>
      </trkpt>
      <trkpt lat="48.87896" lon="7.32535">
        <ele>364.8</ele>
        <time>2011-05-22T10:12:14Z</time>
      </trkpt>
      <trkpt lat="48.87922" lon="7.32555">
        <ele>367.7</ele>
        <time>2011-05-22T10:12:23Z</time>
      </trkpt>
      <trkpt lat="48.87947" lon="7.32573">
        <ele>368.6</ele>
        <time>2011-05-22T10:12:35Z</time>
      </trkpt>
      <trkpt lat="48.87969" lon="7.32596">
        <ele>370.5</ele>
        <time>2011-05-22T10:12:47Z</time>
      </trkpt>
      <trkpt lat="48.87988" lon="7.32629">
        <ele>373.8</ele>
        <time>2011-05-22T10:12:58Z</time>
      </trkpt>
      <trkpt lat="48.88017" lon="7.32659">
        <ele>376.7</ele>
        <time>2011-05-22T10:13:04Z</time>
      </trkpt>
      <trkpt lat="48.88048" lon="7.32677">
        <ele>377</ele>
        <time>2011-05-22T10:13:07Z</time>
      </trkpt>
      <trkpt lat="48.88072" lon="7.32705">
        <ele>378.4</ele>
        <time>2011-05-22T10:13:10Z</time>
      </trkpt>
      <trkpt lat="48.88099" lon="7.32745">
        <ele>378.8</ele>
        <time>2011-05-22T10:13:13Z</time>
      </trkpt>
      <trkpt lat="48.88119" lon="7.32776">
        <ele>377.7</ele>
        <time>2011-05-22T10:13:16Z</time>
      </trkpt>
      <trkpt lat="48.88143" lon="7.32797">
        <ele>375.5</ele>
        <time>2011-05-22T10:13:18Z</time>
      </trkpt>
      <trkpt lat="48.88168" lon="7.32822">
        <ele>373.6</ele>
        <time>2011-05-22T10:13:21Z</time>
      </trkpt>
      <trkpt lat="48.88191" lon="7.32845">
        <ele>369.3</ele>
        <time>2011-05-22T10:13:25Z</time>
      </trkpt>
      <trkpt lat="48.88215" lon="7.32828">
        <ele>361.1</ele>
        <time>2011-05-22T10:13:37Z</time>
      </trkpt>
      <trkpt lat="48.8821" lon="7.3278">
        <ele>358.3</ele>
        <time>2011-05-22T10:13:43Z</time>
      </trkpt>
      <trkpt lat="48.882" lon="7.3274">
        <ele>357.2</ele>
        <time>2011-05-22T10:13:47Z</time>
      </trkpt>
      <trkpt lat="48.88186" lon="7.32702">
        <ele>357.1</ele>
        <time>2011-05-22T10:13:51Z</time>
      </trkpt>
      <trkpt lat="48.88171" lon="7.32667">
        <ele>356.9</ele>
        <time>2011-05-22T10:13:54Z</time>
      </trkpt>
      <trkpt lat="48.88162" lon="7.32627">
        <ele>353.9</ele>
        <time>2011-05-22T10:13:57Z</time>
      </trkpt>
      <trkpt lat="48.88146" lon="7.32576">
        <ele>350.5</ele>
        <time>2011-05-22T10:14:01Z</time>
      </trkpt>
      <trkpt lat="48.88134" lon="7.32539">
        <ele>348.8</ele>
        <time>2011-05-22T10:14:04Z</time>
      </trkpt>
      <trkpt lat="48.88112" lon="7.32499">
        <ele>347.7</ele>
        <time>2011-05-22T10:14:07Z</time>
      </trkpt>
      <trkpt lat="48.881" lon="7.32461">
        <ele>344.4</ele>
        <time>2011-05-22T10:14:10Z</time>
      </trkpt>
      <trkpt lat="48.881" lon="7.32409">
        <ele>337.7</ele>
        <time>2011-05-22T10:14:14Z</time>
      </trkpt>
      <trkpt lat="48.8813" lon="7.32398">
        <ele>333.9</ele>
        <time>2011-05-22T10:14:20Z</time>
      </trkpt>
      <trkpt lat="48.88158" lon="7.32402">
        <ele>332.1</ele>
        <time>2011-05-22T10:14:24Z</time>
      </trkpt>
      <trkpt lat="48.88186" lon="7.32415">
        <ele>330.3</ele>
        <time>2011-05-22T10:14:28Z</time>
      </trkpt>
      <trkpt lat="48.8821" lon="7.32435">
        <ele>328.3</ele>
        <time>2011-05-22T10:14:32Z</time>
      </trkpt>
      <trkpt lat="48.88225" lon="7.32471">
        <ele>328</ele>
        <time>2011-05-22T10:14:36Z</time>
      </trkpt>
      <trkpt lat="48.88228" lon="7.3252">
        <ele>330.6</ele>
        <time>2011-05-22T10:14:41Z</time>
      </trkpt>
      <trkpt lat="48.88249" lon="7.32564">
        <ele>329.8</ele>
        <time>2011-05-22T10:14:45Z</time>
      </trkpt>
      <trkpt lat="48.88268" lon="7.326">
        <ele>328.1</ele>
        <time>2011-05-22T10:14:48Z</time>
      </trkpt>
      <trkpt lat="48.88287" lon="7.32639">
        <ele>326</ele>
        <time>2011-05-22T10:14:51Z</time>
      </trkpt>
      <trkpt lat="48.88295" lon="7.32683">
        <ele>326.7</ele>
        <time>2011-05-22T10:14:54Z</time>
      </trkpt>
      <trkpt lat="48.88297" lon="7.32726">
        <ele>328.4</ele>
        <time>2011-05-22T10:14:57Z</time>
      </trkpt>
      <trkpt lat="48.88318" lon="7.32762">
        <ele>325.2</ele>
        <time>2011-05-22T10:15:04Z</time>
      </trkpt>
      <trkpt lat="48.88351" lon="7.32748">
        <ele>321.4</ele>
        <time>2011-05-22T10:15:07Z</time>
      </trkpt>
      <trkpt lat="48.88372" lon="7.32723">
        <ele>323.3</ele>
        <time>2011-05-22T10:15:10Z</time>
      </trkpt>
      <trkpt lat="48.88387" lon="7.32683">
        <ele>323.2</ele>
        <time>2011-05-22T10:15:14Z</time>
      </trkpt>
      <trkpt lat="48.88396" lon="7.32644">
        <ele>322</ele>
        <time>2011-05-22T10:15:18Z</time>
      </trkpt>
      <trkpt lat="48.88402" lon="7.32602">
        <ele>319.9</ele>
        <time>2011-05-22T10:15:21Z</time>
      </trkpt>
      <trkpt lat="48.88408" lon="7.3255">
        <ele>317.1</ele>
        <time>2011-05-22T10:15:25Z</time>
      </trkpt>
      <trkpt lat="48.88408" lon="7.325">
        <ele>314.1</ele>
        <time>2011-05-22T10:15:29Z</time>
      </trkpt>
      <trkpt lat="48.88407" lon="7.32459">
        <ele>313.9</ele>
        <time>2011-05-22T10:15:33Z</time>
      </trkpt>
      <trkpt lat="48.88396" lon="7.32413">
        <ele>312.2</ele>
        <time>2011-05-22T10:15:37Z</time>
      </trkpt>
      <trkpt lat="48.88388" lon="7.32368">
        <ele>310.5</ele>
        <time>2011-05-22T10:15:41Z</time>
      </trkpt>
      <trkpt lat="48.88385" lon="7.32324">
        <ele>309.1</ele>
        <time>2011-05-22T10:15:45Z</time>
      </trkpt>
      <trkpt lat="48.88374" lon="7.32279">
        <ele>305.2</ele>
        <time>2011-05-22T10:15:49Z</time>
      </trkpt>
      <trkpt lat="48.88368" lon="7.32237">
        <ele>301.8</ele>
        <time>2011-05-22T10:15:52Z</time>
      </trkpt>
      <trkpt lat="48.88365" lon="7.32194">
        <ele>297.8</ele>
        <time>2011-05-22T10:15:55Z</time>
      </trkpt>
      <trkpt lat="48.88376" lon="7.32153">
        <ele>296.1</ele>
        <time>2011-05-22T10:15:58Z</time>
      </trkpt>
      <trkpt lat="48.88396" lon="7.32115">
        <ele>294.3</ele>
        <time>2011-05-22T10:16:02Z</time>
      </trkpt>
      <trkpt lat="48.8842" lon="7.3209">
        <ele>292</ele>
        <time>2011-05-22T10:16:06Z</time>
      </trkpt>
      <trkpt lat="48.88447" lon="7.32083">
        <ele>290.6</ele>
        <time>2011-05-22T10:16:09Z</time>
      </trkpt>
      <trkpt lat="48.88479" lon="7.32076">
        <ele>289.9</ele>
        <time>2011-05-22T10:16:13Z</time>
      </trkpt>
      <trkpt lat="48.88505" lon="7.32088">
        <ele>291.2</ele>
        <time>2011-05-22T10:16:17Z</time>
      </trkpt>
      <trkpt lat="48.88531" lon="7.32061">
        <ele>290.6</ele>
        <time>2011-05-22T10:16:22Z</time>
      </trkpt>
      <trkpt lat="48.88541" lon="7.32019">
        <ele>287.9</ele>
        <time>2011-05-22T10:16:26Z</time>
      </trkpt>
      <trkpt lat="48.88553" lon="7.31968">
        <ele>285.6</ele>
        <time>2011-05-22T10:16:30Z</time>
      </trkpt>
      <trkpt lat="48.88566" lon="7.3192">
        <ele>283</ele>
        <time>2011-05-22T10:16:34Z</time>
      </trkpt>
      <trkpt lat="48.88565" lon="7.31875">
        <ele>284.6</ele>
        <time>2011-05-22T10:16:40Z</time>
      </trkpt>
      <trkpt lat="48.88549" lon="7.31834">
        <ele>285.8</ele>
        <time>2011-05-22T10:16:46Z</time>
      </trkpt>
      <trkpt lat="48.88539" lon="7.31792">
        <ele>285.7</ele>
        <time>2011-05-22T10:16:51Z</time>
      </trkpt>
      <trkpt lat="48.88532" lon="7.31745">
        <ele>284.9</ele>
        <time>2011-05-22T10:16:56Z</time>
      </trkpt>
      <trkpt lat="48.88526" lon="7.31698">
        <ele>284.1</ele>
        <time>2011-05-22T10:17:01Z</time>
      </trkpt>
      <trkpt lat="48.88519" lon="7.31656">
        <ele>282.5</ele>
        <time>2011-05-22T10:17:06Z</time>
      </trkpt>
      <trkpt lat="48.88512" lon="7.3161">
        <ele>280.3</ele>
        <time>2011-05-22T10:17:12Z</time>
      </trkpt>
      <trkpt lat="48.88504" lon="7.31571">
        <ele>277.8</ele>
        <time>2011-05-22T10:17:17Z</time>
      </trkpt>
      <trkpt lat="48.88498" lon="7.3153">
        <ele>277.3</ele>
        <time>2011-05-22T10:17:22Z</time>
      </trkpt>
      <trkpt lat="48.88495" lon="7.31482">
        <ele>278.6</ele>
        <time>2011-05-22T10:17:28Z</time>
      </trkpt>
      <trkpt lat="48.88491" lon="7.31439">
        <ele>279.8</ele>
        <time>2011-05-22T10:17:33Z</time>
      </trkpt>
      <trkpt lat="48.88491" lon="7.31396">
        <ele>280.7</ele>
        <time>2011-05-22T10:17:38Z</time>
      </trkpt>
      <trkpt lat="48.88498" lon="7.31351">
        <ele>281.8</ele>
        <time>2011-05-22T10:17:44Z</time>
      </trkpt>
      <trkpt lat="48.88496" lon="7.31309">
        <ele>284.2</ele>
        <time>2011-05-22T10:17:51Z</time>
      </trkpt>
      <trkpt lat="48.88467" lon="7.31305">
        <ele>282.2</ele>
        <time>2011-05-22T10:17:57Z</time>
      </trkpt>
      <trkpt lat="48.88442" lon="7.3132">
        <ele>278</ele>
        <time>2011-05-22T10:18:03Z</time>
      </trkpt>
      <trkpt lat="48.88416" lon="7.31338">
        <ele>273.6</ele>
        <time>2011-05-22T10:18:09Z</time>
      </trkpt>
      <trkpt lat="48.88385" lon="7.31323">
        <ele>272.6</ele>
        <time>2011-05-22T10:18:15Z</time>
      </trkpt>
      <trkpt lat="48.88356" lon="7.31298">
        <ele>271.5</ele>
        <time>2011-05-22T10:18:20Z</time>
      </trkpt>
      <trkpt lat="48.88335" lon="7.31265">
        <ele>269.9</ele>
        <time>2011-05-22T10:18:24Z</time>
      </trkpt>
      <trkpt lat="48.88315" lon="7.31231">
        <ele>270.6</ele>
        <time>2011-05-22T10:18:28Z</time>
      </trkpt>
      <trkpt lat="48.88299" lon="7.31196">
        <ele>271.2</ele>
        <time>2011-05-22T10:18:32Z</time>
      </trkpt>
      <trkpt lat="48.88281" lon="7.31162">
        <ele>270.6</ele>
        <time>2011-05-22T10:18:37Z</time>
      </trkpt>
      <trkpt lat="48.88264" lon="7.31122">
        <ele>270.4</ele>
        <time>2011-05-22T10:18:43Z</time>
      </trkpt>
      <trkpt lat="48.88253" lon="7.31084">
        <ele>270.4</ele>
        <time>2011-05-22T10:18:48Z</time>
      </trkpt>
      <trkpt lat="48.88244" lon="7.3104">
        <ele>272.1</ele>
        <time>2011-05-22T10:18:53Z</time>
      </trkpt>
      <trkpt lat="48.88232" lon="7.30998">
        <ele>273.4</ele>
        <time>2011-05-22T10:18:58Z</time>
      </trkpt>
      <trkpt lat="48.88221" lon="7.30958">
        <ele>273.4</ele>
        <time>2011-05-22T10:19:03Z</time>
      </trkpt>
      <trkpt lat="48.88208" lon="7.30919">
        <ele>272.4</ele>
        <time>2011-05-22T10:19:08Z</time>
      </trkpt>
      <trkpt lat="48.88197" lon="7.3088">
        <ele>270.5</ele>
        <time>2011-05-22T10:19:13Z</time>
      </trkpt>
      <trkpt lat="48.88191" lon="7.30836">
        <ele>268.8</ele>
        <time>2011-05-22T10:19:19Z</time>
      </trkpt>
      <trkpt lat="48.88191" lon="7.3079">
        <ele>269.2</ele>
        <time>2011-05-22T10:19:25Z</time>
      </trkpt>
      <trkpt lat="48.88195" lon="7.30748">
        <ele>270.5</ele>
        <time>2011-05-22T10:19:31Z</time>
      </trkpt>
      <trkpt lat="48.88202" lon="7.30706">
        <ele>272.6</ele>
        <time>2011-05-22T10:19:36Z</time>
      </trkpt>
      <trkpt lat="48.88208" lon="7.30666">
        <ele>275</ele>
        <time>2011-05-22T10:19:41Z</time>
      </trkpt>
      <trkpt lat="48.8821" lon="7.30624">
        <ele>275.4</ele>
        <time>2011-05-22T10:19:46Z</time>
      </trkpt>
      <trkpt lat="48.88211" lon="7.30583">
        <ele>275.6</ele>
        <time>2011-05-22T10:19:51Z</time>
      </trkpt>
      <trkpt lat="48.88215" lon="7.30537">
        <ele>275.3</ele>
        <time>2011-05-22T10:19:56Z</time>
      </trkpt>
      <trkpt lat="48.88219" lon="7.30488">
        <ele>274.8</ele>
        <time>2011-05-22T10:20:01Z</time>
      </trkpt>
      <trkpt lat="48.88225" lon="7.30441">
        <ele>274.3</ele>
        <time>2011-05-22T10:20:06Z</time>
      </trkpt>
      <trkpt lat="48.88233" lon="7.30392">
        <ele>272.8</ele>
        <time>2011-05-22T10:20:11Z</time>
      </trkpt>
      <trkpt lat="48.88245" lon="7.30345">
        <ele>270.7</ele>
        <time>2011-05-22T10:20:15Z</time>
      </trkpt>
      <trkpt lat="48.88255" lon="7.30302">
        <ele>271.3</ele>
        <time>2011-05-22T10:20:19Z</time>
      </trkpt>
      <trkpt lat="48.88256" lon="7.30259">
        <ele>271.9</ele>
        <time>2011-05-22T10:20:23Z</time>
      </trkpt>
      <trkpt lat="48.88247" lon="7.30216">
        <ele>274.4</ele>
        <time>2011-05-22T10:20:27Z</time>
      </trkpt>
      <trkpt lat="48.88234" lon="7.30171">
        <ele>277.3</ele>
        <time>2011-05-22T10:20:32Z</time>
      </trkpt>
      <trkpt lat="48.88222" lon="7.30128">
        <ele>278.9</ele>
        <time>2011-05-22T10:20:37Z</time>
      </trkpt>
      <trkpt lat="48.8821" lon="7.30085">
        <ele>280.1</ele>
        <time>2011-05-22T10:20:42Z</time>
      </trkpt>
      <trkpt lat="48.88197" lon="7.30041">
        <ele>279</ele>
        <time>2011-05-22T10:20:47Z</time>
      </trkpt>
      <trkpt lat="48.88186" lon="7.29998">
        <ele>277.4</ele>
        <time>2011-05-22T10:20:52Z</time>
      </trkpt>
      <trkpt lat="48.88175" lon="7.29956">
        <ele>276.1</ele>
        <time>2011-05-22T10:20:57Z</time>
      </trkpt>
      <trkpt lat="48.88165" lon="7.29914">
        <ele>274.9</ele>
        <time>2011-05-22T10:21:02Z</time>
      </trkpt>
      <trkpt lat="48.88157" lon="7.29873">
        <ele>273.1</ele>
        <time>2011-05-22T10:21:07Z</time>
      </trkpt>
      <trkpt lat="48.88153" lon="7.29832">
        <ele>271.3</ele>
        <time>2011-05-22T10:21:11Z</time>
      </trkpt>
      <trkpt lat="48.8815" lon="7.2979">
        <ele>270.6</ele>
        <time>2011-05-22T10:21:15Z</time>
      </trkpt>
      <trkpt lat="48.8815" lon="7.29741">
        <ele>269.9</ele>
        <time>2011-05-22T10:21:20Z</time>
      </trkpt>
      <trkpt lat="48.88163" lon="7.29696">
        <ele>266.6</ele>
        <time>2011-05-22T10:21:25Z</time>
      </trkpt>
      <trkpt lat="48.88182" lon="7.29663">
        <ele>267.6</ele>
        <time>2011-05-22T10:21:29Z</time>
      </trkpt>
      <trkpt lat="48.88203" lon="7.29634">
        <ele>271.2</ele>
        <time>2011-05-22T10:21:33Z</time>
      </trkpt>
      <trkpt lat="48.88226" lon="7.29608">
        <ele>271.5</ele>
        <time>2011-05-22T10:21:37Z</time>
      </trkpt>
      <trkpt lat="48.88251" lon="7.29585">
        <ele>268.5</ele>
        <time>2011-05-22T10:21:41Z</time>
      </trkpt>
      <trkpt lat="48.88273" lon="7.2956">
        <ele>270.6</ele>
        <time>2011-05-22T10:21:45Z</time>
      </trkpt>
      <trkpt lat="48.88298" lon="7.29527">
        <ele>271.5</ele>
        <time>2011-05-22T10:21:50Z</time>
      </trkpt>
      <trkpt lat="48.88297" lon="7.29485">
        <ele>268.8</ele>
        <time>2011-05-22T10:21:57Z</time>
      </trkpt>
      <trkpt lat="48.88275" lon="7.29447">
        <ele>270.3</ele>
        <time>2011-05-22T10:22:02Z</time>
      </trkpt>
      <trkpt lat="48.8828" lon="7.29402">
        <ele>273.4</ele>
        <time>2011-05-22T10:22:08Z</time>
      </trkpt>
      <trkpt lat="48.88292" lon="7.29362">
        <ele>274.4</ele>
        <time>2011-05-22T10:22:13Z</time>
      </trkpt>
      <trkpt lat="48.88303" lon="7.29322">
        <ele>273.9</ele>
        <time>2011-05-22T10:22:18Z</time>
      </trkpt>
      <trkpt lat="48.88314" lon="7.29282">
        <ele>273.1</ele>
        <time>2011-05-22T10:22:23Z</time>
      </trkpt>
      <trkpt lat="48.88327" lon="7.29244">
        <ele>271.6</ele>
        <time>2011-05-22T10:22:28Z</time>
      </trkpt>
      <trkpt lat="48.88342" lon="7.29211">
        <ele>271.9</ele>
        <time>2011-05-22T10:22:33Z</time>
      </trkpt>
      <trkpt lat="48.88366" lon="7.29186">
        <ele>270.2</ele>
        <time>2011-05-22T10:22:38Z</time>
      </trkpt>
      <trkpt lat="48.8839" lon="7.29162">
        <ele>266.4</ele>
        <time>2011-05-22T10:22:44Z</time>
      </trkpt>
      <trkpt lat="48.88384" lon="7.2912">
        <ele>268.8</ele>
        <time>2011-05-22T10:22:50Z</time>
      </trkpt>
      <trkpt lat="48.88363" lon="7.29087">
        <ele>273.4</ele>
        <time>2011-05-22T10:22:56Z</time>
      </trkpt>
      <trkpt lat="48.88341" lon="7.29054">
        <ele>276.2</ele>
        <time>2011-05-22T10:23:02Z</time>
      </trkpt>
      <trkpt lat="48.88318" lon="7.29022">
        <ele>277.9</ele>
        <time>2011-05-22T10:23:08Z</time>
      </trkpt>
      <trkpt lat="48.88295" lon="7.29">
        <ele>280.1</ele>
        <time>2011-05-22T10:23:13Z</time>
      </trkpt>
      <trkpt lat="48.88271" lon="7.28981">
        <ele>282.4</ele>
        <time>2011-05-22T10:23:18Z</time>
      </trkpt>
      <trkpt lat="48.8825" lon="7.28947">
        <ele>280.8</ele>
        <time>2011-05-22T10:23:24Z</time>
      </trkpt>
      <trkpt lat="48.88228" lon="7.28922">
        <ele>281.7</ele>
        <time>2011-05-22T10:23:29Z</time>
      </trkpt>
      <trkpt lat="48.88213" lon="7.28887">
        <ele>282.6</ele>
        <time>2011-05-22T10:23:35Z</time>
      </trkpt>
      <trkpt lat="48.88238" lon="7.28872">
        <ele>280.5</ele>
        <time>2011-05-22T10:23:42Z</time>
      </trkpt>
      <trkpt lat="48.88267" lon="7.28893">
        <ele>280.1</ele>
        <time>2011-05-22T10:23:48Z</time>
      </trkpt>
      <trkpt lat="48.88292" lon="7.28908">
        <ele>280.3</ele>
        <time>2011-05-22T10:23:53Z</time>
      </trkpt>
      <trkpt lat="48.88312" lon="7.28939">
        <ele>279.3</ele>
        <time>2011-05-22T10:23:58Z</time>
      </trkpt>
      <trkpt lat="48.88339" lon="7.28964">
        <ele>278</ele>
        <time>2011-05-22T10:24:03Z</time>
      </trkpt>
      <trkpt lat="48.88362" lon="7.28985">
        <ele>280</ele>
        <time>2011-05-22T10:24:09Z</time>
      </trkpt>
      <trkpt lat="48.88387" lon="7.29009">
        <ele>280.4</ele>
        <time>2011-05-22T10:24:15Z</time>
      </trkpt>
      <trkpt lat="48.88414" lon="7.29027">
        <ele>279</ele>
        <time>2011-05-22T10:24:21Z</time>
      </trkpt>
      <trkpt lat="48.88433" lon="7.29058">
        <ele>271.2</ele>
        <time>2011-05-22T10:24:28Z</time>
      </trkpt>
      <trkpt lat="48.8846" lon="7.29065">
        <ele>269.5</ele>
        <time>2011-05-22T10:24:36Z</time>
      </trkpt>
      <trkpt lat="48.88488" lon="7.29049">
        <ele>273.3</ele>
        <time>2011-05-22T10:24:43Z</time>
      </trkpt>
      <trkpt lat="48.88516" lon="7.29047">
        <ele>271.7</ele>
        <time>2011-05-22T10:24:48Z</time>
      </trkpt>
      <trkpt lat="48.88544" lon="7.29037">
        <ele>269.4</ele>
        <time>2011-05-22T10:24:54Z</time>
      </trkpt>
      <trkpt lat="48.88569" lon="7.29014">
        <ele>268</ele>
        <time>2011-05-22T10:25:01Z</time>
      </trkpt>
      <trkpt lat="48.88596" lon="7.29003">
        <ele>264.9</ele>
        <time>2011-05-22T10:25:06Z</time>
      </trkpt>
      <trkpt lat="48.88621" lon="7.28987">
        <ele>266</ele>
        <time>2011-05-22T10:25:11Z</time>
      </trkpt>
      <trkpt lat="48.8865" lon="7.28976">
        <ele>265</ele>
        <time>2011-05-22T10:25:17Z</time>
      </trkpt>
      <trkpt lat="48.8868" lon="7.28964">
        <ele>265.4</ele>
        <time>2011-05-22T10:25:24Z</time>
      </trkpt>
      <trkpt lat="48.88706" lon="7.28951">
        <ele>267.2</ele>
        <time>2011-05-22T10:25:29Z</time>
      </trkpt>
      <trkpt lat="48.88736" lon="7.28944">
        <ele>267.2</ele>
        <time>2011-05-22T10:25:34Z</time>
      </trkpt>
      <trkpt lat="48.88763" lon="7.28928">
        <ele>266.8</ele>
        <time>2011-05-22T10:25:39Z</time>
      </trkpt>
      <trkpt lat="48.88789" lon="7.28907">
        <ele>266.4</ele>
        <time>2011-05-22T10:25:44Z</time>
      </trkpt>
      <trkpt lat="48.88816" lon="7.28883">
        <ele>267.3</ele>
        <time>2011-05-22T10:25:49Z</time>
      </trkpt>
      <trkpt lat="48.88843" lon="7.28859">
        <ele>267.4</ele>
        <time>2011-05-22T10:25:54Z</time>
      </trkpt>
      <trkpt lat="48.8887" lon="7.28844">
        <ele>266.5</ele>
        <time>2011-05-22T10:25:59Z</time>
      </trkpt>
      <trkpt lat="48.88898" lon="7.28826">
        <ele>266.2</ele>
        <time>2011-05-22T10:26:06Z</time>
      </trkpt>
      <trkpt lat="48.88927" lon="7.28819">
        <ele>265.1</ele>
        <time>2011-05-22T10:26:13Z</time>
      </trkpt>
      <trkpt lat="48.88959" lon="7.28814">
        <ele>262.7</ele>
        <time>2011-05-22T10:26:18Z</time>
      </trkpt>
      <trkpt lat="48.88991" lon="7.28808">
        <ele>260.6</ele>
        <time>2011-05-22T10:26:24Z</time>
      </trkpt>
      <trkpt lat="48.89024" lon="7.28808">
        <ele>258.7</ele>
        <time>2011-05-22T10:26:29Z</time>
      </trkpt>
      <trkpt lat="48.89058" lon="7.28803">
        <ele>257.8</ele>
        <time>2011-05-22T10:26:33Z</time>
      </trkpt>
      <trkpt lat="48.89092" lon="7.28801">
        <ele>256.7</ele>
        <time>2011-05-22T10:26:38Z</time>
      </trkpt>
      <trkpt lat="48.89117" lon="7.28783">
        <ele>258.1</ele>
        <time>2011-05-22T10:26:42Z</time>
      </trkpt>
      <trkpt lat="48.89131" lon="7.28742">
        <ele>262</ele>
        <time>2011-05-22T10:26:47Z</time>
      </trkpt>
      <trkpt lat="48.8916" lon="7.28747">
        <ele>261.4</ele>
        <time>2011-05-22T10:26:53Z</time>
      </trkpt>
      <trkpt lat="48.89187" lon="7.2876">
        <ele>262.8</ele>
        <time>2011-05-22T10:26:59Z</time>
      </trkpt>
      <trkpt lat="48.89216" lon="7.28766">
        <ele>266</ele>
        <time>2011-05-22T10:27:07Z</time>
      </trkpt>
      <trkpt lat="48.89246" lon="7.28778">
        <ele>268.5</ele>
        <time>2011-05-22T10:27:13Z</time>
      </trkpt>
      <trkpt lat="48.89272" lon="7.28795">
        <ele>269</ele>
        <time>2011-05-22T10:27:18Z</time>
      </trkpt>
      <trkpt lat="48.89298" lon="7.28814">
        <ele>267.9</ele>
        <time>2011-05-22T10:27:24Z</time>
      </trkpt>
      <trkpt lat="48.89327" lon="7.28833">
        <ele>265.8</ele>
        <time>2011-05-22T10:27:30Z</time>
      </trkpt>
      <trkpt lat="48.89351" lon="7.2886">
        <ele>264.8</ele>
        <time>2011-05-22T10:27:37Z</time>
      </trkpt>
      <trkpt lat="48.89359" lon="7.289">
        <ele>260.2</ele>
        <time>2011-05-22T10:27:42Z</time>
      </trkpt>
      <trkpt lat="48.89339" lon="7.28933">
        <ele>260</ele>
        <time>2011-05-22T10:27:48Z</time>
      </trkpt>
      <trkpt lat="48.89351" lon="7.2897">
        <ele>263.5</ele>
        <time>2011-05-22T10:33:16Z</time>
      </trkpt>
      <trkpt lat="48.89381" lon="7.28983">
        <ele>261.8</ele>
        <time>2011-05-22T10:33:24Z</time>
      </trkpt>
      <trkpt lat="48.89408" lon="7.28994">
        <ele>259.1</ele>
        <time>2011-05-22T10:33:32Z</time>
      </trkpt>
      <trkpt lat="48.89432" lon="7.29018">
        <ele>258.8</ele>
        <time>2011-05-22T10:33:39Z</time>
      </trkpt>
      <trkpt lat="48.89454" lon="7.29048">
        <ele>259.2</ele>
        <time>2011-05-22T10:33:45Z</time>
      </trkpt>
      <trkpt lat="48.89483" lon="7.29057">
        <ele>255.6</ele>
        <time>2011-05-22T10:33:51Z</time>
      </trkpt>
      <trkpt lat="48.89509" lon="7.2906">
        <ele>254.5</ele>
        <time>2011-05-22T10:33:57Z</time>
      </trkpt>
      <trkpt lat="48.89534" lon="7.29043">
        <ele>257.2</ele>
        <time>2011-05-22T10:34:36Z</time>
      </trkpt>
      <trkpt lat="48.89558" lon="7.29017">
        <ele>257.6</ele>
        <time>2011-05-22T10:34:51Z</time>
      </trkpt>
      <trkpt lat="48.8958" lon="7.28991">
        <ele>257</ele>
        <time>2011-05-22T10:35:08Z</time>
      </trkpt>
      <trkpt lat="48.89602" lon="7.28968">
        <ele>257.2</ele>
        <time>2011-05-22T10:35:22Z</time>
      </trkpt>
      <trkpt lat="48.89629" lon="7.28962">
        <ele>259</ele>
        <time>2011-05-22T10:35:34Z</time>
      </trkpt>
      <trkpt lat="48.89656" lon="7.28953">
        <ele>260.3</ele>
        <time>2011-05-22T10:35:47Z</time>
      </trkpt>
      <trkpt lat="48.89683" lon="7.28956">
        <ele>261.8</ele>
        <time>2011-05-22T10:35:59Z</time>
      </trkpt>
      <trkpt lat="48.89708" lon="7.2897">
        <ele>263.4</ele>
        <time>2011-05-22T10:36:08Z</time>
      </trkpt>
      <trkpt lat="48.89731" lon="7.28995">
        <ele>265.3</ele>
        <time>2011-05-22T10:36:20Z</time>
      </trkpt>
      <trkpt lat="48.89748" lon="7.29028">
        <ele>268.8</ele>
        <time>2011-05-22T10:36:34Z</time>
      </trkpt>
      <trkpt lat="48.89759" lon="7.29066">
        <ele>272.6</ele>
        <time>2011-05-22T10:36:47Z</time>
      </trkpt>
      <trkpt lat="48.89769" lon="7.29106">
        <ele>276</ele>
        <time>2011-05-22T10:37:02Z</time>
      </trkpt>
      <trkpt lat="48.89776" lon="7.29148">
        <ele>279.4</ele>
        <time>2011-05-22T10:37:16Z</time>
      </trkpt>
      <trkpt lat="48.89782" lon="7.29189">
        <ele>283.3</ele>
        <time>2011-05-22T10:37:30Z</time>
      </trkpt>
      <trkpt lat="48.8979" lon="7.29228">
        <ele>287.1</ele>
        <time>2011-05-22T10:37:45Z</time>
      </trkpt>
      <trkpt lat="48.89794" lon="7.29268">
        <ele>290.8</ele>
        <time>2011-05-22T10:38:00Z</time>
      </trkpt>
      <trkpt lat="48.89797" lon="7.29306">
        <ele>294</ele>
        <time>2011-05-22T10:38:13Z</time>
      </trkpt>
      <trkpt lat="48.89799" lon="7.29348">
        <ele>297.9</ele>
        <time>2011-05-22T10:38:26Z</time>
      </trkpt>
      <trkpt lat="48.89798" lon="7.29388">
        <ele>302.6</ele>
        <time>2011-05-22T10:38:38Z</time>
      </trkpt>
      <trkpt lat="48.89799" lon="7.29428">
        <ele>306.3</ele>
        <time>2011-05-22T10:38:53Z</time>
      </trkpt>
      <trkpt lat="48.89803" lon="7.29469">
        <ele>307.6</ele>
        <time>2011-05-22T10:39:07Z</time>
      </trkpt>
      <trkpt lat="48.89805" lon="7.2951">
        <ele>309.7</ele>
        <time>2011-05-22T10:39:22Z</time>
      </trkpt>
      <trkpt lat="48.89806" lon="7.29551">
        <ele>313.1</ele>
        <time>2011-05-22T10:39:36Z</time>
      </trkpt>
      <trkpt lat="48.89802" lon="7.29593">
        <ele>317</ele>
        <time>2011-05-22T10:39:49Z</time>
      </trkpt>
      <trkpt lat="48.89797" lon="7.29633">
        <ele>319.3</ele>
        <time>2011-05-22T10:40:01Z</time>
      </trkpt>
      <trkpt lat="48.8979" lon="7.29674">
        <ele>321.6</ele>
        <time>2011-05-22T10:40:14Z</time>
      </trkpt>
      <trkpt lat="48.89778" lon="7.2971">
        <ele>322.5</ele>
        <time>2011-05-22T10:40:28Z</time>
      </trkpt>
      <trkpt lat="48.89762" lon="7.29749">
        <ele>325.1</ele>
        <time>2011-05-22T10:40:45Z</time>
      </trkpt>
      <trkpt lat="48.8975" lon="7.29788">
        <ele>328.2</ele>
        <time>2011-05-22T10:40:55Z</time>
      </trkpt>
      <trkpt lat="48.89745" lon="7.29829">
        <ele>328.2</ele>
        <time>2011-05-22T10:41:03Z</time>
      </trkpt>
      <trkpt lat="48.89737" lon="7.29869">
        <ele>327.2</ele>
        <time>2011-05-22T10:41:10Z</time>
      </trkpt>
      <trkpt lat="48.8973" lon="7.2991">
        <ele>326.4</ele>
        <time>2011-05-22T10:41:17Z</time>
      </trkpt>
      <trkpt lat="48.89863" lon="7.30061">
        <ele>286</ele>
        <time>2011-05-22T10:41:27Z</time>
      </trkpt>
      <trkpt lat="48.89792" lon="7.30015">
        <ele>297.8</ele>
        <time>2011-05-22T10:41:34Z</time>
      </trkpt>
      <trkpt lat="48.89816" lon="7.30047">
        <ele>289.2</ele>
        <time>2011-05-22T10:41:36Z</time>
      </trkpt>
      <trkpt lat="48.89819" lon="7.3009">
        <ele>287.1</ele>
        <time>2011-05-22T10:41:43Z</time>
      </trkpt>
      <trkpt lat="48.89756" lon="7.30038">
        <ele>308</ele>
        <time>2011-05-22T10:41:46Z</time>
      </trkpt>
      <trkpt lat="48.89757" lon="7.29994">
        <ele>310.2</ele>
        <time>2011-05-22T10:41:47Z</time>
      </trkpt>
      <trkpt lat="48.89746" lon="7.30029">
        <ele>312</ele>
        <time>2011-05-22T10:42:01Z</time>
      </trkpt>
      <trkpt lat="48.89731" lon="7.30056">
        <ele>316.2</ele>
        <time>2011-05-22T10:42:19Z</time>
      </trkpt>
      <trkpt lat="48.89718" lon="7.30086">
        <ele>319.8</ele>
        <time>2011-05-22T10:42:35Z</time>
      </trkpt>
      <trkpt lat="48.89704" lon="7.30121">
        <ele>323.7</ele>
        <time>2011-05-22T10:42:52Z</time>
      </trkpt>
      <trkpt lat="48.89686" lon="7.30151">
        <ele>329.2</ele>
        <time>2011-05-22T10:43:07Z</time>
      </trkpt>
      <trkpt lat="48.89664" lon="7.30177">
        <ele>335.3</ele>
        <time>2011-05-22T10:43:21Z</time>
      </trkpt>
      <trkpt lat="48.89642" lon="7.30205">
        <ele>336.3</ele>
        <time>2011-05-22T10:43:35Z</time>
      </trkpt>
      <trkpt lat="48.89625" lon="7.30237">
        <ele>337.1</ele>
        <time>2011-05-22T10:43:53Z</time>
      </trkpt>
      <trkpt lat="48.89602" lon="7.30263">
        <ele>340.1</ele>
        <time>2011-05-22T10:44:14Z</time>
      </trkpt>
      <trkpt lat="48.89581" lon="7.30291">
        <ele>342.1</ele>
        <time>2011-05-22T10:44:27Z</time>
      </trkpt>
      <trkpt lat="48.89564" lon="7.30325">
        <ele>338.9</ele>
        <time>2011-05-22T10:44:39Z</time>
      </trkpt>
      <trkpt lat="48.89547" lon="7.30357">
        <ele>336.7</ele>
        <time>2011-05-22T10:44:51Z</time>
      </trkpt>
      <trkpt lat="48.89533" lon="7.30394">
        <ele>336</ele>
        <time>2011-05-22T10:45:03Z</time>
      </trkpt>
      <trkpt lat="48.89521" lon="7.30431">
        <ele>337.5</ele>
        <time>2011-05-22T10:45:13Z</time>
      </trkpt>
      <trkpt lat="48.89509" lon="7.30473">
        <ele>341.9</ele>
        <time>2011-05-22T10:45:24Z</time>
      </trkpt>
      <trkpt lat="48.89499" lon="7.30511">
        <ele>346.6</ele>
        <time>2011-05-22T10:45:37Z</time>
      </trkpt>
      <trkpt lat="48.89494" lon="7.30551">
        <ele>349.1</ele>
        <time>2011-05-22T10:45:48Z</time>
      </trkpt>
      <trkpt lat="48.89492" lon="7.30595">
        <ele>351</ele>
        <time>2011-05-22T10:45:58Z</time>
      </trkpt>
      <trkpt lat="48.89497" lon="7.30639">
        <ele>351.1</ele>
        <time>2011-05-22T10:46:14Z</time>
      </trkpt>
      <trkpt lat="48.89494" lon="7.30681">
        <ele>354.1</ele>
        <time>2011-05-22T10:46:24Z</time>
      </trkpt>
      <trkpt lat="48.89494" lon="7.30724">
        <ele>358.2</ele>
        <time>2011-05-22T10:46:36Z</time>
      </trkpt>
      <trkpt lat="48.89492" lon="7.30767">
        <ele>361.8</ele>
        <time>2011-05-22T10:46:47Z</time>
      </trkpt>
      <trkpt lat="48.8949" lon="7.30808">
        <ele>363.4</ele>
        <time>2011-05-22T10:46:56Z</time>
      </trkpt>
      <trkpt lat="48.89505" lon="7.30843">
        <ele>361.2</ele>
        <time>2011-05-22T10:47:06Z</time>
      </trkpt>
      <trkpt lat="48.89514" lon="7.30882">
        <ele>363.5</ele>
        <time>2011-05-22T10:47:17Z</time>
      </trkpt>
      <trkpt lat="48.89526" lon="7.30919">
        <ele>365.2</ele>
        <time>2011-05-22T10:47:27Z</time>
      </trkpt>
      <trkpt lat="48.89539" lon="7.30957">
        <ele>366.1</ele>
        <time>2011-05-22T10:47:37Z</time>
      </trkpt>
      <trkpt lat="48.89511" lon="7.30952">
        <ele>370.5</ele>
        <time>2011-05-22T10:47:58Z</time>
      </trkpt>
      <trkpt lat="48.89493" lon="7.30917">
        <ele>370.7</ele>
        <time>2011-05-22T10:48:09Z</time>
      </trkpt>
      <trkpt lat="48.89478" lon="7.3088">
        <ele>371.3</ele>
        <time>2011-05-22T10:48:18Z</time>
      </trkpt>
      <trkpt lat="48.89451" lon="7.30896">
        <ele>379.5</ele>
        <time>2011-05-22T10:48:31Z</time>
      </trkpt>
      <trkpt lat="48.89433" lon="7.30869">
        <ele>382.7</ele>
        <time>2011-05-22T10:48:45Z</time>
      </trkpt>
      <trkpt lat="48.8942" lon="7.3083">
        <ele>385</ele>
        <time>2011-05-22T10:48:54Z</time>
      </trkpt>
      <trkpt lat="48.89405" lon="7.30793">
        <ele>386.1</ele>
        <time>2011-05-22T10:49:01Z</time>
      </trkpt>
      <trkpt lat="48.89386" lon="7.3076">
        <ele>386.5</ele>
        <time>2011-05-22T10:49:08Z</time>
      </trkpt>
      <trkpt lat="48.89362" lon="7.30736">
        <ele>387.1</ele>
        <time>2011-05-22T10:49:16Z</time>
      </trkpt>
      <trkpt lat="48.89341" lon="7.30708">
        <ele>387.2</ele>
        <time>2011-05-22T10:49:24Z</time>
      </trkpt>
      <trkpt lat="48.89315" lon="7.30682">
        <ele>385.9</ele>
        <time>2011-05-22T10:49:31Z</time>
      </trkpt>
      <trkpt lat="48.89297" lon="7.30649">
        <ele>382.9</ele>
        <time>2011-05-22T10:49:36Z</time>
      </trkpt>
      <trkpt lat="48.89276" lon="7.30611">
        <ele>378.7</ele>
        <time>2011-05-22T10:49:41Z</time>
      </trkpt>
      <trkpt lat="48.89256" lon="7.30575">
        <ele>374</ele>
        <time>2011-05-22T10:49:46Z</time>
      </trkpt>
      <trkpt lat="48.89241" lon="7.30541">
        <ele>369.6</ele>
        <time>2011-05-22T10:49:50Z</time>
      </trkpt>
      <trkpt lat="48.89226" lon="7.30501">
        <ele>365.4</ele>
        <time>2011-05-22T10:49:55Z</time>
      </trkpt>
      <trkpt lat="48.89206" lon="7.30465">
        <ele>363.6</ele>
        <time>2011-05-22T10:50:00Z</time>
      </trkpt>
      <trkpt lat="48.89188" lon="7.30434">
        <ele>362.8</ele>
        <time>2011-05-22T10:50:04Z</time>
      </trkpt>
      <trkpt lat="48.89168" lon="7.30401">
        <ele>362</ele>
        <time>2011-05-22T10:50:08Z</time>
      </trkpt>
      <trkpt lat="48.89149" lon="7.30367">
        <ele>361</ele>
        <time>2011-05-22T10:50:12Z</time>
      </trkpt>
      <trkpt lat="48.8913" lon="7.30332">
        <ele>360.4</ele>
        <time>2011-05-22T10:50:16Z</time>
      </trkpt>
      <trkpt lat="48.89115" lon="7.30297">
        <ele>360.2</ele>
        <time>2011-05-22T10:50:20Z</time>
      </trkpt>
      <trkpt lat="48.89099" lon="7.30261">
        <ele>360.6</ele>
        <time>2011-05-22T10:50:24Z</time>
      </trkpt>
      <trkpt lat="48.89084" lon="7.30225">
        <ele>359.6</ele>
        <time>2011-05-22T10:50:28Z</time>
      </trkpt>
      <trkpt lat="48.8907" lon="7.30188">
        <ele>358.2</ele>
        <time>2011-05-22T10:50:32Z</time>
      </trkpt>
      <trkpt lat="48.89058" lon="7.30146">
        <ele>356.4</ele>
        <time>2011-05-22T10:50:36Z</time>
      </trkpt>
      <trkpt lat="48.8905" lon="7.30098">
        <ele>353.8</ele>
        <time>2011-05-22T10:50:40Z</time>
      </trkpt>
      <trkpt lat="48.89042" lon="7.30051">
        <ele>353.4</ele>
        <time>2011-05-22T10:50:44Z</time>
      </trkpt>
      <trkpt lat="48.89034" lon="7.30005">
        <ele>354.1</ele>
        <time>2011-05-22T10:50:48Z</time>
      </trkpt>
      <trkpt lat="48.89027" lon="7.29961">
        <ele>355.2</ele>
        <time>2011-05-22T10:50:52Z</time>
      </trkpt>
      <trkpt lat="48.89019" lon="7.29917">
        <ele>356.6</ele>
        <time>2011-05-22T10:50:56Z</time>
      </trkpt>
      <trkpt lat="48.89008" lon="7.29875">
        <ele>356.5</ele>
        <time>2011-05-22T10:51:00Z</time>
      </trkpt>
      <trkpt lat="48.89001" lon="7.29834">
        <ele>354.9</ele>
        <time>2011-05-22T10:51:04Z</time>
      </trkpt>
      <trkpt lat="48.88994" lon="7.29789">
        <ele>355.7</ele>
        <time>2011-05-22T10:51:09Z</time>
      </trkpt>
      <trkpt lat="48.88991" lon="7.29746">
        <ele>356</ele>
        <time>2011-05-22T10:51:14Z</time>
      </trkpt>
      <trkpt lat="48.88993" lon="7.29701">
        <ele>357.4</ele>
        <time>2011-05-22T10:51:19Z</time>
      </trkpt>
      <trkpt lat="48.89001" lon="7.29661">
        <ele>358.1</ele>
        <time>2011-05-22T10:51:24Z</time>
      </trkpt>
      <trkpt lat="48.89014" lon="7.29621">
        <ele>358.6</ele>
        <time>2011-05-22T10:51:30Z</time>
      </trkpt>
      <trkpt lat="48.89029" lon="7.29585">
        <ele>359.9</ele>
        <time>2011-05-22T10:51:36Z</time>
      </trkpt>
      <trkpt lat="48.89022" lon="7.29545">
        <ele>360</ele>
        <time>2011-05-22T10:51:43Z</time>
      </trkpt>
      <trkpt lat="48.88997" lon="7.2952">
        <ele>360.1</ele>
        <time>2011-05-22T10:51:51Z</time>
      </trkpt>
      <trkpt lat="48.88972" lon="7.295">
        <ele>360.3</ele>
        <time>2011-05-22T10:51:58Z</time>
      </trkpt>
      <trkpt lat="48.88944" lon="7.29493">
        <ele>360.4</ele>
        <time>2011-05-22T10:52:04Z</time>
      </trkpt>
      <trkpt lat="48.88915" lon="7.29493">
        <ele>360.6</ele>
        <time>2011-05-22T10:52:10Z</time>
      </trkpt>
      <trkpt lat="48.88884" lon="7.29501">
        <ele>361</ele>
        <time>2011-05-22T10:52:16Z</time>
      </trkpt>
      <trkpt lat="48.88854" lon="7.29509">
        <ele>361.7</ele>
        <time>2011-05-22T10:52:22Z</time>
      </trkpt>
      <trkpt lat="48.88822" lon="7.29516">
        <ele>361.8</ele>
        <time>2011-05-22T10:52:28Z</time>
      </trkpt>
      <trkpt lat="48.88793" lon="7.29531">
        <ele>361.1</ele>
        <time>2011-05-22T10:52:34Z</time>
      </trkpt>
      <trkpt lat="48.88764" lon="7.29543">
        <ele>360.1</ele>
        <time>2011-05-22T10:52:41Z</time>
      </trkpt>
      <trkpt lat="48.88741" lon="7.29568">
        <ele>360.3</ele>
        <time>2011-05-22T10:52:47Z</time>
      </trkpt>
      <trkpt lat="48.88724" lon="7.29603">
        <ele>360.3</ele>
        <time>2011-05-22T10:52:54Z</time>
      </trkpt>
      <trkpt lat="48.88715" lon="7.29646">
        <ele>361.4</ele>
        <time>2011-05-22T10:53:00Z</time>
      </trkpt>
      <trkpt lat="48.88706" lon="7.29687">
        <ele>362.1</ele>
        <time>2011-05-22T10:53:05Z</time>
      </trkpt>
      <trkpt lat="48.887" lon="7.29732">
        <ele>363.5</ele>
        <time>2011-05-22T10:53:12Z</time>
      </trkpt>
      <trkpt lat="48.88686" lon="7.29771">
        <ele>363.7</ele>
        <time>2011-05-22T10:53:18Z</time>
      </trkpt>
      <trkpt lat="48.88677" lon="7.2981">
        <ele>364.4</ele>
        <time>2011-05-22T10:53:24Z</time>
      </trkpt>
      <trkpt lat="48.88665" lon="7.29849">
        <ele>364.7</ele>
        <time>2011-05-22T10:53:29Z</time>
      </trkpt>
      <trkpt lat="48.88654" lon="7.2989">
        <ele>365.6</ele>
        <time>2011-05-22T10:53:35Z</time>
      </trkpt>
      <trkpt lat="48.88648" lon="7.2993">
        <ele>366.6</ele>
        <time>2011-05-22T10:53:40Z</time>
      </trkpt>
      <trkpt lat="48.88637" lon="7.29976">
        <ele>365.9</ele>
        <time>2011-05-22T10:53:47Z</time>
      </trkpt>
      <trkpt lat="48.88635" lon="7.3002">
        <ele>366.3</ele>
        <time>2011-05-22T10:53:52Z</time>
      </trkpt>
      <trkpt lat="48.88638" lon="7.30068">
        <ele>366.6</ele>
        <time>2011-05-22T10:53:57Z</time>
      </trkpt>
      <trkpt lat="48.88646" lon="7.30114">
        <ele>367.2</ele>
        <time>2011-05-22T10:54:03Z</time>
      </trkpt>
      <trkpt lat="48.88656" lon="7.30154">
        <ele>368.2</ele>
        <time>2011-05-22T10:54:08Z</time>
      </trkpt>
      <trkpt lat="48.88669" lon="7.30193">
        <ele>367.9</ele>
        <time>2011-05-22T10:54:15Z</time>
      </trkpt>
      <trkpt lat="48.88693" lon="7.30226">
        <ele>368.7</ele>
        <time>2011-05-22T10:54:22Z</time>
      </trkpt>
      <trkpt lat="48.88717" lon="7.30246">
        <ele>370.9</ele>
        <time>2011-05-22T10:54:27Z</time>
      </trkpt>
      <trkpt lat="48.88743" lon="7.30272">
        <ele>371.5</ele>
        <time>2011-05-22T10:54:32Z</time>
      </trkpt>
      <trkpt lat="48.88768" lon="7.30298">
        <ele>372.9</ele>
        <time>2011-05-22T10:54:37Z</time>
      </trkpt>
      <trkpt lat="48.88789" lon="7.30332">
        <ele>374.1</ele>
        <time>2011-05-22T10:54:42Z</time>
      </trkpt>
      <trkpt lat="48.88809" lon="7.30365">
        <ele>374.1</ele>
        <time>2011-05-22T10:54:47Z</time>
      </trkpt>
      <trkpt lat="48.88826" lon="7.30401">
        <ele>373.9</ele>
        <time>2011-05-22T10:54:52Z</time>
      </trkpt>
      <trkpt lat="48.88843" lon="7.30436">
        <ele>374.5</ele>
        <time>2011-05-22T10:54:57Z</time>
      </trkpt>
      <trkpt lat="48.88857" lon="7.30473">
        <ele>375.1</ele>
        <time>2011-05-22T10:55:02Z</time>
      </trkpt>
      <trkpt lat="48.88874" lon="7.30511">
        <ele>378</ele>
        <time>2011-05-22T10:55:08Z</time>
      </trkpt>
      <trkpt lat="48.88886" lon="7.30549">
        <ele>380.1</ele>
        <time>2011-05-22T10:55:14Z</time>
      </trkpt>
      <trkpt lat="48.88894" lon="7.30589">
        <ele>380.4</ele>
        <time>2011-05-22T10:55:20Z</time>
      </trkpt>
      <trkpt lat="48.88898" lon="7.30631">
        <ele>381.9</ele>
        <time>2011-05-22T10:55:27Z</time>
      </trkpt>
      <trkpt lat="48.88899" lon="7.30673">
        <ele>382.8</ele>
        <time>2011-05-22T10:55:37Z</time>
      </trkpt>
      <trkpt lat="48.88888" lon="7.30712">
        <ele>383.4</ele>
        <time>2011-05-22T10:55:47Z</time>
      </trkpt>
      <trkpt lat="48.88874" lon="7.30748">
        <ele>383.8</ele>
        <time>2011-05-22T10:55:59Z</time>
      </trkpt>
      <trkpt lat="48.88854" lon="7.30778">
        <ele>382.8</ele>
        <time>2011-05-22T10:56:10Z</time>
      </trkpt>
      <trkpt lat="48.88837" lon="7.3081">
        <ele>382.3</ele>
        <time>2011-05-22T10:56:21Z</time>
      </trkpt>
      <trkpt lat="48.88822" lon="7.30843">
        <ele>381.8</ele>
        <time>2011-05-22T10:56:31Z</time>
      </trkpt>
      <trkpt lat="48.88805" lon="7.30879">
        <ele>380.5</ele>
        <time>2011-05-22T10:56:39Z</time>
      </trkpt>
      <trkpt lat="48.88789" lon="7.30917">
        <ele>378.4</ele>
        <time>2011-05-22T10:56:46Z</time>
      </trkpt>
      <trkpt lat="48.88781" lon="7.30962">
        <ele>375.6</ele>
        <time>2011-05-22T10:56:53Z</time>
      </trkpt>
      <trkpt lat="48.88794" lon="7.31007">
        <ele>377.3</ele>
        <time>2011-05-22T10:56:59Z</time>
      </trkpt>
      <trkpt lat="48.88811" lon="7.31042">
        <ele>378.2</ele>
        <time>2011-05-22T10:57:04Z</time>
      </trkpt>
      <trkpt lat="48.88827" lon="7.31075">
        <ele>379.8</ele>
        <time>2011-05-22T10:57:09Z</time>
      </trkpt>
      <trkpt lat="48.88848" lon="7.31112">
        <ele>379</ele>
        <time>2011-05-22T10:57:14Z</time>
      </trkpt>
      <trkpt lat="48.88865" lon="7.31145">
        <ele>378.2</ele>
        <time>2011-05-22T10:57:18Z</time>
      </trkpt>
      <trkpt lat="48.88884" lon="7.31186">
        <ele>378.6</ele>
        <time>2011-05-22T10:57:23Z</time>
      </trkpt>
      <trkpt lat="48.88906" lon="7.31219">
        <ele>381.5</ele>
        <time>2011-05-22T10:57:28Z</time>
      </trkpt>
      <trkpt lat="48.88919" lon="7.31258">
        <ele>381.5</ele>
        <time>2011-05-22T10:57:33Z</time>
      </trkpt>
      <trkpt lat="48.88934" lon="7.313">
        <ele>378.9</ele>
        <time>2011-05-22T10:57:39Z</time>
      </trkpt>
      <trkpt lat="48.8895" lon="7.31336">
        <ele>378.7</ele>
        <time>2011-05-22T10:57:45Z</time>
      </trkpt>
      <trkpt lat="48.88968" lon="7.31366">
        <ele>379.9</ele>
        <time>2011-05-22T10:57:51Z</time>
      </trkpt>
      <trkpt lat="48.88989" lon="7.31396">
        <ele>382.5</ele>
        <time>2011-05-22T10:57:57Z</time>
      </trkpt>
      <trkpt lat="48.89013" lon="7.3142">
        <ele>386.4</ele>
        <time>2011-05-22T10:58:03Z</time>
      </trkpt>
      <trkpt lat="48.89032" lon="7.31453">
        <ele>386.2</ele>
        <time>2011-05-22T10:58:09Z</time>
      </trkpt>
      <trkpt lat="48.89045" lon="7.31489">
        <ele>384.7</ele>
        <time>2011-05-22T10:58:15Z</time>
      </trkpt>
      <trkpt lat="48.89063" lon="7.31528">
        <ele>387.3</ele>
        <time>2011-05-22T10:58:22Z</time>
      </trkpt>
      <trkpt lat="48.89073" lon="7.31569">
        <ele>388.8</ele>
        <time>2011-05-22T10:58:29Z</time>
      </trkpt>
      <trkpt lat="48.89085" lon="7.31611">
        <ele>392</ele>
        <time>2011-05-22T10:58:37Z</time>
      </trkpt>
      <trkpt lat="48.89095" lon="7.31652">
        <ele>393.3</ele>
        <time>2011-05-22T10:58:45Z</time>
      </trkpt>
      <trkpt lat="48.89104" lon="7.31694">
        <ele>394.8</ele>
        <time>2011-05-22T10:58:55Z</time>
      </trkpt>
      <trkpt lat="48.89116" lon="7.3173">
        <ele>397</ele>
        <time>2011-05-22T10:59:05Z</time>
      </trkpt>
      <trkpt lat="48.89127" lon="7.31771">
        <ele>397.9</ele>
        <time>2011-05-22T10:59:17Z</time>
      </trkpt>
      <trkpt lat="48.89138" lon="7.31812">
        <ele>397.7</ele>
        <time>2011-05-22T10:59:28Z</time>
      </trkpt>
      <trkpt lat="48.89148" lon="7.3185">
        <ele>396.9</ele>
        <time>2011-05-22T10:59:38Z</time>
      </trkpt>
      <trkpt lat="48.89157" lon="7.31889">
        <ele>395.2</ele>
        <time>2011-05-22T10:59:47Z</time>
      </trkpt>
      <trkpt lat="48.89166" lon="7.31929">
        <ele>393.8</ele>
        <time>2011-05-22T10:59:56Z</time>
      </trkpt>
      <trkpt lat="48.89185" lon="7.3196">
        <ele>394.8</ele>
        <time>2011-05-22T11:00:12Z</time>
      </trkpt>
      <trkpt lat="48.89194" lon="7.31999">
        <ele>394.7</ele>
        <time>2011-05-22T11:00:29Z</time>
      </trkpt>
      <trkpt lat="48.89201" lon="7.3204">
        <ele>394.1</ele>
        <time>2011-05-22T11:00:42Z</time>
      </trkpt>
      <trkpt lat="48.89186" lon="7.32079">
        <ele>393.1</ele>
        <time>2011-05-22T11:00:51Z</time>
      </trkpt>
      <trkpt lat="48.89172" lon="7.32117">
        <ele>390</ele>
        <time>2011-05-22T11:01:00Z</time>
      </trkpt>
      <trkpt lat="48.8916" lon="7.32154">
        <ele>386.9</ele>
        <time>2011-05-22T11:01:09Z</time>
      </trkpt>
      <trkpt lat="48.89151" lon="7.32192">
        <ele>383.9</ele>
        <time>2011-05-22T11:06:37Z</time>
      </trkpt>
      <trkpt lat="48.89148" lon="7.32237">
        <ele>380.9</ele>
        <time>2011-05-22T11:07:35Z</time>
      </trkpt>
      <trkpt lat="48.89134" lon="7.32274">
        <ele>379.1</ele>
        <time>2011-05-22T11:07:43Z</time>
      </trkpt>
      <trkpt lat="48.89116" lon="7.32305">
        <ele>378.7</ele>
        <time>2011-05-22T11:07:50Z</time>
      </trkpt>
      <trkpt lat="48.89096" lon="7.32333">
        <ele>379.2</ele>
        <time>2011-05-22T11:07:59Z</time>
      </trkpt>
      <trkpt lat="48.89075" lon="7.32361">
        <ele>378.6</ele>
        <time>2011-05-22T11:08:08Z</time>
      </trkpt>
      <trkpt lat="48.89071" lon="7.32405">
        <ele>377.4</ele>
        <time>2011-05-22T11:08:16Z</time>
      </trkpt>
      <trkpt lat="48.89051" lon="7.32439">
        <ele>374.3</ele>
        <time>2011-05-22T11:08:22Z</time>
      </trkpt>
      <trkpt lat="48.89036" lon="7.32477">
        <ele>372.2</ele>
        <time>2011-05-22T11:08:30Z</time>
      </trkpt>
      <trkpt lat="48.89014" lon="7.32504">
        <ele>369</ele>
        <time>2011-05-22T11:08:39Z</time>
      </trkpt>
      <trkpt lat="48.88991" lon="7.32534">
        <ele>366.7</ele>
        <time>2011-05-22T11:08:50Z</time>
      </trkpt>
      <trkpt lat="48.88973" lon="7.32564">
        <ele>365.5</ele>
        <time>2011-05-22T11:08:57Z</time>
      </trkpt>
      <trkpt lat="48.88955" lon="7.32596">
        <ele>364.6</ele>
        <time>2011-05-22T11:09:03Z</time>
      </trkpt>
      <trkpt lat="48.88946" lon="7.3264">
        <ele>365.7</ele>
        <time>2011-05-22T11:09:09Z</time>
      </trkpt>
      <trkpt lat="48.88947" lon="7.3268">
        <ele>366.9</ele>
        <time>2011-05-22T11:09:18Z</time>
      </trkpt>
      <trkpt lat="48.88954" lon="7.3272">
        <ele>367</ele>
        <time>2011-05-22T11:09:27Z</time>
      </trkpt>
      <trkpt lat="48.8895" lon="7.32763">
        <ele>367.5</ele>
        <time>2011-05-22T11:09:39Z</time>
      </trkpt>
      <trkpt lat="48.88938" lon="7.32797">
        <ele>369.7</ele>
        <time>2011-05-22T11:09:49Z</time>
      </trkpt>
      <trkpt lat="48.88923" lon="7.32831">
        <ele>372.8</ele>
        <time>2011-05-22T11:10:04Z</time>
      </trkpt>
      <trkpt lat="48.88912" lon="7.32868">
        <ele>373.8</ele>
        <time>2011-05-22T11:10:17Z</time>
      </trkpt>
      <trkpt lat="48.889" lon="7.32907">
        <ele>374.1</ele>
        <time>2011-05-22T11:10:28Z</time>
      </trkpt>
      <trkpt lat="48.88886" lon="7.32944">
        <ele>373.2</ele>
        <time>2011-05-22T11:10:39Z</time>
      </trkpt>
      <trkpt lat="48.88874" lon="7.32984">
        <ele>371.9</ele>
        <time>2011-05-22T11:10:47Z</time>
      </trkpt>
      <trkpt lat="48.88866" lon="7.33028">
        <ele>369.9</ele>
        <time>2011-05-22T11:10:56Z</time>
      </trkpt>
      <trkpt lat="48.88864" lon="7.33078">
        <ele>366.3</ele>
        <time>2011-05-22T11:11:02Z</time>
      </trkpt>
      <trkpt lat="48.88871" lon="7.3312">
        <ele>363.2</ele>
        <time>2011-05-22T11:11:09Z</time>
      </trkpt>
      <trkpt lat="48.88885" lon="7.33173">
        <ele>359.7</ele>
        <time>2011-05-22T11:11:14Z</time>
      </trkpt>
      <trkpt lat="48.88875" lon="7.33213">
        <ele>360.5</ele>
        <time>2011-05-22T11:11:20Z</time>
      </trkpt>
      <trkpt lat="48.88876" lon="7.33254">
        <ele>360.5</ele>
        <time>2011-05-22T11:11:33Z</time>
      </trkpt>
      <trkpt lat="48.88887" lon="7.33292">
        <ele>360.5</ele>
        <time>2011-05-22T11:11:40Z</time>
      </trkpt>
      <trkpt lat="48.88895" lon="7.33337">
        <ele>360.6</ele>
        <time>2011-05-22T11:11:47Z</time>
      </trkpt>
      <trkpt lat="48.88896" lon="7.33378">
        <ele>361</ele>
        <time>2011-05-22T11:11:52Z</time>
      </trkpt>
      <trkpt lat="48.88897" lon="7.3342">
        <ele>361.6</ele>
        <time>2011-05-22T11:11:59Z</time>
      </trkpt>
      <trkpt lat="48.88912" lon="7.3346">
        <ele>363.5</ele>
        <time>2011-05-22T11:12:07Z</time>
      </trkpt>
      <trkpt lat="48.88928" lon="7.33494">
        <ele>362.2</ele>
        <time>2011-05-22T11:12:15Z</time>
      </trkpt>
      <trkpt lat="48.88937" lon="7.33535">
        <ele>361.4</ele>
        <time>2011-05-22T11:12:29Z</time>
      </trkpt>
      <trkpt lat="48.88934" lon="7.33576">
        <ele>364.2</ele>
        <time>2011-05-22T11:12:40Z</time>
      </trkpt>
      <trkpt lat="48.88941" lon="7.33616">
        <ele>364</ele>
        <time>2011-05-22T11:12:54Z</time>
      </trkpt>
      <trkpt lat="48.88947" lon="7.33658">
        <ele>364.6</ele>
        <time>2011-05-22T11:13:06Z</time>
      </trkpt>
      <trkpt lat="48.88942" lon="7.33701">
        <ele>368.5</ele>
        <time>2011-05-22T11:13:22Z</time>
      </trkpt>
      <trkpt lat="48.88937" lon="7.33745">
        <ele>372</ele>
        <time>2011-05-22T11:13:36Z</time>
      </trkpt>
      <trkpt lat="48.88936" lon="7.33787">
        <ele>373.1</ele>
        <time>2011-05-22T11:13:48Z</time>
      </trkpt>
      <trkpt lat="48.88937" lon="7.3383">
        <ele>372.8</ele>
        <time>2011-05-22T11:13:57Z</time>
      </trkpt>
      <trkpt lat="48.88939" lon="7.33872">
        <ele>372.7</ele>
        <time>2011-05-22T11:14:05Z</time>
      </trkpt>
      <trkpt lat="48.88938" lon="7.33915">
        <ele>373.3</ele>
        <time>2011-05-22T11:14:15Z</time>
      </trkpt>
      <trkpt lat="48.88925" lon="7.33951">
        <ele>376.3</ele>
        <time>2011-05-22T11:14:22Z</time>
      </trkpt>
      <trkpt lat="48.88902" lon="7.33988">
        <ele>379.3</ele>
        <time>2011-05-22T11:14:32Z</time>
      </trkpt>
      <trkpt lat="48.88884" lon="7.34019">
        <ele>379.4</ele>
        <time>2011-05-22T11:14:42Z</time>
      </trkpt>
      <trkpt lat="48.88883" lon="7.34063">
        <ele>376.8</ele>
        <time>2011-05-22T11:14:49Z</time>
      </trkpt>
      <trkpt lat="48.88888" lon="7.34107">
        <ele>373</ele>
        <time>2011-05-22T11:14:54Z</time>
      </trkpt>
      <trkpt lat="48.8889" lon="7.3415">
        <ele>370.1</ele>
        <time>2011-05-22T11:14:59Z</time>
      </trkpt>
      <trkpt lat="48.88892" lon="7.34194">
        <ele>368.6</ele>
        <time>2011-05-22T11:15:05Z</time>
      </trkpt>
      <trkpt lat="48.88894" lon="7.34241">
        <ele>368.1</ele>
        <time>2011-05-22T11:15:12Z</time>
      </trkpt>
      <trkpt lat="48.88903" lon="7.34286">
        <ele>366.1</ele>
        <time>2011-05-22T11:15:17Z</time>
      </trkpt>
      <trkpt lat="48.88914" lon="7.34324">
        <ele>364.3</ele>
        <time>2011-05-22T11:15:22Z</time>
      </trkpt>
      <trkpt lat="48.88924" lon="7.34366">
        <ele>364.2</ele>
        <time>2011-05-22T11:15:27Z</time>
      </trkpt>
      <trkpt lat="48.88931" lon="7.34408">
        <ele>365.9</ele>
        <time>2011-05-22T11:15:33Z</time>
      </trkpt>
      <trkpt lat="48.88935" lon="7.34449">
        <ele>367.2</ele>
        <time>2011-05-22T11:15:38Z</time>
      </trkpt>
      <trkpt lat="48.88942" lon="7.34489">
        <ele>367.1</ele>
        <time>2011-05-22T11:15:41Z</time>
      </trkpt>
      <trkpt lat="48.88946" lon="7.34535">
        <ele>368.8</ele>
        <time>2011-05-22T11:15:47Z</time>
      </trkpt>
      <trkpt lat="48.88958" lon="7.34577">
        <ele>368.9</ele>
        <time>2011-05-22T11:15:54Z</time>
      </trkpt>
      <trkpt lat="48.88973" lon="7.34612">
        <ele>368.6</ele>
        <time>2011-05-22T11:15:59Z</time>
      </trkpt>
      <trkpt lat="48.88987" lon="7.34654">
        <ele>369.9</ele>
        <time>2011-05-22T11:16:04Z</time>
      </trkpt>
      <trkpt lat="48.89003" lon="7.3469">
        <ele>368.8</ele>
        <time>2011-05-22T11:16:08Z</time>
      </trkpt>
      <trkpt lat="48.89018" lon="7.34735">
        <ele>366.5</ele>
        <time>2011-05-22T11:16:12Z</time>
      </trkpt>
      <trkpt lat="48.89031" lon="7.34784">
        <ele>366.2</ele>
        <time>2011-05-22T11:16:16Z</time>
      </trkpt>
      <trkpt lat="48.8904" lon="7.34824">
        <ele>366.7</ele>
        <time>2011-05-22T11:16:20Z</time>
      </trkpt>
      <trkpt lat="48.8905" lon="7.34869">
        <ele>366</ele>
        <time>2011-05-22T11:16:25Z</time>
      </trkpt>
      <trkpt lat="48.89065" lon="7.34912">
        <ele>364.4</ele>
        <time>2011-05-22T11:16:29Z</time>
      </trkpt>
      <trkpt lat="48.89082" lon="7.34951">
        <ele>360.8</ele>
        <time>2011-05-22T11:16:33Z</time>
      </trkpt>
      <trkpt lat="48.89096" lon="7.34988">
        <ele>361</ele>
        <time>2011-05-22T11:16:40Z</time>
      </trkpt>
      <trkpt lat="48.89123" lon="7.34999">
        <ele>362.8</ele>
        <time>2011-05-22T11:16:52Z</time>
      </trkpt>
      <trkpt lat="48.89148" lon="7.34995">
        <ele>364.6</ele>
        <time>2011-05-22T11:17:11Z</time>
      </trkpt>
      <trkpt lat="48.89172" lon="7.35006">
        <ele>365.7</ele>
        <time>2011-05-22T11:17:27Z</time>
      </trkpt>
      <trkpt lat="48.89197" lon="7.35011">
        <ele>367.9</ele>
        <time>2011-05-22T11:17:53Z</time>
      </trkpt>
      <trkpt lat="48.89223" lon="7.34996">
        <ele>372.7</ele>
        <time>2011-05-22T11:18:23Z</time>
      </trkpt>
      <trkpt lat="48.89249" lon="7.34984">
        <ele>375.7</ele>
        <time>2011-05-22T11:18:41Z</time>
      </trkpt>
      <trkpt lat="48.89274" lon="7.35">
        <ele>376.6</ele>
        <time>2011-05-22T11:18:59Z</time>
      </trkpt>
      <trkpt lat="48.89291" lon="7.35034">
        <ele>374.5</ele>
        <time>2011-05-22T11:19:15Z</time>
      </trkpt>
      <trkpt lat="48.89311" lon="7.35067">
        <ele>374.2</ele>
        <time>2011-05-22T11:19:27Z</time>
      </trkpt>
      <trkpt lat="48.89327" lon="7.35103">
        <ele>373.9</ele>
        <time>2011-05-22T11:19:36Z</time>
      </trkpt>
      <trkpt lat="48.89351" lon="7.35129">
        <ele>372.8</ele>
        <time>2011-05-22T11:19:44Z</time>
      </trkpt>
      <trkpt lat="48.89375" lon="7.35149">
        <ele>371.8</ele>
        <time>2011-05-22T11:20:05Z</time>
      </trkpt>
      <trkpt lat="48.89402" lon="7.35173">
        <ele>371.2</ele>
        <time>2011-05-22T11:20:10Z</time>
      </trkpt>
      <trkpt lat="48.89429" lon="7.35175">
        <ele>370.6</ele>
        <time>2011-05-22T11:20:18Z</time>
      </trkpt>
      <trkpt lat="48.89454" lon="7.35193">
        <ele>368.6</ele>
        <time>2011-05-22T11:20:28Z</time>
      </trkpt>
      <trkpt lat="48.89481" lon="7.35219">
        <ele>368.3</ele>
        <time>2011-05-22T11:20:34Z</time>
      </trkpt>
      <trkpt lat="48.8951" lon="7.35236">
        <ele>368.4</ele>
        <time>2011-05-22T11:20:40Z</time>
      </trkpt>
      <trkpt lat="48.89532" lon="7.35264">
        <ele>366.1</ele>
        <time>2011-05-22T11:20:50Z</time>
      </trkpt>
      <trkpt lat="48.89554" lon="7.3529">
        <ele>364.3</ele>
        <time>2011-05-22T11:21:06Z</time>
      </trkpt>
      <trkpt lat="48.89577" lon="7.35311">
        <ele>365.5</ele>
        <time>2011-05-22T11:21:20Z</time>
      </trkpt>
      <trkpt lat="48.89597" lon="7.35341">
        <ele>365.2</ele>
        <time>2011-05-22T11:21:31Z</time>
      </trkpt>
      <trkpt lat="48.89616" lon="7.35369">
        <ele>362.2</ele>
        <time>2011-05-22T11:21:38Z</time>
      </trkpt>
      <trkpt lat="48.89637" lon="7.35396">
        <ele>360.5</ele>
        <time>2011-05-22T11:21:47Z</time>
      </trkpt>
      <trkpt lat="48.89653" lon="7.35434">
        <ele>359.6</ele>
        <time>2011-05-22T11:21:55Z</time>
      </trkpt>
      <trkpt lat="48.89665" lon="7.35472">
        <ele>359.8</ele>
        <time>2011-05-22T11:22:01Z</time>
      </trkpt>
      <trkpt lat="48.89679" lon="7.35434">
        <ele>358.8</ele>
        <time>2011-05-22T11:22:28Z</time>
      </trkpt>
      <trkpt lat="48.89674" lon="7.35392">
        <ele>358.8</ele>
        <time>2011-05-22T11:22:34Z</time>
      </trkpt>
      <trkpt lat="48.89668" lon="7.35351">
        <ele>359</ele>
        <time>2011-05-22T11:22:38Z</time>
      </trkpt>
      <trkpt lat="48.8969" lon="7.35377">
        <ele>356.4</ele>
        <time>2011-05-22T11:23:04Z</time>
      </trkpt>
      <trkpt lat="48.89703" lon="7.35413">
        <ele>355.9</ele>
        <time>2011-05-22T11:23:12Z</time>
      </trkpt>
      <trkpt lat="48.8968" lon="7.35391">
        <ele>358</ele>
        <time>2011-05-22T11:24:03Z</time>
      </trkpt>
      <trkpt lat="48.89669" lon="7.35351">
        <ele>358.8</ele>
        <time>2011-05-22T11:24:14Z</time>
      </trkpt>
      <trkpt lat="48.89665" lon="7.35309">
        <ele>358.6</ele>
        <time>2011-05-22T11:24:31Z</time>
      </trkpt>
      <trkpt lat="48.89654" lon="7.35271">
        <ele>358.5</ele>
        <time>2011-05-22T11:24:43Z</time>
      </trkpt>
      <trkpt lat="48.89666" lon="7.35308">
        <ele>358.4</ele>
        <time>2011-05-22T11:24:53Z</time>
      </trkpt>
      <trkpt lat="48.89675" lon="7.35349">
        <ele>357.9</ele>
        <time>2011-05-22T11:25:02Z</time>
      </trkpt>
      <trkpt lat="48.89687" lon="7.35391">
        <ele>357.1</ele>
        <time>2011-05-22T11:25:10Z</time>
      </trkpt>
      <trkpt lat="48.89699" lon="7.35433">
        <ele>356.8</ele>
        <time>2011-05-22T11:25:16Z</time>
      </trkpt>
      <trkpt lat="48.89715" lon="7.35474">
        <ele>356.4</ele>
        <time>2011-05-22T11:25:21Z</time>
      </trkpt>
      <trkpt lat="48.89727" lon="7.3552">
        <ele>355.9</ele>
        <time>2011-05-22T11:25:25Z</time>
      </trkpt>
      <trkpt lat="48.89741" lon="7.35568">
        <ele>354.5</ele>
        <time>2011-05-22T11:25:29Z</time>
      </trkpt>
      <trkpt lat="48.89757" lon="7.35602">
        <ele>352.4</ele>
        <time>2011-05-22T11:25:32Z</time>
      </trkpt>
      <trkpt lat="48.89769" lon="7.35641">
        <ele>350.1</ele>
        <time>2011-05-22T11:25:35Z</time>
      </trkpt>
      <trkpt lat="48.89785" lon="7.35676">
        <ele>348.1</ele>
        <time>2011-05-22T11:25:38Z</time>
      </trkpt>
      <trkpt lat="48.89802" lon="7.35711">
        <ele>346.2</ele>
        <time>2011-05-22T11:25:42Z</time>
      </trkpt>
      <trkpt lat="48.8982" lon="7.35743">
        <ele>344.4</ele>
        <time>2011-05-22T11:25:45Z</time>
      </trkpt>
      <trkpt lat="48.89839" lon="7.35783">
        <ele>343.9</ele>
        <time>2011-05-22T11:25:49Z</time>
      </trkpt>
      <trkpt lat="48.89864" lon="7.35815">
        <ele>341.4</ele>
        <time>2011-05-22T11:25:52Z</time>
      </trkpt>
      <trkpt lat="48.89891" lon="7.35847">
        <ele>339.3</ele>
        <time>2011-05-22T11:25:55Z</time>
      </trkpt>
      <trkpt lat="48.89914" lon="7.35875">
        <ele>337</ele>
        <time>2011-05-22T11:25:58Z</time>
      </trkpt>
      <trkpt lat="48.89941" lon="7.35904">
        <ele>333.1</ele>
        <time>2011-05-22T11:26:02Z</time>
      </trkpt>
      <trkpt lat="48.89959" lon="7.35935">
        <ele>333.5</ele>
        <time>2011-05-22T11:26:05Z</time>
      </trkpt>
      <trkpt lat="48.89985" lon="7.35972">
        <ele>334.2</ele>
        <time>2011-05-22T11:26:09Z</time>
      </trkpt>
      <trkpt lat="48.90012" lon="7.36005">
        <ele>333.7</ele>
        <time>2011-05-22T11:26:13Z</time>
      </trkpt>
      <trkpt lat="48.90037" lon="7.36021">
        <ele>329.9</ele>
        <time>2011-05-22T11:26:16Z</time>
      </trkpt>
      <trkpt lat="48.90064" lon="7.3604">
        <ele>327</ele>
        <time>2011-05-22T11:26:19Z</time>
      </trkpt>
      <trkpt lat="48.90092" lon="7.36066">
        <ele>325.7</ele>
        <time>2011-05-22T11:26:22Z</time>
      </trkpt>
      <trkpt lat="48.90117" lon="7.36087">
        <ele>323.9</ele>
        <time>2011-05-22T11:26:25Z</time>
      </trkpt>
      <trkpt lat="48.90142" lon="7.36109">
        <ele>320.6</ele>
        <time>2011-05-22T11:26:29Z</time>
      </trkpt>
      <trkpt lat="48.9017" lon="7.36132">
        <ele>317.2</ele>
        <time>2011-05-22T11:26:33Z</time>
      </trkpt>
      <trkpt lat="48.90196" lon="7.36163">
        <ele>315.2</ele>
        <time>2011-05-22T11:26:37Z</time>
      </trkpt>
      <trkpt lat="48.90225" lon="7.36194">
        <ele>313.1</ele>
        <time>2011-05-22T11:26:41Z</time>
      </trkpt>
      <trkpt lat="48.90248" lon="7.36219">
        <ele>310.8</ele>
        <time>2011-05-22T11:26:44Z</time>
      </trkpt>
      <trkpt lat="48.9027" lon="7.36259">
        <ele>309.4</ele>
        <time>2011-05-22T11:26:48Z</time>
      </trkpt>
      <trkpt lat="48.90292" lon="7.36291">
        <ele>307.9</ele>
        <time>2011-05-22T11:26:52Z</time>
      </trkpt>
      <trkpt lat="48.90314" lon="7.36324">
        <ele>306.6</ele>
        <time>2011-05-22T11:26:57Z</time>
      </trkpt>
      <trkpt lat="48.9034" lon="7.36353">
        <ele>304.1</ele>
        <time>2011-05-22T11:27:02Z</time>
      </trkpt>
      <trkpt lat="48.90365" lon="7.36377">
        <ele>301.9</ele>
        <time>2011-05-22T11:27:06Z</time>
      </trkpt>
      <trkpt lat="48.90393" lon="7.36402">
        <ele>299.5</ele>
        <time>2011-05-22T11:27:10Z</time>
      </trkpt>
      <trkpt lat="48.90419" lon="7.36417">
        <ele>296.6</ele>
        <time>2011-05-22T11:27:14Z</time>
      </trkpt>
      <trkpt lat="48.90445" lon="7.36442">
        <ele>295.8</ele>
        <time>2011-05-22T11:27:19Z</time>
      </trkpt>
      <trkpt lat="48.90466" lon="7.36472">
        <ele>296.3</ele>
        <time>2011-05-22T11:27:24Z</time>
      </trkpt>
      <trkpt lat="48.90487" lon="7.36502">
        <ele>296.6</ele>
        <time>2011-05-22T11:27:30Z</time>
      </trkpt>
      <trkpt lat="48.90504" lon="7.36535">
        <ele>297</ele>
        <time>2011-05-22T11:27:37Z</time>
      </trkpt>
      <trkpt lat="48.90526" lon="7.36565">
        <ele>296</ele>
        <time>2011-05-22T11:27:44Z</time>
      </trkpt>
      <trkpt lat="48.90543" lon="7.36598">
        <ele>296.2</ele>
        <time>2011-05-22T11:27:51Z</time>
      </trkpt>
      <trkpt lat="48.90563" lon="7.36629">
        <ele>295.6</ele>
        <time>2011-05-22T11:27:58Z</time>
      </trkpt>
      <trkpt lat="48.90582" lon="7.36658">
        <ele>295.2</ele>
        <time>2011-05-22T11:28:04Z</time>
      </trkpt>
      <trkpt lat="48.90602" lon="7.36688">
        <ele>292.9</ele>
        <time>2011-05-22T11:28:11Z</time>
      </trkpt>
      <trkpt lat="48.90622" lon="7.36716">
        <ele>290.3</ele>
        <time>2011-05-22T11:28:18Z</time>
      </trkpt>
      <trkpt lat="48.90643" lon="7.36744">
        <ele>288.4</ele>
        <time>2011-05-22T11:28:27Z</time>
      </trkpt>
      <trkpt lat="48.90626" lon="7.36776">
        <ele>291</ele>
        <time>2011-05-22T11:28:42Z</time>
      </trkpt>
      <trkpt lat="48.90632" lon="7.36734">
        <ele>289.7</ele>
        <time>2011-05-22T11:31:43Z</time>
      </trkpt>
      <trkpt lat="48.90611" lon="7.36707">
        <ele>292</ele>
        <time>2011-05-22T11:31:51Z</time>
      </trkpt>
      <trkpt lat="48.9059" lon="7.36676">
        <ele>294.8</ele>
        <time>2011-05-22T11:31:59Z</time>
      </trkpt>
      <trkpt lat="48.90571" lon="7.36647">
        <ele>296</ele>
        <time>2011-05-22T11:32:53Z</time>
      </trkpt>
      <trkpt lat="48.90552" lon="7.36609">
        <ele>295.6</ele>
        <time>2011-05-22T11:33:01Z</time>
      </trkpt>
      <trkpt lat="48.90535" lon="7.36576">
        <ele>295.5</ele>
        <time>2011-05-22T11:33:07Z</time>
      </trkpt>
      <trkpt lat="48.90513" lon="7.36546">
        <ele>296.4</ele>
        <time>2011-05-22T11:33:14Z</time>
      </trkpt>
      <trkpt lat="48.90494" lon="7.36514">
        <ele>296.6</ele>
        <time>2011-05-22T11:33:20Z</time>
      </trkpt>
      <trkpt lat="48.90476" lon="7.36482">
        <ele>296</ele>
        <time>2011-05-22T11:33:26Z</time>
      </trkpt>
      <trkpt lat="48.90451" lon="7.36451">
        <ele>296</ele>
        <time>2011-05-22T11:33:33Z</time>
      </trkpt>
      <trkpt lat="48.9043" lon="7.36425">
        <ele>295.9</ele>
        <time>2011-05-22T11:33:39Z</time>
      </trkpt>
      <trkpt lat="48.90408" lon="7.36395">
        <ele>295.1</ele>
        <time>2011-05-22T11:34:25Z</time>
      </trkpt>
      <trkpt lat="48.90387" lon="7.36364">
        <ele>294.6</ele>
        <time>2011-05-22T11:35:08Z</time>
      </trkpt>
      <trkpt lat="48.90366" lon="7.3633">
        <ele>294.3</ele>
        <time>2011-05-22T11:35:15Z</time>
      </trkpt>
      <trkpt lat="48.90344" lon="7.36294">
        <ele>294.1</ele>
        <time>2011-05-22T11:35:21Z</time>
      </trkpt>
      <trkpt lat="48.90326" lon="7.36263">
        <ele>294.2</ele>
        <time>2011-05-22T11:35:27Z</time>
      </trkpt>
      <trkpt lat="48.90313" lon="7.36222">
        <ele>292.6</ele>
        <time>2011-05-22T11:35:33Z</time>
      </trkpt>
      <trkpt lat="48.90305" lon="7.36175">
        <ele>289.8</ele>
        <time>2011-05-22T11:35:39Z</time>
      </trkpt>
      <trkpt lat="48.90294" lon="7.36132">
        <ele>288.3</ele>
        <time>2011-05-22T11:35:44Z</time>
      </trkpt>
      <trkpt lat="48.90287" lon="7.36091">
        <ele>286</ele>
        <time>2011-05-22T11:35:48Z</time>
      </trkpt>
      <trkpt lat="48.90276" lon="7.36052">
        <ele>285.1</ele>
        <time>2011-05-22T11:35:52Z</time>
      </trkpt>
      <trkpt lat="48.90263" lon="7.36015">
        <ele>284.4</ele>
        <time>2011-05-22T11:35:57Z</time>
      </trkpt>
      <trkpt lat="48.90244" lon="7.3598">
        <ele>284.5</ele>
        <time>2011-05-22T11:36:02Z</time>
      </trkpt>
      <trkpt lat="48.90229" lon="7.35944">
        <ele>284.2</ele>
        <time>2011-05-22T11:36:07Z</time>
      </trkpt>
      <trkpt lat="48.90209" lon="7.35911">
        <ele>284.8</ele>
        <time>2011-05-22T11:36:14Z</time>
      </trkpt>
      <trkpt lat="48.90188" lon="7.35878">
        <ele>284.4</ele>
        <time>2011-05-22T11:36:20Z</time>
      </trkpt>
      <trkpt lat="48.9016" lon="7.35853">
        <ele>284.6</ele>
        <time>2011-05-22T11:36:26Z</time>
      </trkpt>
      <trkpt lat="48.90135" lon="7.35838">
        <ele>285.6</ele>
        <time>2011-05-22T11:36:32Z</time>
      </trkpt>
      <trkpt lat="48.90107" lon="7.35838">
        <ele>288.7</ele>
        <time>2011-05-22T11:36:48Z</time>
      </trkpt>
      <trkpt lat="48.90085" lon="7.35815">
        <ele>288.2</ele>
        <time>2011-05-22T11:37:34Z</time>
      </trkpt>
      <trkpt lat="48.90064" lon="7.3579">
        <ele>289.9</ele>
        <time>2011-05-22T11:37:42Z</time>
      </trkpt>
      <trkpt lat="48.90046" lon="7.35754">
        <ele>289.9</ele>
        <time>2011-05-22T11:37:51Z</time>
      </trkpt>
      <trkpt lat="48.90027" lon="7.35719">
        <ele>289.4</ele>
        <time>2011-05-22T11:37:59Z</time>
      </trkpt>
      <trkpt lat="48.90011" lon="7.35686">
        <ele>287.7</ele>
        <time>2011-05-22T11:38:07Z</time>
      </trkpt>
      <trkpt lat="48.89996" lon="7.35651">
        <ele>286.5</ele>
        <time>2011-05-22T11:38:16Z</time>
      </trkpt>
      <trkpt lat="48.89981" lon="7.35614">
        <ele>287.2</ele>
        <time>2011-05-22T11:38:22Z</time>
      </trkpt>
      <trkpt lat="48.8997" lon="7.35574">
        <ele>286.1</ele>
        <time>2011-05-22T11:38:29Z</time>
      </trkpt>
      <trkpt lat="48.89966" lon="7.35533">
        <ele>283.1</ele>
        <time>2011-05-22T11:38:40Z</time>
      </trkpt>
      <trkpt lat="48.89951" lon="7.35498">
        <ele>283.1</ele>
        <time>2011-05-22T11:38:48Z</time>
      </trkpt>
      <trkpt lat="48.89934" lon="7.3546">
        <ele>281.4</ele>
        <time>2011-05-22T11:38:54Z</time>
      </trkpt>
      <trkpt lat="48.8992" lon="7.35416">
        <ele>277.3</ele>
        <time>2011-05-22T11:38:58Z</time>
      </trkpt>
      <trkpt lat="48.89908" lon="7.35375">
        <ele>277.7</ele>
        <time>2011-05-22T11:39:04Z</time>
      </trkpt>
      <trkpt lat="48.89905" lon="7.35332">
        <ele>274.8</ele>
        <time>2011-05-22T11:39:13Z</time>
      </trkpt>
      <trkpt lat="48.89911" lon="7.35291">
        <ele>271.5</ele>
        <time>2011-05-22T11:39:25Z</time>
      </trkpt>
      <trkpt lat="48.89912" lon="7.3525">
        <ele>271</ele>
        <time>2011-05-22T11:39:35Z</time>
      </trkpt>
      <trkpt lat="48.89911" lon="7.35207">
        <ele>270.8</ele>
        <time>2011-05-22T11:39:45Z</time>
      </trkpt>
      <trkpt lat="48.8991" lon="7.35162">
        <ele>269.9</ele>
        <time>2011-05-22T11:39:54Z</time>
      </trkpt>
      <trkpt lat="48.89914" lon="7.35116">
        <ele>267.4</ele>
        <time>2011-05-22T11:40:03Z</time>
      </trkpt>
      <trkpt lat="48.8992" lon="7.35073">
        <ele>265.2</ele>
        <time>2011-05-22T11:40:09Z</time>
      </trkpt>
      <trkpt lat="48.89922" lon="7.3503">
        <ele>263.5</ele>
        <time>2011-05-22T11:40:22Z</time>
      </trkpt>
      <trkpt lat="48.89915" lon="7.34984">
        <ele>262.2</ele>
        <time>2011-05-22T11:40:31Z</time>
      </trkpt>
      <trkpt lat="48.89917" lon="7.34943">
        <ele>258.9</ele>
        <time>2011-05-22T11:40:37Z</time>
      </trkpt>
      <trkpt lat="48.89916" lon="7.34901">
        <ele>255.5</ele>
        <time>2011-05-22T11:40:45Z</time>
      </trkpt>
      <trkpt lat="48.89911" lon="7.34856">
        <ele>251</ele>
        <time>2011-05-22T11:40:52Z</time>
      </trkpt>
      <trkpt lat="48.8992" lon="7.34817">
        <ele>247</ele>
        <time>2011-05-22T11:41:00Z</time>
      </trkpt>
      <trkpt lat="48.8993" lon="7.34777">
        <ele>244.7</ele>
        <time>2011-05-22T11:41:10Z</time>
      </trkpt>
      <trkpt lat="48.89944" lon="7.3474">
        <ele>244</ele>
        <time>2011-05-22T11:41:19Z</time>
      </trkpt>
      <trkpt lat="48.89958" lon="7.34701">
        <ele>246.3</ele>
        <time>2011-05-22T11:41:56Z</time>
      </trkpt>
      <trkpt lat="48.89974" lon="7.34663">
        <ele>248.9</ele>
        <time>2011-05-22T11:42:08Z</time>
      </trkpt>
      <trkpt lat="48.89994" lon="7.34634">
        <ele>250.5</ele>
        <time>2011-05-22T11:42:20Z</time>
      </trkpt>
      <trkpt lat="48.90015" lon="7.34607">
        <ele>251.4</ele>
        <time>2011-05-22T11:42:35Z</time>
      </trkpt>
      <trkpt lat="48.89997" lon="7.34637">
        <ele>250.4</ele>
        <time>2011-05-22T11:49:14Z</time>
      </trkpt>
      <trkpt lat="48.89975" lon="7.34672">
        <ele>248.3</ele>
        <time>2011-05-22T11:49:20Z</time>
      </trkpt>
      <trkpt lat="48.89957" lon="7.34713">
        <ele>245.4</ele>
        <time>2011-05-22T11:49:25Z</time>
      </trkpt>
      <trkpt lat="48.89943" lon="7.3475">
        <ele>243.4</ele>
        <time>2011-05-22T11:49:29Z</time>
      </trkpt>
      <trkpt lat="48.89929" lon="7.34786">
        <ele>245.1</ele>
        <time>2011-05-22T11:49:33Z</time>
      </trkpt>
      <trkpt lat="48.89916" lon="7.34825">
        <ele>247.7</ele>
        <time>2011-05-22T11:49:39Z</time>
      </trkpt>
      <trkpt lat="48.89907" lon="7.34865">
        <ele>252.4</ele>
        <time>2011-05-22T11:49:51Z</time>
      </trkpt>
      <trkpt lat="48.89911" lon="7.34905">
        <ele>256.5</ele>
        <time>2011-05-22T11:50:05Z</time>
      </trkpt>
      <trkpt lat="48.8991" lon="7.34946">
        <ele>260.2</ele>
        <time>2011-05-22T11:50:27Z</time>
      </trkpt>
      <trkpt lat="48.8991" lon="7.34988">
        <ele>263.5</ele>
        <time>2011-05-22T11:50:48Z</time>
      </trkpt>
      <trkpt lat="48.89917" lon="7.35028">
        <ele>264</ele>
        <time>2011-05-22T11:51:02Z</time>
      </trkpt>
      <trkpt lat="48.89919" lon="7.3507">
        <ele>265.2</ele>
        <time>2011-05-22T11:51:17Z</time>
      </trkpt>
      <trkpt lat="48.89911" lon="7.35111">
        <ele>268.2</ele>
        <time>2011-05-22T11:51:32Z</time>
      </trkpt>
      <trkpt lat="48.89907" lon="7.35154">
        <ele>270.7</ele>
        <time>2011-05-22T11:51:45Z</time>
      </trkpt>
      <trkpt lat="48.89907" lon="7.35196">
        <ele>271.9</ele>
        <time>2011-05-22T11:51:53Z</time>
      </trkpt>
      <trkpt lat="48.89908" lon="7.35239">
        <ele>272.4</ele>
        <time>2011-05-22T11:52:01Z</time>
      </trkpt>
      <trkpt lat="48.89908" lon="7.35284">
        <ele>273</ele>
        <time>2011-05-22T11:52:09Z</time>
      </trkpt>
      <trkpt lat="48.89902" lon="7.35326">
        <ele>276.3</ele>
        <time>2011-05-22T11:52:15Z</time>
      </trkpt>
      <trkpt lat="48.89901" lon="7.35372">
        <ele>280.8</ele>
        <time>2011-05-22T11:52:20Z</time>
      </trkpt>
      <trkpt lat="48.89912" lon="7.35414">
        <ele>280</ele>
        <time>2011-05-22T11:52:26Z</time>
      </trkpt>
      <trkpt lat="48.89927" lon="7.35449">
        <ele>281.3</ele>
        <time>2011-05-22T11:52:36Z</time>
      </trkpt>
      <trkpt lat="48.8994" lon="7.35487">
        <ele>284.4</ele>
        <time>2011-05-22T11:52:47Z</time>
      </trkpt>
      <trkpt lat="48.8995" lon="7.35526">
        <ele>286.9</ele>
        <time>2011-05-22T11:53:02Z</time>
      </trkpt>
      <trkpt lat="48.89963" lon="7.35562">
        <ele>287.2</ele>
        <time>2011-05-22T11:53:21Z</time>
      </trkpt>
      <trkpt lat="48.89973" lon="7.356">
        <ele>288.1</ele>
        <time>2011-05-22T11:53:36Z</time>
      </trkpt>
      <trkpt lat="48.89987" lon="7.35637">
        <ele>287.9</ele>
        <time>2011-05-22T11:53:47Z</time>
      </trkpt>
      <trkpt lat="48.90001" lon="7.35672">
        <ele>287.6</ele>
        <time>2011-05-22T11:54:17Z</time>
      </trkpt>
      <trkpt lat="48.90017" lon="7.35705">
        <ele>289.6</ele>
        <time>2011-05-22T11:54:28Z</time>
      </trkpt>
      <trkpt lat="48.90037" lon="7.35735">
        <ele>289.4</ele>
        <time>2011-05-22T11:54:35Z</time>
      </trkpt>
      <trkpt lat="48.9006" lon="7.35766">
        <ele>287.6</ele>
        <time>2011-05-22T11:54:42Z</time>
      </trkpt>
      <trkpt lat="48.90076" lon="7.35803">
        <ele>288.3</ele>
        <time>2011-05-22T11:54:50Z</time>
      </trkpt>
      <trkpt lat="48.90099" lon="7.35827">
        <ele>288.3</ele>
        <time>2011-05-22T11:54:57Z</time>
      </trkpt>
      <trkpt lat="48.90113" lon="7.35791">
        <ele>282</ele>
        <time>2011-05-22T11:56:06Z</time>
      </trkpt>
      <trkpt lat="48.9011" lon="7.35749">
        <ele>276.6</ele>
        <time>2011-05-22T11:56:23Z</time>
      </trkpt>
      <trkpt lat="48.90116" lon="7.35707">
        <ele>270.7</ele>
        <time>2011-05-22T11:56:31Z</time>
      </trkpt>
      <trkpt lat="48.90142" lon="7.35683">
        <ele>266.1</ele>
        <time>2011-05-22T11:56:37Z</time>
      </trkpt>
      <trkpt lat="48.90171" lon="7.35664">
        <ele>262.8</ele>
        <time>2011-05-22T11:56:43Z</time>
      </trkpt>
      <trkpt lat="48.90186" lon="7.3563">
        <ele>261.1</ele>
        <time>2011-05-22T11:56:54Z</time>
      </trkpt>
      <trkpt lat="48.90208" lon="7.35604">
        <ele>259.6</ele>
        <time>2011-05-22T11:57:02Z</time>
      </trkpt>
      <trkpt lat="48.90234" lon="7.3559">
        <ele>258.6</ele>
        <time>2011-05-22T11:57:08Z</time>
      </trkpt>
      <trkpt lat="48.90263" lon="7.35572">
        <ele>256.8</ele>
        <time>2011-05-22T11:57:14Z</time>
      </trkpt>
      <trkpt lat="48.90289" lon="7.35551">
        <ele>254.4</ele>
        <time>2011-05-22T11:57:21Z</time>
      </trkpt>
      <trkpt lat="48.90315" lon="7.35534">
        <ele>252</ele>
        <time>2011-05-22T11:57:26Z</time>
      </trkpt>
      <trkpt lat="48.90339" lon="7.35514">
        <ele>249.4</ele>
        <time>2011-05-22T11:57:34Z</time>
      </trkpt>
      <trkpt lat="48.90369" lon="7.35521">
        <ele>247.7</ele>
        <time>2011-05-22T11:58:34Z</time>
      </trkpt>
      <trkpt lat="48.90396" lon="7.35536">
        <ele>246.7</ele>
        <time>2011-05-22T11:58:52Z</time>
      </trkpt>
      <trkpt lat="48.9042" lon="7.35556">
        <ele>246.2</ele>
        <time>2011-05-22T11:58:59Z</time>
      </trkpt>
      <trkpt lat="48.90445" lon="7.35572">
        <ele>245.9</ele>
        <time>2011-05-22T11:59:08Z</time>
      </trkpt>
      <trkpt lat="48.90456" lon="7.35616">
        <ele>244.8</ele>
        <time>2011-05-22T11:59:16Z</time>
      </trkpt>
      <trkpt lat="48.90462" lon="7.35665">
        <ele>243.3</ele>
        <time>2011-05-22T11:59:23Z</time>
      </trkpt>
      <trkpt lat="48.90475" lon="7.35707">
        <ele>241.3</ele>
        <time>2011-05-22T11:59:31Z</time>
      </trkpt>
      <trkpt lat="48.90485" lon="7.35751">
        <ele>238.9</ele>
        <time>2011-05-22T11:59:39Z</time>
      </trkpt>
      <trkpt lat="48.90482" lon="7.35795">
        <ele>240.6</ele>
        <time>2011-05-22T11:59:44Z</time>
      </trkpt>
      <trkpt lat="48.90478" lon="7.35836">
        <ele>242.8</ele>
        <time>2011-05-22T11:59:48Z</time>
      </trkpt>
      <trkpt lat="48.90494" lon="7.35873">
        <ele>240.3</ele>
        <time>2011-05-22T11:59:52Z</time>
      </trkpt>
      <trkpt lat="48.90506" lon="7.35913">
        <ele>239.7</ele>
        <time>2011-05-22T11:59:57Z</time>
      </trkpt>
      <trkpt lat="48.90516" lon="7.35957">
        <ele>241</ele>
        <time>2011-05-22T12:00:03Z</time>
      </trkpt>
      <trkpt lat="48.90519" lon="7.36">
        <ele>242.5</ele>
        <time>2011-05-22T12:00:08Z</time>
      </trkpt>
      <trkpt lat="48.90528" lon="7.36047">
        <ele>242.2</ele>
        <time>2011-05-22T12:00:14Z</time>
      </trkpt>
      <trkpt lat="48.90542" lon="7.36084">
        <ele>240.5</ele>
        <time>2011-05-22T12:00:20Z</time>
      </trkpt>
      <trkpt lat="48.90567" lon="7.36124">
        <ele>235.2</ele>
        <time>2011-05-22T12:00:26Z</time>
      </trkpt>
      <trkpt lat="48.90559" lon="7.36164">
        <ele>235.9</ele>
        <time>2011-05-22T12:00:33Z</time>
      </trkpt>
      <trkpt lat="48.90567" lon="7.36207">
        <ele>236.5</ele>
        <time>2011-05-22T12:00:40Z</time>
      </trkpt>
      <trkpt lat="48.90584" lon="7.36239">
        <ele>234.4</ele>
        <time>2011-05-22T12:00:46Z</time>
      </trkpt>
      <trkpt lat="48.90601" lon="7.36275">
        <ele>237.2</ele>
        <time>2011-05-22T12:00:52Z</time>
      </trkpt>
      <trkpt lat="48.9062" lon="7.36306">
        <ele>238.8</ele>
        <time>2011-05-22T12:00:59Z</time>
      </trkpt>
      <trkpt lat="48.90641" lon="7.36335">
        <ele>238.1</ele>
        <time>2011-05-22T12:01:08Z</time>
      </trkpt>
      <trkpt lat="48.90662" lon="7.36361">
        <ele>236.1</ele>
        <time>2011-05-22T12:01:15Z</time>
      </trkpt>
      <trkpt lat="48.90688" lon="7.36381">
        <ele>236.1</ele>
        <time>2011-05-22T12:01:22Z</time>
      </trkpt>
      <trkpt lat="48.90712" lon="7.36407">
        <ele>237</ele>
        <time>2011-05-22T12:01:32Z</time>
      </trkpt>
      <trkpt lat="48.90736" lon="7.36433">
        <ele>237.7</ele>
        <time>2011-05-22T12:01:44Z</time>
      </trkpt>
      <trkpt lat="48.9076" lon="7.36453">
        <ele>237.5</ele>
        <time>2011-05-22T12:01:52Z</time>
      </trkpt>
      <trkpt lat="48.90783" lon="7.36478">
        <ele>237.7</ele>
        <time>2011-05-22T12:02:03Z</time>
      </trkpt>
      <trkpt lat="48.90812" lon="7.36492">
        <ele>236.4</ele>
        <time>2011-05-22T12:02:10Z</time>
      </trkpt>
      <trkpt lat="48.90842" lon="7.36512">
        <ele>235.2</ele>
        <time>2011-05-22T12:02:16Z</time>
      </trkpt>
      <trkpt lat="48.90865" lon="7.36536">
        <ele>234.8</ele>
        <time>2011-05-22T12:02:20Z</time>
      </trkpt>
      <trkpt lat="48.90888" lon="7.36562">
        <ele>234</ele>
        <time>2011-05-22T12:02:25Z</time>
      </trkpt>
      <trkpt lat="48.90914" lon="7.36581">
        <ele>232.2</ele>
        <time>2011-05-22T12:02:31Z</time>
      </trkpt>
      <trkpt lat="48.90941" lon="7.36606">
        <ele>232.3</ele>
        <time>2011-05-22T12:02:36Z</time>
      </trkpt>
      <trkpt lat="48.9097" lon="7.36633">
        <ele>232.8</ele>
        <time>2011-05-22T12:02:42Z</time>
      </trkpt>
      <trkpt lat="48.90996" lon="7.36651">
        <ele>233</ele>
        <time>2011-05-22T12:02:47Z</time>
      </trkpt>
      <trkpt lat="48.91022" lon="7.36664">
        <ele>233.1</ele>
        <time>2011-05-22T12:02:53Z</time>
      </trkpt>
      <trkpt lat="48.91049" lon="7.3668">
        <ele>232.9</ele>
        <time>2011-05-22T12:03:01Z</time>
      </trkpt>
      <trkpt lat="48.91068" lon="7.3671">
        <ele>233.9</ele>
        <time>2011-05-22T12:03:09Z</time>
      </trkpt>
      <trkpt lat="48.9109" lon="7.36743">
        <ele>235.1</ele>
        <time>2011-05-22T12:03:16Z</time>
      </trkpt>
      <trkpt lat="48.91118" lon="7.36761">
        <ele>234.6</ele>
        <time>2011-05-22T12:03:23Z</time>
      </trkpt>
      <trkpt lat="48.91145" lon="7.36781">
        <ele>234.7</ele>
        <time>2011-05-22T12:03:28Z</time>
      </trkpt>
      <trkpt lat="48.91168" lon="7.3681">
        <ele>236.3</ele>
        <time>2011-05-22T12:03:36Z</time>
      </trkpt>
      <trkpt lat="48.91187" lon="7.36842">
        <ele>237.4</ele>
        <time>2011-05-22T12:03:43Z</time>
      </trkpt>
      <trkpt lat="48.91212" lon="7.36872">
        <ele>237.3</ele>
        <time>2011-05-22T12:03:49Z</time>
      </trkpt>
      <trkpt lat="48.91233" lon="7.36907">
        <ele>238</ele>
        <time>2011-05-22T12:03:56Z</time>
      </trkpt>
      <trkpt lat="48.91253" lon="7.36941">
        <ele>238.3</ele>
        <time>2011-05-22T12:04:03Z</time>
      </trkpt>
      <trkpt lat="48.91276" lon="7.36971">
        <ele>237.1</ele>
        <time>2011-05-22T12:04:09Z</time>
      </trkpt>
      <trkpt lat="48.91301" lon="7.36995">
        <ele>235.3</ele>
        <time>2011-05-22T12:04:14Z</time>
      </trkpt>
      <trkpt lat="48.91325" lon="7.37027">
        <ele>235</ele>
        <time>2011-05-22T12:04:19Z</time>
      </trkpt>
      <trkpt lat="48.91349" lon="7.37051">
        <ele>234.1</ele>
        <time>2011-05-22T12:04:24Z</time>
      </trkpt>
      <trkpt lat="48.91375" lon="7.37071">
        <ele>233.2</ele>
        <time>2011-05-22T12:04:29Z</time>
      </trkpt>
      <trkpt lat="48.91396" lon="7.37095">
        <ele>232.8</ele>
        <time>2011-05-22T12:05:13Z</time>
      </trkpt>
      <trkpt lat="48.91415" lon="7.37132">
        <ele>231.5</ele>
        <time>2011-05-22T12:05:21Z</time>
      </trkpt>
      <trkpt lat="48.91426" lon="7.37177">
        <ele>232.2</ele>
        <time>2011-05-22T12:05:27Z</time>
      </trkpt>
      <trkpt lat="48.91436" lon="7.3722">
        <ele>234.8</ele>
        <time>2011-05-22T12:05:34Z</time>
      </trkpt>
      <trkpt lat="48.91449" lon="7.3726">
        <ele>235.6</ele>
        <time>2011-05-22T12:05:40Z</time>
      </trkpt>
      <trkpt lat="48.9146" lon="7.37299">
        <ele>234.7</ele>
        <time>2011-05-22T12:05:58Z</time>
      </trkpt>
      <trkpt lat="48.91471" lon="7.37337">
        <ele>233.7</ele>
        <time>2011-05-22T12:06:08Z</time>
      </trkpt>
      <trkpt lat="48.91484" lon="7.37374">
        <ele>232.8</ele>
        <time>2011-05-22T12:08:14Z</time>
      </trkpt>
      <trkpt lat="48.91496" lon="7.37416">
        <ele>232.6</ele>
        <time>2011-05-22T12:08:21Z</time>
      </trkpt>
      <trkpt lat="48.91512" lon="7.37448">
        <ele>231.4</ele>
        <time>2011-05-22T12:08:28Z</time>
      </trkpt>
      <trkpt lat="48.91524" lon="7.37489">
        <ele>231.6</ele>
        <time>2011-05-22T12:08:36Z</time>
      </trkpt>
      <trkpt lat="48.9155" lon="7.37483">
        <ele>229.9</ele>
        <time>2011-05-22T12:08:46Z</time>
      </trkpt>
      <trkpt lat="48.9156" lon="7.37442">
        <ele>227.4</ele>
        <time>2011-05-22T12:08:52Z</time>
      </trkpt>
      <trkpt lat="48.9157" lon="7.37402">
        <ele>224.5</ele>
        <time>2011-05-22T12:08:58Z</time>
      </trkpt>
      <trkpt lat="48.91579" lon="7.3736">
        <ele>221</ele>
        <time>2011-05-22T12:09:04Z</time>
      </trkpt>
      <trkpt lat="48.91598" lon="7.37324">
        <ele>219</ele>
        <time>2011-05-22T12:09:11Z</time>
      </trkpt>
      <trkpt lat="48.91625" lon="7.37301">
        <ele>218.7</ele>
        <time>2011-05-22T12:09:19Z</time>
      </trkpt>
      <trkpt lat="48.91651" lon="7.37282">
        <ele>218.6</ele>
        <time>2011-05-22T12:09:28Z</time>
      </trkpt>
      <trkpt lat="48.91665" lon="7.37246">
        <ele>217.9</ele>
        <time>2011-05-22T12:09:35Z</time>
      </trkpt>
      <trkpt lat="48.91673" lon="7.37202">
        <ele>217.5</ele>
        <time>2011-05-22T12:09:42Z</time>
      </trkpt>
      <trkpt lat="48.91678" lon="7.37159">
        <ele>217.5</ele>
        <time>2011-05-22T12:09:49Z</time>
      </trkpt>
      <trkpt lat="48.91683" lon="7.37115">
        <ele>219</ele>
        <time>2011-05-22T12:09:59Z</time>
      </trkpt>
      <trkpt lat="48.91699" lon="7.37079">
        <ele>220.1</ele>
        <time>2011-05-22T12:10:08Z</time>
      </trkpt>
      <trkpt lat="48.91726" lon="7.37074">
        <ele>220.3</ele>
        <time>2011-05-22T12:10:21Z</time>
      </trkpt>
      <trkpt lat="48.91745" lon="7.37046">
        <ele>221.3</ele>
        <time>2011-05-22T12:10:35Z</time>
      </trkpt>
      <trkpt lat="48.91744" lon="7.37002">
        <ele>222.9</ele>
        <time>2011-05-22T12:10:44Z</time>
      </trkpt>
      <trkpt lat="48.91742" lon="7.36957">
        <ele>223.4</ele>
        <time>2011-05-22T12:10:53Z</time>
      </trkpt>
      <trkpt lat="48.91736" lon="7.36917">
        <ele>223.7</ele>
        <time>2011-05-22T12:11:00Z</time>
      </trkpt>
      <trkpt lat="48.91723" lon="7.36879">
        <ele>224.1</ele>
        <time>2011-05-22T12:11:07Z</time>
      </trkpt>
      <trkpt lat="48.91702" lon="7.36848">
        <ele>224.6</ele>
        <time>2011-05-22T12:11:14Z</time>
      </trkpt>
      <trkpt lat="48.91676" lon="7.36824">
        <ele>225.4</ele>
        <time>2011-05-22T12:11:21Z</time>
      </trkpt>
      <trkpt lat="48.91652" lon="7.36798">
        <ele>226.8</ele>
        <time>2011-05-22T12:11:28Z</time>
      </trkpt>
      <trkpt lat="48.91636" lon="7.36762">
        <ele>227.9</ele>
        <time>2011-05-22T12:11:34Z</time>
      </trkpt>
      <trkpt lat="48.91614" lon="7.36739">
        <ele>228.3</ele>
        <time>2011-05-22T12:11:40Z</time>
      </trkpt>
      <trkpt lat="48.91592" lon="7.36715">
        <ele>228.6</ele>
        <time>2011-05-22T12:11:47Z</time>
      </trkpt>
      <trkpt lat="48.91564" lon="7.36724">
        <ele>228.6</ele>
        <time>2011-05-22T12:11:59Z</time>
      </trkpt>
      <trkpt lat="48.91541" lon="7.36702">
        <ele>230.3</ele>
        <time>2011-05-22T12:12:13Z</time>
      </trkpt>
      <trkpt lat="48.91566" lon="7.36727">
        <ele>228.5</ele>
        <time>2011-05-22T12:16:40Z</time>
      </trkpt>
      <trkpt lat="48.91594" lon="7.36728">
        <ele>228.1</ele>
        <time>2011-05-22T12:16:47Z</time>
      </trkpt>
      <trkpt lat="48.9162" lon="7.36747">
        <ele>228.1</ele>
        <time>2011-05-22T12:16:55Z</time>
      </trkpt>
      <trkpt lat="48.91642" lon="7.36773">
        <ele>227.6</ele>
        <time>2011-05-22T12:17:02Z</time>
      </trkpt>
    </trkseg>
  </trk>
</gpx>